<?xml version="1.0" encoding="UTF-8" standalone="no" ?>
<gpx xmlns="http://www.topografix.com/GPX/1/1" xmlns:gpxtpx="http://www.garmin.com/xmlschemas/TrackPointExtension/v1" creator="OruxMaps v.7.0.2" version="1.1" xmlns:xsi="http://www.w3.org/2001/XMLSchema-instance" xsi:schemaLocation="http://www.topografix.com/GPX/1/1 http://www.topografix.com/GPX/1/1/gpx.xsd">
<metadata>
<name><![CDATA[2017-10-27 10:31]]></name>
<link href="http://www.oruxmaps.com">
<text>OruxMaps</text>
</link>
<time>2017-10-27T08:31:19Z</time><bounds maxlat="42.2019741" maxlon="1.6288638" minlat="42.1761357" minlon="1.5814680"/>
</metadata>
<trk>
<name><![CDATA[2017-10-27 10:31]]></name>
<desc><![CDATA[<p>Hora Inici: 10/27/2017 10:31<br/>Hora Fi: 10/27/2017 17:16<br/>Distància recorreguda: 16,3 km (06:45)<br/>Temps en moviment: 04:04<br/>Velocitat mitjana: 2,42 km/h<br/>Vel. en Mov.: 4 km/h<br/>Velocitat Màxima: 12,12 km/h<br/>Altura Mínima: 988 m<br/>Altura Màxima: 2284 m<br/>Velocitat d'Ascens: 450,2 m/h<br/>Velocitat de Descens: -407,7 m/h<br/>Guany d'altitud: 1419 m<br/>Pèrdua d'altitud: -1415 m<br/>Temps d'Ascens: 03:09<br/>Temps de Descens: 03:28<br/></p><hr align="center" width="480" style="height: 2px; width: 517px"/>]]></desc>
<type>Indefinit</type>
<extensions>
<om:oruxmapsextensions xmlns:om="http://www.oruxmaps.com/oruxmapsextensions/1/0">
<om:ext type="TYPE" subtype="0">0</om:ext>
<om:ext type="DIFFICULTY">0</om:ext>
</om:oruxmapsextensions>
</extensions>
<trkseg>
<trkpt lat="42.1762015" lon="1.5907736">
<ele>1013.92</ele>
<time>2017-10-27T08:31:20Z</time>
</trkpt>
<trkpt lat="42.1763000" lon="1.5907986">
<ele>998.92</ele>
<time>2017-10-27T08:32:09Z</time>
</trkpt>
<trkpt lat="42.1764114" lon="1.5908576">
<ele>993.92</ele>
<time>2017-10-27T08:32:19Z</time>
</trkpt>
<trkpt lat="42.1765014" lon="1.5909191">
<ele>988.92</ele>
<time>2017-10-27T08:32:24Z</time>
</trkpt>
<trkpt lat="42.1765926" lon="1.5909726">
<ele>989.92</ele>
<time>2017-10-27T08:32:30Z</time>
</trkpt>
<trkpt lat="42.1766863" lon="1.5909835">
<ele>990.92</ele>
<time>2017-10-27T08:32:36Z</time>
</trkpt>
<trkpt lat="42.1767765" lon="1.5910073">
<ele>990.92</ele>
<time>2017-10-27T08:32:43Z</time>
</trkpt>
<trkpt lat="42.1768506" lon="1.5910808">
<ele>989.92</ele>
<time>2017-10-27T08:32:49Z</time>
</trkpt>
<trkpt lat="42.1769275" lon="1.5911535">
<ele>989.92</ele>
<time>2017-10-27T08:32:58Z</time>
</trkpt>
<trkpt lat="42.1770208" lon="1.5911325">
<ele>993.92</ele>
<time>2017-10-27T08:33:05Z</time>
</trkpt>
<trkpt lat="42.1770873" lon="1.5912292">
<ele>991.92</ele>
<time>2017-10-27T08:33:20Z</time>
</trkpt>
<trkpt lat="42.1771861" lon="1.5912093">
<ele>991.92</ele>
<time>2017-10-27T08:33:25Z</time>
</trkpt>
<trkpt lat="42.1772768" lon="1.5912142">
<ele>993.92</ele>
<time>2017-10-27T08:33:31Z</time>
</trkpt>
<trkpt lat="42.1773754" lon="1.5912243">
<ele>1005.92</ele>
<time>2017-10-27T08:33:44Z</time>
</trkpt>
<trkpt lat="42.1774591" lon="1.5912706">
<ele>1015.92</ele>
<time>2017-10-27T08:33:58Z</time>
</trkpt>
<trkpt lat="42.1775498" lon="1.5912991">
<ele>1025.92</ele>
<time>2017-10-27T08:34:11Z</time>
</trkpt>
<trkpt lat="42.1776404" lon="1.5913083">
<ele>1033.92</ele>
<time>2017-10-27T08:34:25Z</time>
</trkpt>
<trkpt lat="42.1776979" lon="1.5914088">
<ele>1035.92</ele>
<time>2017-10-27T08:34:38Z</time>
</trkpt>
<trkpt lat="42.1777421" lon="1.5915230">
<ele>1040.92</ele>
<time>2017-10-27T08:34:52Z</time>
</trkpt>
<trkpt lat="42.1777674" lon="1.5916470">
<ele>1039.92</ele>
<time>2017-10-27T08:35:00Z</time>
</trkpt>
<trkpt lat="42.1777143" lon="1.5917501">
<ele>1040.92</ele>
<time>2017-10-27T08:35:09Z</time>
</trkpt>
<trkpt lat="42.1776190" lon="1.5917403">
<ele>1040.92</ele>
<time>2017-10-27T08:35:19Z</time>
</trkpt>
<trkpt lat="42.1775200" lon="1.5917295">
<ele>1038.92</ele>
<time>2017-10-27T08:35:31Z</time>
</trkpt>
<trkpt lat="42.1774295" lon="1.5917597">
<ele>1036.92</ele>
<time>2017-10-27T08:35:45Z</time>
</trkpt>
<trkpt lat="42.1773741" lon="1.5918560">
<ele>1041.92</ele>
<time>2017-10-27T08:35:59Z</time>
</trkpt>
<trkpt lat="42.1774680" lon="1.5918451">
<ele>1046.92</ele>
<time>2017-10-27T08:36:08Z</time>
</trkpt>
<trkpt lat="42.1775601" lon="1.5918494">
<ele>1049.92</ele>
<time>2017-10-27T08:36:20Z</time>
</trkpt>
<trkpt lat="42.1776006" lon="1.5919594">
<ele>1052.92</ele>
<time>2017-10-27T08:36:33Z</time>
</trkpt>
<trkpt lat="42.1775410" lon="1.5920525">
<ele>1053.92</ele>
<time>2017-10-27T08:36:45Z</time>
</trkpt>
<trkpt lat="42.1774560" lon="1.5921106">
<ele>1053.92</ele>
<time>2017-10-27T08:36:56Z</time>
</trkpt>
<trkpt lat="42.1773889" lon="1.5922015">
<ele>1055.92</ele>
<time>2017-10-27T08:37:04Z</time>
</trkpt>
<trkpt lat="42.1773024" lon="1.5922765">
<ele>1060.92</ele>
<time>2017-10-27T08:37:13Z</time>
</trkpt>
<trkpt lat="42.1772321" lon="1.5923594">
<ele>1066.92</ele>
<time>2017-10-27T08:37:25Z</time>
</trkpt>
<trkpt lat="42.1771700" lon="1.5924660">
<ele>1067.92</ele>
<time>2017-10-27T08:37:35Z</time>
</trkpt>
<trkpt lat="42.1771304" lon="1.5925965">
<ele>1065.92</ele>
<time>2017-10-27T08:37:46Z</time>
</trkpt>
<trkpt lat="42.1770670" lon="1.5926906">
<ele>1070.92</ele>
<time>2017-10-27T08:37:55Z</time>
</trkpt>
<trkpt lat="42.1770223" lon="1.5927987">
<ele>1074.92</ele>
<time>2017-10-27T08:38:06Z</time>
</trkpt>
<trkpt lat="42.1769676" lon="1.5929120">
<ele>1071.92</ele>
<time>2017-10-27T08:38:17Z</time>
</trkpt>
<trkpt lat="42.1769007" lon="1.5930215">
<ele>1074.92</ele>
<time>2017-10-27T08:38:25Z</time>
</trkpt>
<trkpt lat="42.1768742" lon="1.5931406">
<ele>1075.92</ele>
<time>2017-10-27T08:38:34Z</time>
</trkpt>
<trkpt lat="42.1769028" lon="1.5932724">
<ele>1076.92</ele>
<time>2017-10-27T08:38:54Z</time>
</trkpt>
<trkpt lat="42.1768987" lon="1.5933951">
<ele>1076.92</ele>
<time>2017-10-27T08:39:02Z</time>
</trkpt>
<trkpt lat="42.1768683" lon="1.5935110">
<ele>1073.92</ele>
<time>2017-10-27T08:39:16Z</time>
</trkpt>
<trkpt lat="42.1768349" lon="1.5936388">
<ele>1081.92</ele>
<time>2017-10-27T08:40:31Z</time>
</trkpt>
<trkpt lat="42.1767907" lon="1.5937605">
<ele>1079.92</ele>
<time>2017-10-27T08:40:41Z</time>
</trkpt>
<trkpt lat="42.1767599" lon="1.5938752">
<ele>1081.92</ele>
<time>2017-10-27T08:40:48Z</time>
</trkpt>
<trkpt lat="42.1767268" lon="1.5939926">
<ele>1078.92</ele>
<time>2017-10-27T08:40:56Z</time>
</trkpt>
<trkpt lat="42.1766653" lon="1.5940984">
<ele>1077.92</ele>
<time>2017-10-27T08:41:04Z</time>
</trkpt>
<trkpt lat="42.1766363" lon="1.5942247">
<ele>1078.92</ele>
<time>2017-10-27T08:41:53Z</time>
</trkpt>
<trkpt lat="42.1766323" lon="1.5943558">
<ele>1073.92</ele>
<time>2017-10-27T08:41:58Z</time>
</trkpt>
<trkpt lat="42.1766138" lon="1.5944767">
<ele>1079.92</ele>
<time>2017-10-27T08:42:04Z</time>
</trkpt>
<trkpt lat="42.1765952" lon="1.5946048">
<ele>1079.92</ele>
<time>2017-10-27T08:42:12Z</time>
</trkpt>
<trkpt lat="42.1765100" lon="1.5946695">
<ele>1079.92</ele>
<time>2017-10-27T08:42:21Z</time>
</trkpt>
<trkpt lat="42.1764658" lon="1.5947797">
<ele>1085.92</ele>
<time>2017-10-27T08:42:33Z</time>
</trkpt>
<trkpt lat="42.1764950" lon="1.5948987">
<ele>1093.92</ele>
<time>2017-10-27T08:42:56Z</time>
</trkpt>
<trkpt lat="42.1764200" lon="1.5949657">
<ele>1100.92</ele>
<time>2017-10-27T08:43:13Z</time>
</trkpt>
<trkpt lat="42.1765108" lon="1.5950589">
<ele>1106.92</ele>
<time>2017-10-27T08:43:47Z</time>
</trkpt>
<trkpt lat="42.1765417" lon="1.5951750">
<ele>1105.92</ele>
<time>2017-10-27T08:43:58Z</time>
</trkpt>
<trkpt lat="42.1766349" lon="1.5951584">
<ele>1114.92</ele>
<time>2017-10-27T08:44:22Z</time>
</trkpt>
<trkpt lat="42.1767306" lon="1.5951698">
<ele>1113.92</ele>
<time>2017-10-27T08:44:36Z</time>
</trkpt>
<trkpt lat="42.1768097" lon="1.5951120">
<ele>1115.92</ele>
<time>2017-10-27T08:44:48Z</time>
</trkpt>
<trkpt lat="42.1768837" lon="1.5951889">
<ele>1119.92</ele>
<time>2017-10-27T08:45:07Z</time>
</trkpt>
<trkpt lat="42.1769728" lon="1.5952176">
<ele>1121.92</ele>
<time>2017-10-27T08:45:22Z</time>
</trkpt>
<trkpt lat="42.1770534" lon="1.5951630">
<ele>1125.92</ele>
<time>2017-10-27T08:45:42Z</time>
</trkpt>
<trkpt lat="42.1771271" lon="1.5952372">
<ele>1129.92</ele>
<time>2017-10-27T08:46:06Z</time>
</trkpt>
<trkpt lat="42.1771382" lon="1.5953717">
<ele>1128.92</ele>
<time>2017-10-27T08:46:16Z</time>
</trkpt>
<trkpt lat="42.1771263" lon="1.5955052">
<ele>1129.92</ele>
<time>2017-10-27T08:46:30Z</time>
</trkpt>
<trkpt lat="42.1770947" lon="1.5956242">
<ele>1133.92</ele>
<time>2017-10-27T08:46:41Z</time>
</trkpt>
<trkpt lat="42.1770703" lon="1.5957422">
<ele>1135.92</ele>
<time>2017-10-27T08:46:57Z</time>
</trkpt>
<trkpt lat="42.1769924" lon="1.5958216">
<ele>1138.92</ele>
<time>2017-10-27T08:47:10Z</time>
</trkpt>
<trkpt lat="42.1769174" lon="1.5958973">
<ele>1148.92</ele>
<time>2017-10-27T08:47:24Z</time>
</trkpt>
<trkpt lat="42.1768991" lon="1.5960296">
<ele>1152.92</ele>
<time>2017-10-27T08:47:40Z</time>
</trkpt>
<trkpt lat="42.1769435" lon="1.5961490">
<ele>1157.92</ele>
<time>2017-10-27T08:47:49Z</time>
</trkpt>
<trkpt lat="42.1769092" lon="1.5962632">
<ele>1158.92</ele>
<time>2017-10-27T08:48:14Z</time>
</trkpt>
<trkpt lat="42.1769129" lon="1.5963854">
<ele>1160.92</ele>
<time>2017-10-27T08:48:22Z</time>
</trkpt>
<trkpt lat="42.1768902" lon="1.5965093">
<ele>1159.92</ele>
<time>2017-10-27T08:48:29Z</time>
</trkpt>
<trkpt lat="42.1769393" lon="1.5966263">
<ele>1158.92</ele>
<time>2017-10-27T08:48:43Z</time>
</trkpt>
<trkpt lat="42.1769912" lon="1.5967293">
<ele>1160.92</ele>
<time>2017-10-27T08:48:53Z</time>
</trkpt>
<trkpt lat="42.1770825" lon="1.5967804">
<ele>1158.92</ele>
<time>2017-10-27T08:49:00Z</time>
</trkpt>
<trkpt lat="42.1771566" lon="1.5968537">
<ele>1156.92</ele>
<time>2017-10-27T08:49:09Z</time>
</trkpt>
<trkpt lat="42.1772284" lon="1.5969616">
<ele>1158.92</ele>
<time>2017-10-27T08:49:17Z</time>
</trkpt>
<trkpt lat="42.1773240" lon="1.5970195">
<ele>1152.92</ele>
<time>2017-10-27T08:49:29Z</time>
</trkpt>
<trkpt lat="42.1773926" lon="1.5971232">
<ele>1155.92</ele>
<time>2017-10-27T08:49:34Z</time>
</trkpt>
<trkpt lat="42.1774869" lon="1.5971543">
<ele>1152.92</ele>
<time>2017-10-27T08:49:39Z</time>
</trkpt>
<trkpt lat="42.1775259" lon="1.5972652">
<ele>1159.92</ele>
<time>2017-10-27T08:49:53Z</time>
</trkpt>
<trkpt lat="42.1775941" lon="1.5973857">
<ele>1161.92</ele>
<time>2017-10-27T08:49:57Z</time>
</trkpt>
<trkpt lat="42.1776467" lon="1.5975242">
<ele>1161.92</ele>
<time>2017-10-27T08:50:04Z</time>
</trkpt>
<trkpt lat="42.1776807" lon="1.5976550">
<ele>1156.92</ele>
<time>2017-10-27T08:50:15Z</time>
</trkpt>
<trkpt lat="42.1777165" lon="1.5977681">
<ele>1155.92</ele>
<time>2017-10-27T08:50:20Z</time>
</trkpt>
<trkpt lat="42.1777520" lon="1.5978903">
<ele>1151.92</ele>
<time>2017-10-27T08:50:27Z</time>
</trkpt>
<trkpt lat="42.1777760" lon="1.5980176">
<ele>1146.92</ele>
<time>2017-10-27T08:50:37Z</time>
</trkpt>
<trkpt lat="42.1777968" lon="1.5981414">
<ele>1146.92</ele>
<time>2017-10-27T08:50:49Z</time>
</trkpt>
<trkpt lat="42.1778062" lon="1.5982731">
<ele>1146.92</ele>
<time>2017-10-27T08:50:57Z</time>
</trkpt>
<trkpt lat="42.1778869" lon="1.5983404">
<ele>1145.92</ele>
<time>2017-10-27T08:51:07Z</time>
</trkpt>
<trkpt lat="42.1779437" lon="1.5984677">
<ele>1147.92</ele>
<time>2017-10-27T08:51:15Z</time>
</trkpt>
<trkpt lat="42.1780318" lon="1.5984918">
<ele>1153.92</ele>
<time>2017-10-27T08:51:44Z</time>
</trkpt>
<trkpt lat="42.1781186" lon="1.5985908">
<ele>1154.92</ele>
<time>2017-10-27T08:51:54Z</time>
</trkpt>
<trkpt lat="42.1782017" lon="1.5986819">
<ele>1151.92</ele>
<time>2017-10-27T08:52:00Z</time>
</trkpt>
<trkpt lat="42.1782667" lon="1.5987897">
<ele>1149.92</ele>
<time>2017-10-27T08:52:06Z</time>
</trkpt>
<trkpt lat="42.1783720" lon="1.5988488">
<ele>1145.92</ele>
<time>2017-10-27T08:52:14Z</time>
</trkpt>
<trkpt lat="42.1784421" lon="1.5989375">
<ele>1142.92</ele>
<time>2017-10-27T08:52:20Z</time>
</trkpt>
<trkpt lat="42.1785297" lon="1.5989739">
<ele>1138.92</ele>
<time>2017-10-27T08:52:39Z</time>
</trkpt>
<trkpt lat="42.1786225" lon="1.5990194">
<ele>1138.92</ele>
<time>2017-10-27T08:52:43Z</time>
</trkpt>
<trkpt lat="42.1787186" lon="1.5990634">
<ele>1137.92</ele>
<time>2017-10-27T08:53:04Z</time>
</trkpt>
<trkpt lat="42.1788242" lon="1.5991226">
<ele>1133.92</ele>
<time>2017-10-27T08:53:08Z</time>
</trkpt>
<trkpt lat="42.1788940" lon="1.5992087">
<ele>1136.92</ele>
<time>2017-10-27T08:53:14Z</time>
</trkpt>
<trkpt lat="42.1789899" lon="1.5992865">
<ele>1137.92</ele>
<time>2017-10-27T08:53:24Z</time>
</trkpt>
<trkpt lat="42.1790994" lon="1.5992365">
<ele>1137.92</ele>
<time>2017-10-27T08:53:31Z</time>
</trkpt>
<trkpt lat="42.1791954" lon="1.5992048">
<ele>1135.92</ele>
<time>2017-10-27T08:53:38Z</time>
</trkpt>
<trkpt lat="42.1792948" lon="1.5992010">
<ele>1134.92</ele>
<time>2017-10-27T08:53:44Z</time>
</trkpt>
<trkpt lat="42.1793842" lon="1.5991298">
<ele>1137.92</ele>
<time>2017-10-27T08:53:52Z</time>
</trkpt>
<trkpt lat="42.1794753" lon="1.5990901">
<ele>1134.92</ele>
<time>2017-10-27T08:53:58Z</time>
</trkpt>
<trkpt lat="42.1795775" lon="1.5991077">
<ele>1143.92</ele>
<time>2017-10-27T08:54:12Z</time>
</trkpt>
<trkpt lat="42.1796598" lon="1.5991815">
<ele>1143.92</ele>
<time>2017-10-27T08:54:18Z</time>
</trkpt>
<trkpt lat="42.1797482" lon="1.5992090">
<ele>1141.92</ele>
<time>2017-10-27T08:54:26Z</time>
</trkpt>
<trkpt lat="42.1798558" lon="1.5992129">
<ele>1144.92</ele>
<time>2017-10-27T08:54:34Z</time>
</trkpt>
<trkpt lat="42.1799510" lon="1.5992452">
<ele>1144.92</ele>
<time>2017-10-27T08:54:50Z</time>
</trkpt>
<trkpt lat="42.1800568" lon="1.5992132">
<ele>1143.92</ele>
<time>2017-10-27T08:54:55Z</time>
</trkpt>
<trkpt lat="42.1801496" lon="1.5991974">
<ele>1147.92</ele>
<time>2017-10-27T08:55:05Z</time>
</trkpt>
<trkpt lat="42.1802504" lon="1.5992057">
<ele>1148.92</ele>
<time>2017-10-27T08:55:11Z</time>
</trkpt>
<trkpt lat="42.1803455" lon="1.5992168">
<ele>1147.92</ele>
<time>2017-10-27T08:55:20Z</time>
</trkpt>
<trkpt lat="42.1804375" lon="1.5992943">
<ele>1145.92</ele>
<time>2017-10-27T08:55:25Z</time>
</trkpt>
<trkpt lat="42.1805220" lon="1.5993689">
<ele>1143.92</ele>
<time>2017-10-27T08:55:35Z</time>
</trkpt>
<trkpt lat="42.1805462" lon="1.5995006">
<ele>1140.92</ele>
<time>2017-10-27T08:55:41Z</time>
</trkpt>
<trkpt lat="42.1805974" lon="1.5996055">
<ele>1139.92</ele>
<time>2017-10-27T08:55:48Z</time>
</trkpt>
<trkpt lat="42.1806689" lon="1.5997100">
<ele>1139.92</ele>
<time>2017-10-27T08:55:57Z</time>
</trkpt>
<trkpt lat="42.1807209" lon="1.5998184">
<ele>1139.92</ele>
<time>2017-10-27T08:56:03Z</time>
</trkpt>
<trkpt lat="42.1808010" lon="1.5998738">
<ele>1135.92</ele>
<time>2017-10-27T08:56:09Z</time>
</trkpt>
<trkpt lat="42.1807894" lon="1.5999958">
<ele>1133.92</ele>
<time>2017-10-27T08:56:17Z</time>
</trkpt>
<trkpt lat="42.1808307" lon="1.6001351">
<ele>1136.92</ele>
<time>2017-10-27T08:56:26Z</time>
</trkpt>
<trkpt lat="42.1808589" lon="1.6002558">
<ele>1136.92</ele>
<time>2017-10-27T08:56:32Z</time>
</trkpt>
<trkpt lat="42.1809045" lon="1.6003629">
<ele>1136.92</ele>
<time>2017-10-27T08:56:38Z</time>
</trkpt>
<trkpt lat="42.1809216" lon="1.6004940">
<ele>1138.92</ele>
<time>2017-10-27T08:56:47Z</time>
</trkpt>
<trkpt lat="42.1809225" lon="1.6006276">
<ele>1138.92</ele>
<time>2017-10-27T08:56:56Z</time>
</trkpt>
<trkpt lat="42.1808683" lon="1.6007667">
<ele>1144.92</ele>
<time>2017-10-27T08:57:03Z</time>
</trkpt>
<trkpt lat="42.1809063" lon="1.6008767">
<ele>1145.92</ele>
<time>2017-10-27T08:57:11Z</time>
</trkpt>
<trkpt lat="42.1809525" lon="1.6009831">
<ele>1142.92</ele>
<time>2017-10-27T08:57:19Z</time>
</trkpt>
<trkpt lat="42.1809910" lon="1.6010951">
<ele>1140.92</ele>
<time>2017-10-27T08:57:27Z</time>
</trkpt>
<trkpt lat="42.1810436" lon="1.6012067">
<ele>1141.92</ele>
<time>2017-10-27T08:57:35Z</time>
</trkpt>
<trkpt lat="42.1811090" lon="1.6013297">
<ele>1146.92</ele>
<time>2017-10-27T08:57:50Z</time>
</trkpt>
<trkpt lat="42.1811738" lon="1.6014185">
<ele>1149.92</ele>
<time>2017-10-27T08:57:56Z</time>
</trkpt>
<trkpt lat="42.1812163" lon="1.6015320">
<ele>1149.92</ele>
<time>2017-10-27T08:58:05Z</time>
</trkpt>
<trkpt lat="42.1812885" lon="1.6016259">
<ele>1152.92</ele>
<time>2017-10-27T08:58:14Z</time>
</trkpt>
<trkpt lat="42.1813616" lon="1.6017024">
<ele>1152.92</ele>
<time>2017-10-27T08:58:24Z</time>
</trkpt>
<trkpt lat="42.1814320" lon="1.6017824">
<ele>1149.92</ele>
<time>2017-10-27T08:58:36Z</time>
</trkpt>
<trkpt lat="42.1814374" lon="1.6019134">
<ele>1153.92</ele>
<time>2017-10-27T09:01:29Z</time>
</trkpt>
<trkpt lat="42.1814938" lon="1.6020091">
<ele>1152.92</ele>
<time>2017-10-27T09:02:08Z</time>
</trkpt>
<trkpt lat="42.1815759" lon="1.6020797">
<ele>1160.92</ele>
<time>2017-10-27T09:02:16Z</time>
</trkpt>
<trkpt lat="42.1816027" lon="1.6021985">
<ele>1160.92</ele>
<time>2017-10-27T09:02:23Z</time>
</trkpt>
<trkpt lat="42.1815988" lon="1.6023234">
<ele>1161.92</ele>
<time>2017-10-27T09:02:31Z</time>
</trkpt>
<trkpt lat="42.1815916" lon="1.6024446">
<ele>1160.92</ele>
<time>2017-10-27T09:02:35Z</time>
</trkpt>
<trkpt lat="42.1816177" lon="1.6025662">
<ele>1160.92</ele>
<time>2017-10-27T09:02:42Z</time>
</trkpt>
<trkpt lat="42.1816158" lon="1.6026914">
<ele>1160.92</ele>
<time>2017-10-27T09:02:55Z</time>
</trkpt>
<trkpt lat="42.1815880" lon="1.6028085">
<ele>1160.92</ele>
<time>2017-10-27T09:03:01Z</time>
</trkpt>
<trkpt lat="42.1815770" lon="1.6029338">
<ele>1159.92</ele>
<time>2017-10-27T09:03:08Z</time>
</trkpt>
<trkpt lat="42.1815668" lon="1.6030559">
<ele>1158.92</ele>
<time>2017-10-27T09:03:15Z</time>
</trkpt>
<trkpt lat="42.1815523" lon="1.6031833">
<ele>1156.92</ele>
<time>2017-10-27T09:03:23Z</time>
</trkpt>
<trkpt lat="42.1815100" lon="1.6033020">
<ele>1156.92</ele>
<time>2017-10-27T09:03:29Z</time>
</trkpt>
<trkpt lat="42.1815309" lon="1.6034436">
<ele>1151.92</ele>
<time>2017-10-27T09:03:38Z</time>
</trkpt>
<trkpt lat="42.1814525" lon="1.6035051">
<ele>1155.92</ele>
<time>2017-10-27T09:03:56Z</time>
</trkpt>
<trkpt lat="42.1813597" lon="1.6035179">
<ele>1154.92</ele>
<time>2017-10-27T09:04:02Z</time>
</trkpt>
<trkpt lat="42.1812598" lon="1.6035234">
<ele>1152.92</ele>
<time>2017-10-27T09:04:10Z</time>
</trkpt>
<trkpt lat="42.1811672" lon="1.6034824">
<ele>1156.92</ele>
<time>2017-10-27T09:04:22Z</time>
</trkpt>
<trkpt lat="42.1810718" lon="1.6034275">
<ele>1156.92</ele>
<time>2017-10-27T09:04:30Z</time>
</trkpt>
<trkpt lat="42.1809828" lon="1.6034075">
<ele>1155.92</ele>
<time>2017-10-27T09:04:37Z</time>
</trkpt>
<trkpt lat="42.1808964" lon="1.6034751">
<ele>1155.92</ele>
<time>2017-10-27T09:04:44Z</time>
</trkpt>
<trkpt lat="42.1809675" lon="1.6035652">
<ele>1161.92</ele>
<time>2017-10-27T09:06:13Z</time>
</trkpt>
<trkpt lat="42.1810583" lon="1.6035938">
<ele>1169.92</ele>
<time>2017-10-27T09:08:08Z</time>
</trkpt>
<trkpt lat="42.1811617" lon="1.6036142">
<ele>1165.92</ele>
<time>2017-10-27T09:08:16Z</time>
</trkpt>
<trkpt lat="42.1812586" lon="1.6036407">
<ele>1165.92</ele>
<time>2017-10-27T09:08:24Z</time>
</trkpt>
<trkpt lat="42.1813427" lon="1.6037134">
<ele>1167.92</ele>
<time>2017-10-27T09:08:33Z</time>
</trkpt>
<trkpt lat="42.1814355" lon="1.6037290">
<ele>1167.92</ele>
<time>2017-10-27T09:08:39Z</time>
</trkpt>
<trkpt lat="42.1815167" lon="1.6037885">
<ele>1165.92</ele>
<time>2017-10-27T09:08:52Z</time>
</trkpt>
<trkpt lat="42.1816064" lon="1.6038396">
<ele>1160.92</ele>
<time>2017-10-27T09:09:00Z</time>
</trkpt>
<trkpt lat="42.1816416" lon="1.6039732">
<ele>1162.92</ele>
<time>2017-10-27T09:09:09Z</time>
</trkpt>
<trkpt lat="42.1815990" lon="1.6041108">
<ele>1161.92</ele>
<time>2017-10-27T09:09:23Z</time>
</trkpt>
<trkpt lat="42.1815174" lon="1.6041753">
<ele>1159.92</ele>
<time>2017-10-27T09:09:33Z</time>
</trkpt>
<trkpt lat="42.1814315" lon="1.6041278">
<ele>1159.92</ele>
<time>2017-10-27T09:09:42Z</time>
</trkpt>
<trkpt lat="42.1813490" lon="1.6041960">
<ele>1159.92</ele>
<time>2017-10-27T09:09:52Z</time>
</trkpt>
<trkpt lat="42.1813503" lon="1.6043179">
<ele>1157.92</ele>
<time>2017-10-27T09:10:02Z</time>
</trkpt>
<trkpt lat="42.1812604" lon="1.6042979">
<ele>1160.92</ele>
<time>2017-10-27T09:10:24Z</time>
</trkpt>
<trkpt lat="42.1811762" lon="1.6043665">
<ele>1158.92</ele>
<time>2017-10-27T09:10:37Z</time>
</trkpt>
<trkpt lat="42.1810840" lon="1.6044214">
<ele>1159.92</ele>
<time>2017-10-27T09:10:42Z</time>
</trkpt>
<trkpt lat="42.1810081" lon="1.6045072">
<ele>1168.92</ele>
<time>2017-10-27T09:10:54Z</time>
</trkpt>
<trkpt lat="42.1808918" lon="1.6044970">
<ele>1171.92</ele>
<time>2017-10-27T09:11:01Z</time>
</trkpt>
<trkpt lat="42.1808035" lon="1.6045558">
<ele>1176.92</ele>
<time>2017-10-27T09:11:12Z</time>
</trkpt>
<trkpt lat="42.1807948" lon="1.6046796">
<ele>1179.92</ele>
<time>2017-10-27T09:11:21Z</time>
</trkpt>
<trkpt lat="42.1807866" lon="1.6048258">
<ele>1190.92</ele>
<time>2017-10-27T09:11:32Z</time>
</trkpt>
<trkpt lat="42.1807052" lon="1.6048854">
<ele>1195.92</ele>
<time>2017-10-27T09:11:39Z</time>
</trkpt>
<trkpt lat="42.1805984" lon="1.6048787">
<ele>1195.92</ele>
<time>2017-10-27T09:11:44Z</time>
</trkpt>
<trkpt lat="42.1805190" lon="1.6049541">
<ele>1192.92</ele>
<time>2017-10-27T09:11:59Z</time>
</trkpt>
<trkpt lat="42.1805070" lon="1.6050953">
<ele>1191.92</ele>
<time>2017-10-27T09:12:08Z</time>
</trkpt>
<trkpt lat="42.1804035" lon="1.6051396">
<ele>1190.92</ele>
<time>2017-10-27T09:12:17Z</time>
</trkpt>
<trkpt lat="42.1803202" lon="1.6052062">
<ele>1192.92</ele>
<time>2017-10-27T09:12:24Z</time>
</trkpt>
<trkpt lat="42.1802281" lon="1.6052395">
<ele>1194.92</ele>
<time>2017-10-27T09:12:40Z</time>
</trkpt>
<trkpt lat="42.1803001" lon="1.6054204">
<ele>1196.92</ele>
<time>2017-10-27T09:12:48Z</time>
</trkpt>
<trkpt lat="42.1803778" lon="1.6053377">
<ele>1200.92</ele>
<time>2017-10-27T09:13:30Z</time>
</trkpt>
<trkpt lat="42.1804690" lon="1.6053045">
<ele>1205.92</ele>
<time>2017-10-27T09:13:39Z</time>
</trkpt>
<trkpt lat="42.1805627" lon="1.6052808">
<ele>1212.92</ele>
<time>2017-10-27T09:13:49Z</time>
</trkpt>
<trkpt lat="42.1805770" lon="1.6054045">
<ele>1212.92</ele>
<time>2017-10-27T09:14:03Z</time>
</trkpt>
<trkpt lat="42.1806696" lon="1.6054546">
<ele>1211.92</ele>
<time>2017-10-27T09:14:16Z</time>
</trkpt>
<trkpt lat="42.1806284" lon="1.6055692">
<ele>1215.92</ele>
<time>2017-10-27T09:14:38Z</time>
</trkpt>
<trkpt lat="42.1805376" lon="1.6055746">
<ele>1220.92</ele>
<time>2017-10-27T09:14:52Z</time>
</trkpt>
<trkpt lat="42.1804615" lon="1.6056497">
<ele>1224.92</ele>
<time>2017-10-27T09:14:58Z</time>
</trkpt>
<trkpt lat="42.1804865" lon="1.6057766">
<ele>1219.92</ele>
<time>2017-10-27T09:15:04Z</time>
</trkpt>
<trkpt lat="42.1804865" lon="1.6059129">
<ele>1223.92</ele>
<time>2017-10-27T09:15:16Z</time>
</trkpt>
<trkpt lat="42.1804730" lon="1.6060338">
<ele>1226.92</ele>
<time>2017-10-27T09:15:39Z</time>
</trkpt>
<trkpt lat="42.1804302" lon="1.6061515">
<ele>1225.92</ele>
<time>2017-10-27T09:15:52Z</time>
</trkpt>
<trkpt lat="42.1804884" lon="1.6062656">
<ele>1224.92</ele>
<time>2017-10-27T09:15:57Z</time>
</trkpt>
<trkpt lat="42.1805812" lon="1.6063065">
<ele>1223.92</ele>
<time>2017-10-27T09:16:19Z</time>
</trkpt>
<trkpt lat="42.1805528" lon="1.6064237">
<ele>1233.92</ele>
<time>2017-10-27T09:16:44Z</time>
</trkpt>
<trkpt lat="42.1805230" lon="1.6065385">
<ele>1243.92</ele>
<time>2017-10-27T09:17:07Z</time>
</trkpt>
<trkpt lat="42.1804339" lon="1.6065789">
<ele>1252.92</ele>
<time>2017-10-27T09:17:24Z</time>
</trkpt>
<trkpt lat="42.1803939" lon="1.6067001">
<ele>1255.92</ele>
<time>2017-10-27T09:17:40Z</time>
</trkpt>
<trkpt lat="42.1803530" lon="1.6068319">
<ele>1260.92</ele>
<time>2017-10-27T09:17:56Z</time>
</trkpt>
<trkpt lat="42.1803137" lon="1.6069419">
<ele>1262.92</ele>
<time>2017-10-27T09:18:05Z</time>
</trkpt>
<trkpt lat="42.1802497" lon="1.6070295">
<ele>1267.92</ele>
<time>2017-10-27T09:18:17Z</time>
</trkpt>
<trkpt lat="42.1801836" lon="1.6071176">
<ele>1268.92</ele>
<time>2017-10-27T09:18:32Z</time>
</trkpt>
<trkpt lat="42.1801400" lon="1.6072303">
<ele>1276.92</ele>
<time>2017-10-27T09:18:55Z</time>
</trkpt>
<trkpt lat="42.1801166" lon="1.6073504">
<ele>1278.92</ele>
<time>2017-10-27T09:19:08Z</time>
</trkpt>
<trkpt lat="42.1800641" lon="1.6074574">
<ele>1280.92</ele>
<time>2017-10-27T09:19:24Z</time>
</trkpt>
<trkpt lat="42.1800629" lon="1.6075796">
<ele>1283.92</ele>
<time>2017-10-27T09:19:35Z</time>
</trkpt>
<trkpt lat="42.1801566" lon="1.6075666">
<ele>1286.92</ele>
<time>2017-10-27T09:20:27Z</time>
</trkpt>
<trkpt lat="42.1802527" lon="1.6075454">
<ele>1289.92</ele>
<time>2017-10-27T09:20:38Z</time>
</trkpt>
<trkpt lat="42.1803454" lon="1.6074860">
<ele>1291.92</ele>
<time>2017-10-27T09:20:50Z</time>
</trkpt>
<trkpt lat="42.1804299" lon="1.6074329">
<ele>1294.92</ele>
<time>2017-10-27T09:21:00Z</time>
</trkpt>
<trkpt lat="42.1804795" lon="1.6073209">
<ele>1301.92</ele>
<time>2017-10-27T09:21:08Z</time>
</trkpt>
<trkpt lat="42.1805664" lon="1.6072819">
<ele>1304.92</ele>
<time>2017-10-27T09:21:19Z</time>
</trkpt>
<trkpt lat="42.1806249" lon="1.6073765">
<ele>1301.92</ele>
<time>2017-10-27T09:21:26Z</time>
</trkpt>
<trkpt lat="42.1806167" lon="1.6074985">
<ele>1305.92</ele>
<time>2017-10-27T09:21:38Z</time>
</trkpt>
<trkpt lat="42.1805737" lon="1.6076126">
<ele>1307.92</ele>
<time>2017-10-27T09:21:50Z</time>
</trkpt>
<trkpt lat="42.1805493" lon="1.6077374">
<ele>1307.92</ele>
<time>2017-10-27T09:22:01Z</time>
</trkpt>
<trkpt lat="42.1806404" lon="1.6077569">
<ele>1313.92</ele>
<time>2017-10-27T09:22:25Z</time>
</trkpt>
<trkpt lat="42.1806772" lon="1.6076424">
<ele>1317.92</ele>
<time>2017-10-27T09:22:36Z</time>
</trkpt>
<trkpt lat="42.1807036" lon="1.6075259">
<ele>1323.92</ele>
<time>2017-10-27T09:22:44Z</time>
</trkpt>
<trkpt lat="42.1807304" lon="1.6076421">
<ele>1325.92</ele>
<time>2017-10-27T09:23:14Z</time>
</trkpt>
<trkpt lat="42.1808000" lon="1.6077284">
<ele>1330.92</ele>
<time>2017-10-27T09:23:43Z</time>
</trkpt>
<trkpt lat="42.1808859" lon="1.6076873">
<ele>1338.92</ele>
<time>2017-10-27T09:24:14Z</time>
</trkpt>
<trkpt lat="42.1809833" lon="1.6076879">
<ele>1335.92</ele>
<time>2017-10-27T09:24:38Z</time>
</trkpt>
<trkpt lat="42.1810322" lon="1.6075752">
<ele>1343.92</ele>
<time>2017-10-27T09:25:11Z</time>
</trkpt>
<trkpt lat="42.1811141" lon="1.6075217">
<ele>1344.92</ele>
<time>2017-10-27T09:25:28Z</time>
</trkpt>
<trkpt lat="42.1812133" lon="1.6075282">
<ele>1340.92</ele>
<time>2017-10-27T09:25:42Z</time>
</trkpt>
<trkpt lat="42.1813034" lon="1.6075570">
<ele>1338.92</ele>
<time>2017-10-27T09:25:51Z</time>
</trkpt>
<trkpt lat="42.1813887" lon="1.6075979">
<ele>1338.92</ele>
<time>2017-10-27T09:26:00Z</time>
</trkpt>
<trkpt lat="42.1814712" lon="1.6076669">
<ele>1337.92</ele>
<time>2017-10-27T09:26:10Z</time>
</trkpt>
<trkpt lat="42.1815500" lon="1.6077521">
<ele>1338.92</ele>
<time>2017-10-27T09:26:18Z</time>
</trkpt>
<trkpt lat="42.1816168" lon="1.6078435">
<ele>1339.92</ele>
<time>2017-10-27T09:26:27Z</time>
</trkpt>
<trkpt lat="42.1817055" lon="1.6078941">
<ele>1341.92</ele>
<time>2017-10-27T09:26:36Z</time>
</trkpt>
<trkpt lat="42.1817904" lon="1.6079476">
<ele>1342.92</ele>
<time>2017-10-27T09:26:48Z</time>
</trkpt>
<trkpt lat="42.1818615" lon="1.6080495">
<ele>1338.92</ele>
<time>2017-10-27T09:27:01Z</time>
</trkpt>
<trkpt lat="42.1819573" lon="1.6080525">
<ele>1348.92</ele>
<time>2017-10-27T09:27:17Z</time>
</trkpt>
<trkpt lat="42.1820427" lon="1.6081127">
<ele>1352.92</ele>
<time>2017-10-27T09:27:29Z</time>
</trkpt>
<trkpt lat="42.1821014" lon="1.6082050">
<ele>1355.92</ele>
<time>2017-10-27T09:27:37Z</time>
</trkpt>
<trkpt lat="42.1821262" lon="1.6083396">
<ele>1356.92</ele>
<time>2017-10-27T09:27:52Z</time>
</trkpt>
<trkpt lat="42.1821497" lon="1.6084606">
<ele>1359.92</ele>
<time>2017-10-27T09:28:03Z</time>
</trkpt>
<trkpt lat="42.1821587" lon="1.6085840">
<ele>1364.92</ele>
<time>2017-10-27T09:28:17Z</time>
</trkpt>
<trkpt lat="42.1822453" lon="1.6086407">
<ele>1370.92</ele>
<time>2017-10-27T09:28:24Z</time>
</trkpt>
<trkpt lat="42.1823307" lon="1.6086944">
<ele>1369.92</ele>
<time>2017-10-27T09:28:44Z</time>
</trkpt>
<trkpt lat="42.1823833" lon="1.6087979">
<ele>1371.92</ele>
<time>2017-10-27T09:28:55Z</time>
</trkpt>
<trkpt lat="42.1824190" lon="1.6089203">
<ele>1373.92</ele>
<time>2017-10-27T09:29:05Z</time>
</trkpt>
<trkpt lat="42.1824912" lon="1.6090096">
<ele>1373.92</ele>
<time>2017-10-27T09:29:18Z</time>
</trkpt>
<trkpt lat="42.1825579" lon="1.6090918">
<ele>1373.92</ele>
<time>2017-10-27T09:29:24Z</time>
</trkpt>
<trkpt lat="42.1826181" lon="1.6091837">
<ele>1374.92</ele>
<time>2017-10-27T09:29:34Z</time>
</trkpt>
<trkpt lat="42.1826925" lon="1.6092725">
<ele>1369.92</ele>
<time>2017-10-27T09:29:45Z</time>
</trkpt>
<trkpt lat="42.1827800" lon="1.6093220">
<ele>1369.92</ele>
<time>2017-10-27T09:29:56Z</time>
</trkpt>
<trkpt lat="42.1828628" lon="1.6093715">
<ele>1372.92</ele>
<time>2017-10-27T09:30:07Z</time>
</trkpt>
<trkpt lat="42.1829478" lon="1.6094446">
<ele>1370.92</ele>
<time>2017-10-27T09:30:19Z</time>
</trkpt>
<trkpt lat="42.1830364" lon="1.6094800">
<ele>1372.92</ele>
<time>2017-10-27T09:30:32Z</time>
</trkpt>
<trkpt lat="42.1831296" lon="1.6094472">
<ele>1381.92</ele>
<time>2017-10-27T09:30:46Z</time>
</trkpt>
<trkpt lat="42.1831975" lon="1.6093649">
<ele>1388.92</ele>
<time>2017-10-27T09:30:56Z</time>
</trkpt>
<trkpt lat="42.1832228" lon="1.6092349">
<ele>1391.92</ele>
<time>2017-10-27T09:31:05Z</time>
</trkpt>
<trkpt lat="42.1832593" lon="1.6091216">
<ele>1396.92</ele>
<time>2017-10-27T09:31:17Z</time>
</trkpt>
<trkpt lat="42.1833331" lon="1.6090458">
<ele>1397.92</ele>
<time>2017-10-27T09:31:31Z</time>
</trkpt>
<trkpt lat="42.1834157" lon="1.6089855">
<ele>1402.92</ele>
<time>2017-10-27T09:31:42Z</time>
</trkpt>
<trkpt lat="42.1835014" lon="1.6090531">
<ele>1406.92</ele>
<time>2017-10-27T09:31:53Z</time>
</trkpt>
<trkpt lat="42.1835771" lon="1.6091338">
<ele>1407.92</ele>
<time>2017-10-27T09:32:03Z</time>
</trkpt>
<trkpt lat="42.1836701" lon="1.6091639">
<ele>1408.92</ele>
<time>2017-10-27T09:32:12Z</time>
</trkpt>
<trkpt lat="42.1837422" lon="1.6090687">
<ele>1409.92</ele>
<time>2017-10-27T09:32:21Z</time>
</trkpt>
<trkpt lat="42.1838147" lon="1.6089912">
<ele>1409.92</ele>
<time>2017-10-27T09:32:28Z</time>
</trkpt>
<trkpt lat="42.1839050" lon="1.6089512">
<ele>1407.92</ele>
<time>2017-10-27T09:32:35Z</time>
</trkpt>
<trkpt lat="42.1839907" lon="1.6088850">
<ele>1408.92</ele>
<time>2017-10-27T09:32:44Z</time>
</trkpt>
<trkpt lat="42.1840788" lon="1.6088226">
<ele>1408.92</ele>
<time>2017-10-27T09:32:51Z</time>
</trkpt>
<trkpt lat="42.1841736" lon="1.6088092">
<ele>1408.92</ele>
<time>2017-10-27T09:32:59Z</time>
</trkpt>
<trkpt lat="42.1842830" lon="1.6088027">
<ele>1412.92</ele>
<time>2017-10-27T09:33:09Z</time>
</trkpt>
<trkpt lat="42.1843734" lon="1.6088035">
<ele>1413.92</ele>
<time>2017-10-27T09:33:20Z</time>
</trkpt>
<trkpt lat="42.1843220" lon="1.6089134">
<ele>1413.92</ele>
<time>2017-10-27T09:35:05Z</time>
</trkpt>
<trkpt lat="42.1842281" lon="1.6089512">
<ele>1415.92</ele>
<time>2017-10-27T09:35:15Z</time>
</trkpt>
<trkpt lat="42.1841728" lon="1.6090561">
<ele>1414.92</ele>
<time>2017-10-27T09:35:26Z</time>
</trkpt>
<trkpt lat="42.1840887" lon="1.6091297">
<ele>1419.92</ele>
<time>2017-10-27T09:35:39Z</time>
</trkpt>
<trkpt lat="42.1840314" lon="1.6092261">
<ele>1420.92</ele>
<time>2017-10-27T09:35:49Z</time>
</trkpt>
<trkpt lat="42.1839639" lon="1.6093093">
<ele>1423.92</ele>
<time>2017-10-27T09:35:58Z</time>
</trkpt>
<trkpt lat="42.1839204" lon="1.6094237">
<ele>1426.92</ele>
<time>2017-10-27T09:36:08Z</time>
</trkpt>
<trkpt lat="42.1839333" lon="1.6095598">
<ele>1425.92</ele>
<time>2017-10-27T09:36:20Z</time>
</trkpt>
<trkpt lat="42.1838647" lon="1.6096502">
<ele>1428.92</ele>
<time>2017-10-27T09:36:27Z</time>
</trkpt>
<trkpt lat="42.1837882" lon="1.6097231">
<ele>1430.92</ele>
<time>2017-10-27T09:36:39Z</time>
</trkpt>
<trkpt lat="42.1837008" lon="1.6097758">
<ele>1431.92</ele>
<time>2017-10-27T09:36:50Z</time>
</trkpt>
<trkpt lat="42.1837468" lon="1.6098822">
<ele>1435.92</ele>
<time>2017-10-27T09:39:14Z</time>
</trkpt>
<trkpt lat="42.1837994" lon="1.6099813">
<ele>1443.92</ele>
<time>2017-10-27T09:39:39Z</time>
</trkpt>
<trkpt lat="42.1837783" lon="1.6101067">
<ele>1444.92</ele>
<time>2017-10-27T09:39:51Z</time>
</trkpt>
<trkpt lat="42.1837692" lon="1.6102395">
<ele>1441.92</ele>
<time>2017-10-27T09:40:06Z</time>
</trkpt>
<trkpt lat="42.1837349" lon="1.6103537">
<ele>1440.92</ele>
<time>2017-10-27T09:40:14Z</time>
</trkpt>
<trkpt lat="42.1837082" lon="1.6104738">
<ele>1439.92</ele>
<time>2017-10-27T09:40:23Z</time>
</trkpt>
<trkpt lat="42.1837198" lon="1.6106156">
<ele>1447.92</ele>
<time>2017-10-27T09:44:43Z</time>
</trkpt>
<trkpt lat="42.1837294" lon="1.6107368">
<ele>1446.92</ele>
<time>2017-10-27T09:44:51Z</time>
</trkpt>
<trkpt lat="42.1837252" lon="1.6108676">
<ele>1448.92</ele>
<time>2017-10-27T09:45:00Z</time>
</trkpt>
<trkpt lat="42.1836768" lon="1.6109850">
<ele>1448.92</ele>
<time>2017-10-27T09:45:09Z</time>
</trkpt>
<trkpt lat="42.1836007" lon="1.6110690">
<ele>1448.92</ele>
<time>2017-10-27T09:45:17Z</time>
</trkpt>
<trkpt lat="42.1835329" lon="1.6111678">
<ele>1446.92</ele>
<time>2017-10-27T09:45:26Z</time>
</trkpt>
<trkpt lat="42.1834539" lon="1.6112370">
<ele>1445.92</ele>
<time>2017-10-27T09:45:32Z</time>
</trkpt>
<trkpt lat="42.1833729" lon="1.6113172">
<ele>1443.92</ele>
<time>2017-10-27T09:45:41Z</time>
</trkpt>
<trkpt lat="42.1832929" lon="1.6113968">
<ele>1446.92</ele>
<time>2017-10-27T09:45:49Z</time>
</trkpt>
<trkpt lat="42.1832309" lon="1.6114943">
<ele>1445.92</ele>
<time>2017-10-27T09:45:58Z</time>
</trkpt>
<trkpt lat="42.1832017" lon="1.6116163">
<ele>1445.92</ele>
<time>2017-10-27T09:46:10Z</time>
</trkpt>
<trkpt lat="42.1832372" lon="1.6117437">
<ele>1446.92</ele>
<time>2017-10-27T09:46:21Z</time>
</trkpt>
<trkpt lat="42.1832821" lon="1.6118766">
<ele>1446.92</ele>
<time>2017-10-27T09:46:28Z</time>
</trkpt>
<trkpt lat="42.1833312" lon="1.6119829">
<ele>1448.92</ele>
<time>2017-10-27T09:46:41Z</time>
</trkpt>
<trkpt lat="42.1833532" lon="1.6121019">
<ele>1455.92</ele>
<time>2017-10-27T09:46:49Z</time>
</trkpt>
<trkpt lat="42.1833185" lon="1.6122198">
<ele>1460.92</ele>
<time>2017-10-27T09:46:59Z</time>
</trkpt>
<trkpt lat="42.1832903" lon="1.6123549">
<ele>1462.92</ele>
<time>2017-10-27T09:47:08Z</time>
</trkpt>
<trkpt lat="42.1833508" lon="1.6124828">
<ele>1461.92</ele>
<time>2017-10-27T09:47:16Z</time>
</trkpt>
<trkpt lat="42.1833606" lon="1.6126163">
<ele>1461.92</ele>
<time>2017-10-27T09:47:24Z</time>
</trkpt>
<trkpt lat="42.1833899" lon="1.6127462">
<ele>1463.92</ele>
<time>2017-10-27T09:47:36Z</time>
</trkpt>
<trkpt lat="42.1834514" lon="1.6128646">
<ele>1465.92</ele>
<time>2017-10-27T09:47:48Z</time>
</trkpt>
<trkpt lat="42.1835038" lon="1.6129868">
<ele>1465.92</ele>
<time>2017-10-27T09:47:58Z</time>
</trkpt>
<trkpt lat="42.1835380" lon="1.6131105">
<ele>1464.92</ele>
<time>2017-10-27T09:48:09Z</time>
</trkpt>
<trkpt lat="42.1835839" lon="1.6132249">
<ele>1463.92</ele>
<time>2017-10-27T09:48:16Z</time>
</trkpt>
<trkpt lat="42.1836430" lon="1.6133170">
<ele>1462.92</ele>
<time>2017-10-27T09:48:26Z</time>
</trkpt>
<trkpt lat="42.1837223" lon="1.6133809">
<ele>1463.92</ele>
<time>2017-10-27T09:48:32Z</time>
</trkpt>
<trkpt lat="42.1838145" lon="1.6133919">
<ele>1462.92</ele>
<time>2017-10-27T09:48:41Z</time>
</trkpt>
<trkpt lat="42.1839113" lon="1.6133736">
<ele>1464.92</ele>
<time>2017-10-27T09:48:49Z</time>
</trkpt>
<trkpt lat="42.1840082" lon="1.6133246">
<ele>1462.92</ele>
<time>2017-10-27T09:48:58Z</time>
</trkpt>
<trkpt lat="42.1840976" lon="1.6132579">
<ele>1464.92</ele>
<time>2017-10-27T09:49:05Z</time>
</trkpt>
<trkpt lat="42.1841724" lon="1.6131890">
<ele>1467.92</ele>
<time>2017-10-27T09:49:11Z</time>
</trkpt>
<trkpt lat="42.1842599" lon="1.6131479">
<ele>1468.92</ele>
<time>2017-10-27T09:49:23Z</time>
</trkpt>
<trkpt lat="42.1843456" lon="1.6131083">
<ele>1469.92</ele>
<time>2017-10-27T09:49:30Z</time>
</trkpt>
<trkpt lat="42.1844406" lon="1.6130733">
<ele>1466.92</ele>
<time>2017-10-27T09:49:38Z</time>
</trkpt>
<trkpt lat="42.1845172" lon="1.6130066">
<ele>1467.92</ele>
<time>2017-10-27T09:49:45Z</time>
</trkpt>
<trkpt lat="42.1846070" lon="1.6129923">
<ele>1469.92</ele>
<time>2017-10-27T09:49:54Z</time>
</trkpt>
<trkpt lat="42.1846989" lon="1.6129699">
<ele>1471.92</ele>
<time>2017-10-27T09:50:02Z</time>
</trkpt>
<trkpt lat="42.1847921" lon="1.6129350">
<ele>1469.92</ele>
<time>2017-10-27T09:50:09Z</time>
</trkpt>
<trkpt lat="42.1848883" lon="1.6129507">
<ele>1473.92</ele>
<time>2017-10-27T09:50:18Z</time>
</trkpt>
<trkpt lat="42.1849856" lon="1.6129199">
<ele>1474.92</ele>
<time>2017-10-27T09:50:28Z</time>
</trkpt>
<trkpt lat="42.1850878" lon="1.6129629">
<ele>1477.92</ele>
<time>2017-10-27T09:50:37Z</time>
</trkpt>
<trkpt lat="42.1851687" lon="1.6130191">
<ele>1477.92</ele>
<time>2017-10-27T09:50:44Z</time>
</trkpt>
<trkpt lat="42.1852610" lon="1.6130586">
<ele>1477.92</ele>
<time>2017-10-27T09:50:51Z</time>
</trkpt>
<trkpt lat="42.1853604" lon="1.6130626">
<ele>1479.92</ele>
<time>2017-10-27T09:50:57Z</time>
</trkpt>
<trkpt lat="42.1854290" lon="1.6131538">
<ele>1475.92</ele>
<time>2017-10-27T09:51:01Z</time>
</trkpt>
<trkpt lat="42.1855241" lon="1.6131987">
<ele>1473.92</ele>
<time>2017-10-27T09:51:08Z</time>
</trkpt>
<trkpt lat="42.1856271" lon="1.6132382">
<ele>1473.92</ele>
<time>2017-10-27T09:51:18Z</time>
</trkpt>
<trkpt lat="42.1857244" lon="1.6132961">
<ele>1470.92</ele>
<time>2017-10-27T09:51:32Z</time>
</trkpt>
<trkpt lat="42.1858172" lon="1.6133059">
<ele>1469.92</ele>
<time>2017-10-27T09:51:39Z</time>
</trkpt>
<trkpt lat="42.1859038" lon="1.6132700">
<ele>1471.92</ele>
<time>2017-10-27T09:51:46Z</time>
</trkpt>
<trkpt lat="42.1860009" lon="1.6132657">
<ele>1471.92</ele>
<time>2017-10-27T09:51:53Z</time>
</trkpt>
<trkpt lat="42.1860916" lon="1.6132500">
<ele>1470.92</ele>
<time>2017-10-27T09:52:01Z</time>
</trkpt>
<trkpt lat="42.1862007" lon="1.6132492">
<ele>1470.92</ele>
<time>2017-10-27T09:52:20Z</time>
</trkpt>
<trkpt lat="42.1862939" lon="1.6132761">
<ele>1468.92</ele>
<time>2017-10-27T09:52:25Z</time>
</trkpt>
<trkpt lat="42.1863874" lon="1.6132552">
<ele>1468.92</ele>
<time>2017-10-27T09:52:33Z</time>
</trkpt>
<trkpt lat="42.1864681" lon="1.6133120">
<ele>1468.92</ele>
<time>2017-10-27T09:52:38Z</time>
</trkpt>
<trkpt lat="42.1865635" lon="1.6132982">
<ele>1476.92</ele>
<time>2017-10-27T09:52:48Z</time>
</trkpt>
<trkpt lat="42.1866491" lon="1.6133424">
<ele>1475.92</ele>
<time>2017-10-27T09:52:54Z</time>
</trkpt>
<trkpt lat="42.1867461" lon="1.6133911">
<ele>1475.92</ele>
<time>2017-10-27T09:53:20Z</time>
</trkpt>
<trkpt lat="42.1868108" lon="1.6134850">
<ele>1474.92</ele>
<time>2017-10-27T09:53:26Z</time>
</trkpt>
<trkpt lat="42.1869021" lon="1.6135229">
<ele>1476.92</ele>
<time>2017-10-27T09:53:33Z</time>
</trkpt>
<trkpt lat="42.1869860" lon="1.6135692">
<ele>1490.92</ele>
<time>2017-10-27T09:53:53Z</time>
</trkpt>
<trkpt lat="42.1870545" lon="1.6136497">
<ele>1493.92</ele>
<time>2017-10-27T09:54:11Z</time>
</trkpt>
<trkpt lat="42.1870978" lon="1.6137733">
<ele>1492.92</ele>
<time>2017-10-27T09:54:18Z</time>
</trkpt>
<trkpt lat="42.1871216" lon="1.6138976">
<ele>1498.92</ele>
<time>2017-10-27T09:54:27Z</time>
</trkpt>
<trkpt lat="42.1871722" lon="1.6140057">
<ele>1502.92</ele>
<time>2017-10-27T09:54:35Z</time>
</trkpt>
<trkpt lat="42.1872643" lon="1.6140308">
<ele>1501.92</ele>
<time>2017-10-27T09:54:47Z</time>
</trkpt>
<trkpt lat="42.1873329" lon="1.6139492">
<ele>1505.92</ele>
<time>2017-10-27T09:54:58Z</time>
</trkpt>
<trkpt lat="42.1874196" lon="1.6138807">
<ele>1506.92</ele>
<time>2017-10-27T09:55:08Z</time>
</trkpt>
<trkpt lat="42.1874898" lon="1.6138022">
<ele>1508.92</ele>
<time>2017-10-27T09:55:18Z</time>
</trkpt>
<trkpt lat="42.1875809" lon="1.6137715">
<ele>1512.92</ele>
<time>2017-10-27T09:55:34Z</time>
</trkpt>
<trkpt lat="42.1876878" lon="1.6137432">
<ele>1513.92</ele>
<time>2017-10-27T09:55:43Z</time>
</trkpt>
<trkpt lat="42.1877586" lon="1.6136482">
<ele>1520.92</ele>
<time>2017-10-27T09:55:52Z</time>
</trkpt>
<trkpt lat="42.1878439" lon="1.6136020">
<ele>1519.92</ele>
<time>2017-10-27T09:56:05Z</time>
</trkpt>
<trkpt lat="42.1879558" lon="1.6136098">
<ele>1517.92</ele>
<time>2017-10-27T09:56:15Z</time>
</trkpt>
<trkpt lat="42.1880534" lon="1.6136034">
<ele>1515.92</ele>
<time>2017-10-27T09:56:29Z</time>
</trkpt>
<trkpt lat="42.1881438" lon="1.6135767">
<ele>1521.92</ele>
<time>2017-10-27T09:56:43Z</time>
</trkpt>
<trkpt lat="42.1882451" lon="1.6135909">
<ele>1521.92</ele>
<time>2017-10-27T09:56:59Z</time>
</trkpt>
<trkpt lat="42.1883396" lon="1.6135616">
<ele>1524.92</ele>
<time>2017-10-27T09:57:07Z</time>
</trkpt>
<trkpt lat="42.1884329" lon="1.6135395">
<ele>1525.92</ele>
<time>2017-10-27T09:57:16Z</time>
</trkpt>
<trkpt lat="42.1885166" lon="1.6135955">
<ele>1527.92</ele>
<time>2017-10-27T09:57:21Z</time>
</trkpt>
<trkpt lat="42.1886165" lon="1.6136478">
<ele>1523.92</ele>
<time>2017-10-27T09:57:36Z</time>
</trkpt>
<trkpt lat="42.1887062" lon="1.6136683">
<ele>1522.92</ele>
<time>2017-10-27T09:57:48Z</time>
</trkpt>
<trkpt lat="42.1887943" lon="1.6136965">
<ele>1530.92</ele>
<time>2017-10-27T09:58:00Z</time>
</trkpt>
<trkpt lat="42.1888859" lon="1.6136950">
<ele>1536.92</ele>
<time>2017-10-27T09:58:16Z</time>
</trkpt>
<trkpt lat="42.1889618" lon="1.6136072">
<ele>1541.92</ele>
<time>2017-10-27T09:58:25Z</time>
</trkpt>
<trkpt lat="42.1890039" lon="1.6134919">
<ele>1543.92</ele>
<time>2017-10-27T09:58:36Z</time>
</trkpt>
<trkpt lat="42.1890974" lon="1.6135055">
<ele>1545.92</ele>
<time>2017-10-27T09:58:45Z</time>
</trkpt>
<trkpt lat="42.1892175" lon="1.6135493">
<ele>1539.92</ele>
<time>2017-10-27T09:59:28Z</time>
</trkpt>
<trkpt lat="42.1892323" lon="1.6136720">
<ele>1545.92</ele>
<time>2017-10-27T10:01:07Z</time>
</trkpt>
<trkpt lat="42.1892126" lon="1.6137922">
<ele>1550.92</ele>
<time>2017-10-27T10:01:27Z</time>
</trkpt>
<trkpt lat="42.1891785" lon="1.6139126">
<ele>1551.92</ele>
<time>2017-10-27T10:01:38Z</time>
</trkpt>
<trkpt lat="42.1891229" lon="1.6140320">
<ele>1549.92</ele>
<time>2017-10-27T10:01:49Z</time>
</trkpt>
<trkpt lat="42.1891006" lon="1.6141499">
<ele>1554.92</ele>
<time>2017-10-27T10:01:59Z</time>
</trkpt>
<trkpt lat="42.1890090" lon="1.6142203">
<ele>1555.92</ele>
<time>2017-10-27T10:02:16Z</time>
</trkpt>
<trkpt lat="42.1889860" lon="1.6143404">
<ele>1552.92</ele>
<time>2017-10-27T10:02:23Z</time>
</trkpt>
<trkpt lat="42.1888983" lon="1.6144036">
<ele>1553.92</ele>
<time>2017-10-27T10:02:33Z</time>
</trkpt>
<trkpt lat="42.1888672" lon="1.6145266">
<ele>1554.92</ele>
<time>2017-10-27T10:02:44Z</time>
</trkpt>
<trkpt lat="42.1888408" lon="1.6146493">
<ele>1560.92</ele>
<time>2017-10-27T10:02:56Z</time>
</trkpt>
<trkpt lat="42.1888368" lon="1.6147783">
<ele>1561.92</ele>
<time>2017-10-27T10:03:06Z</time>
</trkpt>
<trkpt lat="42.1887885" lon="1.6148908">
<ele>1565.92</ele>
<time>2017-10-27T10:03:19Z</time>
</trkpt>
<trkpt lat="42.1887439" lon="1.6150047">
<ele>1568.92</ele>
<time>2017-10-27T10:03:36Z</time>
</trkpt>
<trkpt lat="42.1887300" lon="1.6151316">
<ele>1569.92</ele>
<time>2017-10-27T10:03:45Z</time>
</trkpt>
<trkpt lat="42.1886781" lon="1.6152345">
<ele>1575.92</ele>
<time>2017-10-27T10:03:59Z</time>
</trkpt>
<trkpt lat="42.1886308" lon="1.6153526">
<ele>1575.92</ele>
<time>2017-10-27T10:04:13Z</time>
</trkpt>
<trkpt lat="42.1886337" lon="1.6154772">
<ele>1578.92</ele>
<time>2017-10-27T10:04:36Z</time>
</trkpt>
<trkpt lat="42.1886659" lon="1.6156060">
<ele>1578.92</ele>
<time>2017-10-27T10:04:50Z</time>
</trkpt>
<trkpt lat="42.1887276" lon="1.6157025">
<ele>1592.92</ele>
<time>2017-10-27T10:05:10Z</time>
</trkpt>
<trkpt lat="42.1887588" lon="1.6158165">
<ele>1594.92</ele>
<time>2017-10-27T10:05:30Z</time>
</trkpt>
<trkpt lat="42.1887939" lon="1.6159284">
<ele>1598.92</ele>
<time>2017-10-27T10:05:53Z</time>
</trkpt>
<trkpt lat="42.1888396" lon="1.6160503">
<ele>1603.92</ele>
<time>2017-10-27T10:07:13Z</time>
</trkpt>
<trkpt lat="42.1888644" lon="1.6161840">
<ele>1601.92</ele>
<time>2017-10-27T10:07:20Z</time>
</trkpt>
<trkpt lat="42.1889301" lon="1.6163036">
<ele>1607.92</ele>
<time>2017-10-27T10:07:42Z</time>
</trkpt>
<trkpt lat="42.1889495" lon="1.6164236">
<ele>1612.92</ele>
<time>2017-10-27T10:07:49Z</time>
</trkpt>
<trkpt lat="42.1890273" lon="1.6165367">
<ele>1616.92</ele>
<time>2017-10-27T10:08:02Z</time>
</trkpt>
<trkpt lat="42.1890088" lon="1.6166828">
<ele>1614.92</ele>
<time>2017-10-27T10:08:52Z</time>
</trkpt>
<trkpt lat="42.1890297" lon="1.6168178">
<ele>1615.92</ele>
<time>2017-10-27T10:09:00Z</time>
</trkpt>
<trkpt lat="42.1890524" lon="1.6169567">
<ele>1619.92</ele>
<time>2017-10-27T10:09:08Z</time>
</trkpt>
<trkpt lat="42.1890723" lon="1.6170876">
<ele>1625.92</ele>
<time>2017-10-27T10:09:27Z</time>
</trkpt>
<trkpt lat="42.1890970" lon="1.6172068">
<ele>1631.92</ele>
<time>2017-10-27T10:09:36Z</time>
</trkpt>
<trkpt lat="42.1890072" lon="1.6172885">
<ele>1634.92</ele>
<time>2017-10-27T10:09:44Z</time>
</trkpt>
<trkpt lat="42.1891005" lon="1.6173324">
<ele>1633.92</ele>
<time>2017-10-27T10:09:54Z</time>
</trkpt>
<trkpt lat="42.1891278" lon="1.6174632">
<ele>1637.92</ele>
<time>2017-10-27T10:10:08Z</time>
</trkpt>
<trkpt lat="42.1891860" lon="1.6175706">
<ele>1636.92</ele>
<time>2017-10-27T10:10:20Z</time>
</trkpt>
<trkpt lat="42.1891508" lon="1.6176879">
<ele>1638.92</ele>
<time>2017-10-27T10:10:27Z</time>
</trkpt>
<trkpt lat="42.1891838" lon="1.6178105">
<ele>1635.92</ele>
<time>2017-10-27T10:10:34Z</time>
</trkpt>
<trkpt lat="42.1891550" lon="1.6179292">
<ele>1635.92</ele>
<time>2017-10-27T10:10:46Z</time>
</trkpt>
<trkpt lat="42.1891173" lon="1.6180436">
<ele>1643.92</ele>
<time>2017-10-27T10:11:01Z</time>
</trkpt>
<trkpt lat="42.1891478" lon="1.6181909">
<ele>1643.92</ele>
<time>2017-10-27T10:11:42Z</time>
</trkpt>
<trkpt lat="42.1891701" lon="1.6183117">
<ele>1646.92</ele>
<time>2017-10-27T10:11:51Z</time>
</trkpt>
<trkpt lat="42.1891775" lon="1.6184480">
<ele>1646.92</ele>
<time>2017-10-27T10:11:54Z</time>
</trkpt>
<trkpt lat="42.1892250" lon="1.6185736">
<ele>1649.92</ele>
<time>2017-10-27T10:12:06Z</time>
</trkpt>
<trkpt lat="42.1892153" lon="1.6187002">
<ele>1650.92</ele>
<time>2017-10-27T10:12:20Z</time>
</trkpt>
<trkpt lat="42.1892118" lon="1.6188224">
<ele>1650.92</ele>
<time>2017-10-27T10:12:33Z</time>
</trkpt>
<trkpt lat="42.1892336" lon="1.6189715">
<ele>1654.92</ele>
<time>2017-10-27T10:12:44Z</time>
</trkpt>
<trkpt lat="42.1892300" lon="1.6191051">
<ele>1666.92</ele>
<time>2017-10-27T10:13:41Z</time>
</trkpt>
<trkpt lat="42.1892201" lon="1.6192305">
<ele>1669.92</ele>
<time>2017-10-27T10:13:50Z</time>
</trkpt>
<trkpt lat="42.1892182" lon="1.6193533">
<ele>1681.92</ele>
<time>2017-10-27T10:14:10Z</time>
</trkpt>
<trkpt lat="42.1891775" lon="1.6194637">
<ele>1684.92</ele>
<time>2017-10-27T10:14:30Z</time>
</trkpt>
<trkpt lat="42.1892366" lon="1.6195569">
<ele>1691.92</ele>
<time>2017-10-27T10:14:52Z</time>
</trkpt>
<trkpt lat="42.1892363" lon="1.6196852">
<ele>1693.92</ele>
<time>2017-10-27T10:15:13Z</time>
</trkpt>
<trkpt lat="42.1892154" lon="1.6198102">
<ele>1694.92</ele>
<time>2017-10-27T10:15:33Z</time>
</trkpt>
<trkpt lat="42.1892346" lon="1.6199346">
<ele>1707.92</ele>
<time>2017-10-27T10:16:10Z</time>
</trkpt>
<trkpt lat="42.1892866" lon="1.6200418">
<ele>1709.92</ele>
<time>2017-10-27T10:16:28Z</time>
</trkpt>
<trkpt lat="42.1893690" lon="1.6200914">
<ele>1714.92</ele>
<time>2017-10-27T10:17:03Z</time>
</trkpt>
<trkpt lat="42.1894525" lon="1.6201494">
<ele>1712.92</ele>
<time>2017-10-27T10:17:15Z</time>
</trkpt>
<trkpt lat="42.1894617" lon="1.6202913">
<ele>1718.92</ele>
<time>2017-10-27T10:17:55Z</time>
</trkpt>
<trkpt lat="42.1894880" lon="1.6204133">
<ele>1716.92</ele>
<time>2017-10-27T10:18:04Z</time>
</trkpt>
<trkpt lat="42.1895279" lon="1.6205226">
<ele>1721.92</ele>
<time>2017-10-27T10:18:38Z</time>
</trkpt>
<trkpt lat="42.1896172" lon="1.6205732">
<ele>1726.92</ele>
<time>2017-10-27T10:20:44Z</time>
</trkpt>
<trkpt lat="42.1897096" lon="1.6205376">
<ele>1731.92</ele>
<time>2017-10-27T10:21:03Z</time>
</trkpt>
<trkpt lat="42.1897720" lon="1.6204450">
<ele>1738.92</ele>
<time>2017-10-27T10:21:24Z</time>
</trkpt>
<trkpt lat="42.1898130" lon="1.6203288">
<ele>1739.92</ele>
<time>2017-10-27T10:21:36Z</time>
</trkpt>
<trkpt lat="42.1898205" lon="1.6202004">
<ele>1742.92</ele>
<time>2017-10-27T10:21:46Z</time>
</trkpt>
<trkpt lat="42.1898484" lon="1.6200770">
<ele>1745.92</ele>
<time>2017-10-27T10:21:54Z</time>
</trkpt>
<trkpt lat="42.1898898" lon="1.6199643">
<ele>1743.92</ele>
<time>2017-10-27T10:22:06Z</time>
</trkpt>
<trkpt lat="42.1899604" lon="1.6198795">
<ele>1746.92</ele>
<time>2017-10-27T10:22:18Z</time>
</trkpt>
<trkpt lat="42.1900580" lon="1.6198585">
<ele>1747.92</ele>
<time>2017-10-27T10:22:32Z</time>
</trkpt>
<trkpt lat="42.1901329" lon="1.6197757">
<ele>1748.92</ele>
<time>2017-10-27T10:22:43Z</time>
</trkpt>
<trkpt lat="42.1902215" lon="1.6197327">
<ele>1752.92</ele>
<time>2017-10-27T10:22:54Z</time>
</trkpt>
<trkpt lat="42.1903120" lon="1.6196822">
<ele>1755.92</ele>
<time>2017-10-27T10:23:07Z</time>
</trkpt>
<trkpt lat="42.1903936" lon="1.6196286">
<ele>1758.92</ele>
<time>2017-10-27T10:23:19Z</time>
</trkpt>
<trkpt lat="42.1904548" lon="1.6195322">
<ele>1764.92</ele>
<time>2017-10-27T10:23:31Z</time>
</trkpt>
<trkpt lat="42.1905506" lon="1.6194967">
<ele>1762.92</ele>
<time>2017-10-27T10:23:45Z</time>
</trkpt>
<trkpt lat="42.1906287" lon="1.6194365">
<ele>1763.92</ele>
<time>2017-10-27T10:24:00Z</time>
</trkpt>
<trkpt lat="42.1906984" lon="1.6193594">
<ele>1766.92</ele>
<time>2017-10-27T10:24:14Z</time>
</trkpt>
<trkpt lat="42.1907859" lon="1.6193286">
<ele>1770.92</ele>
<time>2017-10-27T10:25:04Z</time>
</trkpt>
<trkpt lat="42.1908641" lon="1.6193972">
<ele>1779.92</ele>
<time>2017-10-27T10:25:25Z</time>
</trkpt>
<trkpt lat="42.1909415" lon="1.6194688">
<ele>1788.92</ele>
<time>2017-10-27T10:25:46Z</time>
</trkpt>
<trkpt lat="42.1910328" lon="1.6195150">
<ele>1793.92</ele>
<time>2017-10-27T10:26:03Z</time>
</trkpt>
<trkpt lat="42.1911211" lon="1.6194784">
<ele>1793.92</ele>
<time>2017-10-27T10:26:21Z</time>
</trkpt>
<trkpt lat="42.1912081" lon="1.6194438">
<ele>1796.92</ele>
<time>2017-10-27T10:26:47Z</time>
</trkpt>
<trkpt lat="42.1912969" lon="1.6194183">
<ele>1801.92</ele>
<time>2017-10-27T10:26:58Z</time>
</trkpt>
<trkpt lat="42.1913835" lon="1.6193740">
<ele>1805.92</ele>
<time>2017-10-27T10:27:13Z</time>
</trkpt>
<trkpt lat="42.1914831" lon="1.6193665">
<ele>1806.92</ele>
<time>2017-10-27T10:27:41Z</time>
</trkpt>
<trkpt lat="42.1915580" lon="1.6192933">
<ele>1811.92</ele>
<time>2017-10-27T10:27:56Z</time>
</trkpt>
<trkpt lat="42.1916408" lon="1.6192338">
<ele>1816.92</ele>
<time>2017-10-27T10:28:16Z</time>
</trkpt>
<trkpt lat="42.1916712" lon="1.6193578">
<ele>1823.92</ele>
<time>2017-10-27T10:28:46Z</time>
</trkpt>
<trkpt lat="42.1916305" lon="1.6194702">
<ele>1831.92</ele>
<time>2017-10-27T10:29:07Z</time>
</trkpt>
<trkpt lat="42.1915978" lon="1.6195881">
<ele>1833.92</ele>
<time>2017-10-27T10:29:20Z</time>
</trkpt>
<trkpt lat="42.1915604" lon="1.6196986">
<ele>1836.92</ele>
<time>2017-10-27T10:29:34Z</time>
</trkpt>
<trkpt lat="42.1915468" lon="1.6198199">
<ele>1833.92</ele>
<time>2017-10-27T10:29:45Z</time>
</trkpt>
<trkpt lat="42.1914840" lon="1.6199131">
<ele>1837.92</ele>
<time>2017-10-27T10:30:02Z</time>
</trkpt>
<trkpt lat="42.1914516" lon="1.6200386">
<ele>1838.92</ele>
<time>2017-10-27T10:30:16Z</time>
</trkpt>
<trkpt lat="42.1914113" lon="1.6201545">
<ele>1842.92</ele>
<time>2017-10-27T10:31:05Z</time>
</trkpt>
<trkpt lat="42.1913660" lon="1.6202696">
<ele>1846.92</ele>
<time>2017-10-27T10:31:14Z</time>
</trkpt>
<trkpt lat="42.1913856" lon="1.6204049">
<ele>1847.92</ele>
<time>2017-10-27T10:31:33Z</time>
</trkpt>
<trkpt lat="42.1913321" lon="1.6205042">
<ele>1851.92</ele>
<time>2017-10-27T10:31:40Z</time>
</trkpt>
<trkpt lat="42.1912552" lon="1.6205700">
<ele>1855.92</ele>
<time>2017-10-27T10:31:50Z</time>
</trkpt>
<trkpt lat="42.1911834" lon="1.6206449">
<ele>1858.92</ele>
<time>2017-10-27T10:32:07Z</time>
</trkpt>
<trkpt lat="42.1911383" lon="1.6207619">
<ele>1862.92</ele>
<time>2017-10-27T10:32:32Z</time>
</trkpt>
<trkpt lat="42.1911305" lon="1.6208997">
<ele>1869.92</ele>
<time>2017-10-27T10:32:48Z</time>
</trkpt>
<trkpt lat="42.1911120" lon="1.6210259">
<ele>1862.92</ele>
<time>2017-10-27T10:33:07Z</time>
</trkpt>
<trkpt lat="42.1910899" lon="1.6211527">
<ele>1871.92</ele>
<time>2017-10-27T10:33:18Z</time>
</trkpt>
<trkpt lat="42.1911686" lon="1.6212346">
<ele>1881.92</ele>
<time>2017-10-27T10:34:02Z</time>
</trkpt>
<trkpt lat="42.1911777" lon="1.6213602">
<ele>1888.92</ele>
<time>2017-10-27T10:34:47Z</time>
</trkpt>
<trkpt lat="42.1911167" lon="1.6214690">
<ele>1887.92</ele>
<time>2017-10-27T10:35:10Z</time>
</trkpt>
<trkpt lat="42.1910654" lon="1.6215696">
<ele>1891.92</ele>
<time>2017-10-27T10:35:20Z</time>
</trkpt>
<trkpt lat="42.1910703" lon="1.6216927">
<ele>1896.92</ele>
<time>2017-10-27T10:35:37Z</time>
</trkpt>
<trkpt lat="42.1910144" lon="1.6218001">
<ele>1897.92</ele>
<time>2017-10-27T10:35:48Z</time>
</trkpt>
<trkpt lat="42.1909722" lon="1.6219098">
<ele>1901.92</ele>
<time>2017-10-27T10:36:04Z</time>
</trkpt>
<trkpt lat="42.1910631" lon="1.6218797">
<ele>1901.92</ele>
<time>2017-10-27T10:49:20Z</time>
</trkpt>
<trkpt lat="42.1911550" lon="1.6219162">
<ele>1898.92</ele>
<time>2017-10-27T10:49:31Z</time>
</trkpt>
<trkpt lat="42.1912451" lon="1.6219228">
<ele>1902.92</ele>
<time>2017-10-27T10:49:46Z</time>
</trkpt>
<trkpt lat="42.1913487" lon="1.6219280">
<ele>1909.92</ele>
<time>2017-10-27T10:50:21Z</time>
</trkpt>
<trkpt lat="42.1914358" lon="1.6219850">
<ele>1915.92</ele>
<time>2017-10-27T10:50:55Z</time>
</trkpt>
<trkpt lat="42.1915122" lon="1.6220544">
<ele>1916.92</ele>
<time>2017-10-27T10:51:21Z</time>
</trkpt>
<trkpt lat="42.1916083" lon="1.6220908">
<ele>1921.92</ele>
<time>2017-10-27T10:51:42Z</time>
</trkpt>
<trkpt lat="42.1917020" lon="1.6220990">
<ele>1931.92</ele>
<time>2017-10-27T10:52:01Z</time>
</trkpt>
<trkpt lat="42.1917964" lon="1.6220845">
<ele>1934.92</ele>
<time>2017-10-27T10:52:33Z</time>
</trkpt>
<trkpt lat="42.1918929" lon="1.6221006">
<ele>1939.92</ele>
<time>2017-10-27T10:52:45Z</time>
</trkpt>
<trkpt lat="42.1919460" lon="1.6222021">
<ele>1943.92</ele>
<time>2017-10-27T10:53:18Z</time>
</trkpt>
<trkpt lat="42.1920268" lon="1.6222787">
<ele>1947.92</ele>
<time>2017-10-27T10:53:24Z</time>
</trkpt>
<trkpt lat="42.1919403" lon="1.6223255">
<ele>1950.92</ele>
<time>2017-10-27T10:53:33Z</time>
</trkpt>
<trkpt lat="42.1918708" lon="1.6224040">
<ele>1955.92</ele>
<time>2017-10-27T10:54:04Z</time>
</trkpt>
<trkpt lat="42.1917362" lon="1.6224188">
<ele>1951.92</ele>
<time>2017-10-27T10:55:04Z</time>
</trkpt>
<trkpt lat="42.1918272" lon="1.6224746">
<ele>1956.92</ele>
<time>2017-10-27T10:55:09Z</time>
</trkpt>
<trkpt lat="42.1918504" lon="1.6226026">
<ele>1958.92</ele>
<time>2017-10-27T10:55:19Z</time>
</trkpt>
<trkpt lat="42.1917955" lon="1.6227090">
<ele>1961.92</ele>
<time>2017-10-27T10:55:36Z</time>
</trkpt>
<trkpt lat="42.1917546" lon="1.6228178">
<ele>1967.92</ele>
<time>2017-10-27T10:55:55Z</time>
</trkpt>
<trkpt lat="42.1917102" lon="1.6229250">
<ele>1969.92</ele>
<time>2017-10-27T10:56:09Z</time>
</trkpt>
<trkpt lat="42.1916495" lon="1.6230195">
<ele>1971.92</ele>
<time>2017-10-27T10:56:20Z</time>
</trkpt>
<trkpt lat="42.1916228" lon="1.6231390">
<ele>1973.92</ele>
<time>2017-10-27T10:56:34Z</time>
</trkpt>
<trkpt lat="42.1916132" lon="1.6232796">
<ele>1971.92</ele>
<time>2017-10-27T10:56:47Z</time>
</trkpt>
<trkpt lat="42.1916112" lon="1.6234091">
<ele>1975.92</ele>
<time>2017-10-27T10:57:00Z</time>
</trkpt>
<trkpt lat="42.1916440" lon="1.6235256">
<ele>1978.92</ele>
<time>2017-10-27T10:57:12Z</time>
</trkpt>
<trkpt lat="42.1916687" lon="1.6236529">
<ele>1984.92</ele>
<time>2017-10-27T10:57:26Z</time>
</trkpt>
<trkpt lat="42.1916871" lon="1.6237744">
<ele>1986.92</ele>
<time>2017-10-27T10:57:41Z</time>
</trkpt>
<trkpt lat="42.1916963" lon="1.6239054">
<ele>1990.92</ele>
<time>2017-10-27T10:58:03Z</time>
</trkpt>
<trkpt lat="42.1917158" lon="1.6240347">
<ele>1992.92</ele>
<time>2017-10-27T10:58:30Z</time>
</trkpt>
<trkpt lat="42.1917804" lon="1.6241270">
<ele>1994.92</ele>
<time>2017-10-27T10:58:43Z</time>
</trkpt>
<trkpt lat="42.1918414" lon="1.6242348">
<ele>1998.92</ele>
<time>2017-10-27T10:59:01Z</time>
</trkpt>
<trkpt lat="42.1919314" lon="1.6242796">
<ele>1999.92</ele>
<time>2017-10-27T10:59:13Z</time>
</trkpt>
<trkpt lat="42.1920276" lon="1.6243163">
<ele>2000.92</ele>
<time>2017-10-27T10:59:27Z</time>
</trkpt>
<trkpt lat="42.1921154" lon="1.6243512">
<ele>2005.92</ele>
<time>2017-10-27T10:59:44Z</time>
</trkpt>
<trkpt lat="42.1922088" lon="1.6243938">
<ele>2006.92</ele>
<time>2017-10-27T11:00:02Z</time>
</trkpt>
<trkpt lat="42.1923056" lon="1.6244234">
<ele>2009.92</ele>
<time>2017-10-27T11:00:19Z</time>
</trkpt>
<trkpt lat="42.1923999" lon="1.6244420">
<ele>2013.92</ele>
<time>2017-10-27T11:00:33Z</time>
</trkpt>
<trkpt lat="42.1924784" lon="1.6245091">
<ele>2021.92</ele>
<time>2017-10-27T11:00:54Z</time>
</trkpt>
<trkpt lat="42.1925698" lon="1.6245146">
<ele>2021.92</ele>
<time>2017-10-27T11:01:08Z</time>
</trkpt>
<trkpt lat="42.1926546" lon="1.6245650">
<ele>2020.92</ele>
<time>2017-10-27T11:01:25Z</time>
</trkpt>
<trkpt lat="42.1927412" lon="1.6246065">
<ele>2023.92</ele>
<time>2017-10-27T11:02:17Z</time>
</trkpt>
<trkpt lat="42.1928382" lon="1.6246256">
<ele>2032.92</ele>
<time>2017-10-27T11:02:30Z</time>
</trkpt>
<trkpt lat="42.1929327" lon="1.6246451">
<ele>2036.92</ele>
<time>2017-10-27T11:02:41Z</time>
</trkpt>
<trkpt lat="42.1930213" lon="1.6246736">
<ele>2036.92</ele>
<time>2017-10-27T11:02:53Z</time>
</trkpt>
<trkpt lat="42.1931122" lon="1.6247218">
<ele>2037.92</ele>
<time>2017-10-27T11:03:05Z</time>
</trkpt>
<trkpt lat="42.1931844" lon="1.6248049">
<ele>2039.92</ele>
<time>2017-10-27T11:03:19Z</time>
</trkpt>
<trkpt lat="42.1932514" lon="1.6248912">
<ele>2041.92</ele>
<time>2017-10-27T11:03:30Z</time>
</trkpt>
<trkpt lat="42.1932593" lon="1.6250247">
<ele>2045.92</ele>
<time>2017-10-27T11:03:56Z</time>
</trkpt>
<trkpt lat="42.1932700" lon="1.6251555">
<ele>2045.92</ele>
<time>2017-10-27T11:04:05Z</time>
</trkpt>
<trkpt lat="42.1933363" lon="1.6252555">
<ele>2048.92</ele>
<time>2017-10-27T11:05:58Z</time>
</trkpt>
<trkpt lat="42.1933773" lon="1.6253682">
<ele>2051.92</ele>
<time>2017-10-27T11:06:06Z</time>
</trkpt>
<trkpt lat="42.1933898" lon="1.6254947">
<ele>2052.92</ele>
<time>2017-10-27T11:06:15Z</time>
</trkpt>
<trkpt lat="42.1933728" lon="1.6256291">
<ele>2055.92</ele>
<time>2017-10-27T11:06:22Z</time>
</trkpt>
<trkpt lat="42.1933734" lon="1.6257507">
<ele>2055.92</ele>
<time>2017-10-27T11:06:31Z</time>
</trkpt>
<trkpt lat="42.1933843" lon="1.6258838">
<ele>2053.92</ele>
<time>2017-10-27T11:06:38Z</time>
</trkpt>
<trkpt lat="42.1934124" lon="1.6259999">
<ele>2053.92</ele>
<time>2017-10-27T11:06:46Z</time>
</trkpt>
<trkpt lat="42.1934089" lon="1.6261291">
<ele>2051.92</ele>
<time>2017-10-27T11:06:55Z</time>
</trkpt>
<trkpt lat="42.1933659" lon="1.6262365">
<ele>2052.92</ele>
<time>2017-10-27T11:07:05Z</time>
</trkpt>
<trkpt lat="42.1933430" lon="1.6263613">
<ele>2052.92</ele>
<time>2017-10-27T11:07:17Z</time>
</trkpt>
<trkpt lat="42.1934084" lon="1.6264575">
<ele>2056.92</ele>
<time>2017-10-27T11:07:28Z</time>
</trkpt>
<trkpt lat="42.1934611" lon="1.6265617">
<ele>2056.92</ele>
<time>2017-10-27T11:07:41Z</time>
</trkpt>
<trkpt lat="42.1935453" lon="1.6266362">
<ele>2061.92</ele>
<time>2017-10-27T11:07:53Z</time>
</trkpt>
<trkpt lat="42.1936168" lon="1.6267125">
<ele>2063.92</ele>
<time>2017-10-27T11:08:05Z</time>
</trkpt>
<trkpt lat="42.1936795" lon="1.6268018">
<ele>2067.92</ele>
<time>2017-10-27T11:08:20Z</time>
</trkpt>
<trkpt lat="42.1937083" lon="1.6269212">
<ele>2068.92</ele>
<time>2017-10-27T11:08:33Z</time>
</trkpt>
<trkpt lat="42.1937804" lon="1.6270076">
<ele>2066.92</ele>
<time>2017-10-27T11:08:47Z</time>
</trkpt>
<trkpt lat="42.1938368" lon="1.6271033">
<ele>2069.92</ele>
<time>2017-10-27T11:08:57Z</time>
</trkpt>
<trkpt lat="42.1939117" lon="1.6271837">
<ele>2072.92</ele>
<time>2017-10-27T11:09:06Z</time>
</trkpt>
<trkpt lat="42.1939850" lon="1.6272647">
<ele>2073.92</ele>
<time>2017-10-27T11:09:16Z</time>
</trkpt>
<trkpt lat="42.1940755" lon="1.6272631">
<ele>2072.92</ele>
<time>2017-10-27T11:09:52Z</time>
</trkpt>
<trkpt lat="42.1941079" lon="1.6273826">
<ele>2073.92</ele>
<time>2017-10-27T11:10:54Z</time>
</trkpt>
<trkpt lat="42.1941852" lon="1.6274554">
<ele>2073.92</ele>
<time>2017-10-27T11:11:04Z</time>
</trkpt>
<trkpt lat="42.1942731" lon="1.6275284">
<ele>2073.92</ele>
<time>2017-10-27T11:11:12Z</time>
</trkpt>
<trkpt lat="42.1943328" lon="1.6276352">
<ele>2074.92</ele>
<time>2017-10-27T11:11:19Z</time>
</trkpt>
<trkpt lat="42.1943984" lon="1.6277314">
<ele>2076.92</ele>
<time>2017-10-27T11:11:31Z</time>
</trkpt>
<trkpt lat="42.1944343" lon="1.6278487">
<ele>2079.92</ele>
<time>2017-10-27T11:11:41Z</time>
</trkpt>
<trkpt lat="42.1944864" lon="1.6279548">
<ele>2081.92</ele>
<time>2017-10-27T11:11:52Z</time>
</trkpt>
<trkpt lat="42.1945620" lon="1.6280214">
<ele>2083.92</ele>
<time>2017-10-27T11:12:03Z</time>
</trkpt>
<trkpt lat="42.1946487" lon="1.6280665">
<ele>2088.92</ele>
<time>2017-10-27T11:12:16Z</time>
</trkpt>
<trkpt lat="42.1947257" lon="1.6281318">
<ele>2093.92</ele>
<time>2017-10-27T11:12:30Z</time>
</trkpt>
<trkpt lat="42.1947922" lon="1.6282313">
<ele>2093.92</ele>
<time>2017-10-27T11:12:42Z</time>
</trkpt>
<trkpt lat="42.1948569" lon="1.6283230">
<ele>2095.92</ele>
<time>2017-10-27T11:12:51Z</time>
</trkpt>
<trkpt lat="42.1949310" lon="1.6284090">
<ele>2095.92</ele>
<time>2017-10-27T11:13:02Z</time>
</trkpt>
<trkpt lat="42.1949957" lon="1.6285098">
<ele>2096.92</ele>
<time>2017-10-27T11:13:14Z</time>
</trkpt>
<trkpt lat="42.1950705" lon="1.6285846">
<ele>2097.92</ele>
<time>2017-10-27T11:13:22Z</time>
</trkpt>
<trkpt lat="42.1951610" lon="1.6286095">
<ele>2100.92</ele>
<time>2017-10-27T11:13:28Z</time>
</trkpt>
<trkpt lat="42.1952280" lon="1.6287154">
<ele>2097.92</ele>
<time>2017-10-27T11:13:43Z</time>
</trkpt>
<trkpt lat="42.1953232" lon="1.6287509">
<ele>2098.92</ele>
<time>2017-10-27T11:13:55Z</time>
</trkpt>
<trkpt lat="42.1954123" lon="1.6287767">
<ele>2099.92</ele>
<time>2017-10-27T11:14:07Z</time>
</trkpt>
<trkpt lat="42.1954932" lon="1.6288333">
<ele>2103.92</ele>
<time>2017-10-27T11:14:18Z</time>
</trkpt>
<trkpt lat="42.1955926" lon="1.6288521">
<ele>2106.92</ele>
<time>2017-10-27T11:14:27Z</time>
</trkpt>
<trkpt lat="42.1954995" lon="1.6288638">
<ele>2106.92</ele>
<time>2017-10-27T11:17:45Z</time>
</trkpt>
<trkpt lat="42.1954033" lon="1.6288569">
<ele>2107.92</ele>
<time>2017-10-27T11:17:55Z</time>
</trkpt>
<trkpt lat="42.1953134" lon="1.6288225">
<ele>2106.92</ele>
<time>2017-10-27T11:18:04Z</time>
</trkpt>
<trkpt lat="42.1952328" lon="1.6287658">
<ele>2104.92</ele>
<time>2017-10-27T11:18:15Z</time>
</trkpt>
<trkpt lat="42.1951552" lon="1.6286926">
<ele>2100.92</ele>
<time>2017-10-27T11:18:27Z</time>
</trkpt>
<trkpt lat="42.1950753" lon="1.6286361">
<ele>2100.92</ele>
<time>2017-10-27T11:20:59Z</time>
</trkpt>
<trkpt lat="42.1950144" lon="1.6285273">
<ele>2099.92</ele>
<time>2017-10-27T11:21:14Z</time>
</trkpt>
<trkpt lat="42.1949421" lon="1.6284292">
<ele>2099.92</ele>
<time>2017-10-27T11:21:22Z</time>
</trkpt>
<trkpt lat="42.1948677" lon="1.6283561">
<ele>2100.92</ele>
<time>2017-10-27T11:21:29Z</time>
</trkpt>
<trkpt lat="42.1948053" lon="1.6282629">
<ele>2099.92</ele>
<time>2017-10-27T11:21:36Z</time>
</trkpt>
<trkpt lat="42.1947398" lon="1.6281658">
<ele>2095.92</ele>
<time>2017-10-27T11:21:46Z</time>
</trkpt>
<trkpt lat="42.1946773" lon="1.6280697">
<ele>2090.92</ele>
<time>2017-10-27T11:22:36Z</time>
</trkpt>
<trkpt lat="42.1945999" lon="1.6279961">
<ele>2088.92</ele>
<time>2017-10-27T11:22:43Z</time>
</trkpt>
<trkpt lat="42.1945431" lon="1.6278965">
<ele>2087.92</ele>
<time>2017-10-27T11:22:54Z</time>
</trkpt>
<trkpt lat="42.1945005" lon="1.6277791">
<ele>2085.92</ele>
<time>2017-10-27T11:23:06Z</time>
</trkpt>
<trkpt lat="42.1943978" lon="1.6277748">
<ele>2088.92</ele>
<time>2017-10-27T11:23:15Z</time>
</trkpt>
<trkpt lat="42.1943067" lon="1.6277121">
<ele>2088.92</ele>
<time>2017-10-27T11:23:26Z</time>
</trkpt>
<trkpt lat="42.1942640" lon="1.6275990">
<ele>2086.92</ele>
<time>2017-10-27T11:23:33Z</time>
</trkpt>
<trkpt lat="42.1942103" lon="1.6274922">
<ele>2084.92</ele>
<time>2017-10-27T11:23:41Z</time>
</trkpt>
<trkpt lat="42.1941196" lon="1.6274677">
<ele>2081.92</ele>
<time>2017-10-27T11:23:51Z</time>
</trkpt>
<trkpt lat="42.1940804" lon="1.6273546">
<ele>2080.92</ele>
<time>2017-10-27T11:24:08Z</time>
</trkpt>
<trkpt lat="42.1940788" lon="1.6272188">
<ele>2079.92</ele>
<time>2017-10-27T11:25:17Z</time>
</trkpt>
<trkpt lat="42.1940327" lon="1.6271112">
<ele>2078.92</ele>
<time>2017-10-27T11:25:27Z</time>
</trkpt>
<trkpt lat="42.1940235" lon="1.6269712">
<ele>2081.92</ele>
<time>2017-10-27T11:25:35Z</time>
</trkpt>
<trkpt lat="42.1940181" lon="1.6268496">
<ele>2078.92</ele>
<time>2017-10-27T11:25:42Z</time>
</trkpt>
<trkpt lat="42.1940642" lon="1.6267433">
<ele>2079.92</ele>
<time>2017-10-27T11:25:48Z</time>
</trkpt>
<trkpt lat="42.1940862" lon="1.6266137">
<ele>2077.92</ele>
<time>2017-10-27T11:26:05Z</time>
</trkpt>
<trkpt lat="42.1940782" lon="1.6264780">
<ele>2075.92</ele>
<time>2017-10-27T11:26:22Z</time>
</trkpt>
<trkpt lat="42.1941118" lon="1.6263624">
<ele>2074.92</ele>
<time>2017-10-27T11:26:32Z</time>
</trkpt>
<trkpt lat="42.1941330" lon="1.6262388">
<ele>2072.92</ele>
<time>2017-10-27T11:26:42Z</time>
</trkpt>
<trkpt lat="42.1941606" lon="1.6261161">
<ele>2074.92</ele>
<time>2017-10-27T11:26:52Z</time>
</trkpt>
<trkpt lat="42.1941101" lon="1.6260062">
<ele>2076.92</ele>
<time>2017-10-27T11:26:58Z</time>
</trkpt>
<trkpt lat="42.1940755" lon="1.6258795">
<ele>2078.92</ele>
<time>2017-10-27T11:27:07Z</time>
</trkpt>
<trkpt lat="42.1940321" lon="1.6257730">
<ele>2079.92</ele>
<time>2017-10-27T11:27:14Z</time>
</trkpt>
<trkpt lat="42.1940258" lon="1.6256501">
<ele>2080.92</ele>
<time>2017-10-27T11:27:22Z</time>
</trkpt>
<trkpt lat="42.1939996" lon="1.6255153">
<ele>2082.92</ele>
<time>2017-10-27T11:27:29Z</time>
</trkpt>
<trkpt lat="42.1939906" lon="1.6253880">
<ele>2081.92</ele>
<time>2017-10-27T11:27:38Z</time>
</trkpt>
<trkpt lat="42.1939759" lon="1.6252494">
<ele>2080.92</ele>
<time>2017-10-27T11:27:46Z</time>
</trkpt>
<trkpt lat="42.1939549" lon="1.6251154">
<ele>2080.92</ele>
<time>2017-10-27T11:27:52Z</time>
</trkpt>
<trkpt lat="42.1939798" lon="1.6249843">
<ele>2082.92</ele>
<time>2017-10-27T11:28:01Z</time>
</trkpt>
<trkpt lat="42.1939776" lon="1.6248617">
<ele>2083.92</ele>
<time>2017-10-27T11:28:09Z</time>
</trkpt>
<trkpt lat="42.1940108" lon="1.6247429">
<ele>2081.92</ele>
<time>2017-10-27T11:28:17Z</time>
</trkpt>
<trkpt lat="42.1940056" lon="1.6246163">
<ele>2079.92</ele>
<time>2017-10-27T11:28:25Z</time>
</trkpt>
<trkpt lat="42.1939777" lon="1.6244876">
<ele>2081.92</ele>
<time>2017-10-27T11:28:31Z</time>
</trkpt>
<trkpt lat="42.1940477" lon="1.6243938">
<ele>2080.92</ele>
<time>2017-10-27T11:28:40Z</time>
</trkpt>
<trkpt lat="42.1940874" lon="1.6242847">
<ele>2083.92</ele>
<time>2017-10-27T11:28:48Z</time>
</trkpt>
<trkpt lat="42.1941420" lon="1.6241774">
<ele>2082.92</ele>
<time>2017-10-27T11:28:57Z</time>
</trkpt>
<trkpt lat="42.1941764" lon="1.6240504">
<ele>2081.92</ele>
<time>2017-10-27T11:29:06Z</time>
</trkpt>
<trkpt lat="42.1941688" lon="1.6239225">
<ele>2085.92</ele>
<time>2017-10-27T11:29:16Z</time>
</trkpt>
<trkpt lat="42.1941083" lon="1.6238025">
<ele>2084.92</ele>
<time>2017-10-27T11:29:28Z</time>
</trkpt>
<trkpt lat="42.1940576" lon="1.6236965">
<ele>2085.92</ele>
<time>2017-10-27T11:29:37Z</time>
</trkpt>
<trkpt lat="42.1939814" lon="1.6236273">
<ele>2090.92</ele>
<time>2017-10-27T11:29:46Z</time>
</trkpt>
<trkpt lat="42.1939166" lon="1.6235223">
<ele>2094.92</ele>
<time>2017-10-27T11:29:56Z</time>
</trkpt>
<trkpt lat="42.1939702" lon="1.6234229">
<ele>2097.92</ele>
<time>2017-10-27T11:30:14Z</time>
</trkpt>
<trkpt lat="42.1940007" lon="1.6233065">
<ele>2097.92</ele>
<time>2017-10-27T11:30:26Z</time>
</trkpt>
<trkpt lat="42.1940279" lon="1.6231876">
<ele>2102.92</ele>
<time>2017-10-27T11:30:41Z</time>
</trkpt>
<trkpt lat="42.1941003" lon="1.6231006">
<ele>2103.92</ele>
<time>2017-10-27T11:30:54Z</time>
</trkpt>
<trkpt lat="42.1941599" lon="1.6230035">
<ele>2107.92</ele>
<time>2017-10-27T11:31:07Z</time>
</trkpt>
<trkpt lat="42.1942211" lon="1.6229123">
<ele>2109.92</ele>
<time>2017-10-27T11:31:19Z</time>
</trkpt>
<trkpt lat="42.1942755" lon="1.6227966">
<ele>2110.92</ele>
<time>2017-10-27T11:31:31Z</time>
</trkpt>
<trkpt lat="42.1943580" lon="1.6227108">
<ele>2110.92</ele>
<time>2017-10-27T11:31:44Z</time>
</trkpt>
<trkpt lat="42.1944233" lon="1.6226265">
<ele>2113.92</ele>
<time>2017-10-27T11:31:53Z</time>
</trkpt>
<trkpt lat="42.1945101" lon="1.6225699">
<ele>2113.92</ele>
<time>2017-10-27T11:32:06Z</time>
</trkpt>
<trkpt lat="42.1945974" lon="1.6224985">
<ele>2113.92</ele>
<time>2017-10-27T11:32:15Z</time>
</trkpt>
<trkpt lat="42.1946736" lon="1.6224137">
<ele>2112.92</ele>
<time>2017-10-27T11:32:23Z</time>
</trkpt>
<trkpt lat="42.1947536" lon="1.6223485">
<ele>2114.92</ele>
<time>2017-10-27T11:32:30Z</time>
</trkpt>
<trkpt lat="42.1948685" lon="1.6223492">
<ele>2113.92</ele>
<time>2017-10-27T11:32:39Z</time>
</trkpt>
<trkpt lat="42.1949857" lon="1.6223143">
<ele>2116.92</ele>
<time>2017-10-27T11:33:00Z</time>
</trkpt>
<trkpt lat="42.1950693" lon="1.6222681">
<ele>2118.92</ele>
<time>2017-10-27T11:33:03Z</time>
</trkpt>
<trkpt lat="42.1951554" lon="1.6222229">
<ele>2121.92</ele>
<time>2017-10-27T11:33:10Z</time>
</trkpt>
<trkpt lat="42.1952389" lon="1.6221660">
<ele>2122.92</ele>
<time>2017-10-27T11:33:16Z</time>
</trkpt>
<trkpt lat="42.1953339" lon="1.6221516">
<ele>2121.92</ele>
<time>2017-10-27T11:33:25Z</time>
</trkpt>
<trkpt lat="42.1954307" lon="1.6221388">
<ele>2121.92</ele>
<time>2017-10-27T11:33:32Z</time>
</trkpt>
<trkpt lat="42.1955148" lon="1.6220846">
<ele>2119.92</ele>
<time>2017-10-27T11:33:37Z</time>
</trkpt>
<trkpt lat="42.1956183" lon="1.6220388">
<ele>2123.92</ele>
<time>2017-10-27T11:33:44Z</time>
</trkpt>
<trkpt lat="42.1956980" lon="1.6219596">
<ele>2124.92</ele>
<time>2017-10-27T11:33:55Z</time>
</trkpt>
<trkpt lat="42.1957230" lon="1.6218378">
<ele>2130.92</ele>
<time>2017-10-27T11:34:09Z</time>
</trkpt>
<trkpt lat="42.1957775" lon="1.6217350">
<ele>2134.92</ele>
<time>2017-10-27T11:34:18Z</time>
</trkpt>
<trkpt lat="42.1958248" lon="1.6216290">
<ele>2132.92</ele>
<time>2017-10-27T11:34:28Z</time>
</trkpt>
<trkpt lat="42.1958999" lon="1.6215393">
<ele>2132.92</ele>
<time>2017-10-27T11:34:37Z</time>
</trkpt>
<trkpt lat="42.1959647" lon="1.6214336">
<ele>2132.92</ele>
<time>2017-10-27T11:34:46Z</time>
</trkpt>
<trkpt lat="42.1960547" lon="1.6214056">
<ele>2129.92</ele>
<time>2017-10-27T11:34:56Z</time>
</trkpt>
<trkpt lat="42.1961201" lon="1.6213050">
<ele>2132.92</ele>
<time>2017-10-27T11:35:05Z</time>
</trkpt>
<trkpt lat="42.1961955" lon="1.6212337">
<ele>2131.92</ele>
<time>2017-10-27T11:35:52Z</time>
</trkpt>
<trkpt lat="42.1962420" lon="1.6211297">
<ele>2130.92</ele>
<time>2017-10-27T11:36:07Z</time>
</trkpt>
<trkpt lat="42.1963145" lon="1.6210558">
<ele>2132.92</ele>
<time>2017-10-27T11:36:22Z</time>
</trkpt>
<trkpt lat="42.1963975" lon="1.6210054">
<ele>2137.92</ele>
<time>2017-10-27T11:36:37Z</time>
</trkpt>
<trkpt lat="42.1964382" lon="1.6208879">
<ele>2138.92</ele>
<time>2017-10-27T11:36:45Z</time>
</trkpt>
<trkpt lat="42.1965026" lon="1.6207868">
<ele>2140.92</ele>
<time>2017-10-27T11:36:54Z</time>
</trkpt>
<trkpt lat="42.1965486" lon="1.6206689">
<ele>2140.92</ele>
<time>2017-10-27T11:37:05Z</time>
</trkpt>
<trkpt lat="42.1966452" lon="1.6206309">
<ele>2146.92</ele>
<time>2017-10-27T11:37:52Z</time>
</trkpt>
<trkpt lat="42.1967352" lon="1.6206517">
<ele>2147.92</ele>
<time>2017-10-27T11:38:03Z</time>
</trkpt>
<trkpt lat="42.1968222" lon="1.6205912">
<ele>2145.92</ele>
<time>2017-10-27T11:38:34Z</time>
</trkpt>
<trkpt lat="42.1968926" lon="1.6205030">
<ele>2146.92</ele>
<time>2017-10-27T11:38:42Z</time>
</trkpt>
<trkpt lat="42.1969669" lon="1.6204297">
<ele>2151.92</ele>
<time>2017-10-27T11:38:49Z</time>
</trkpt>
<trkpt lat="42.1970520" lon="1.6203834">
<ele>2150.92</ele>
<time>2017-10-27T11:38:58Z</time>
</trkpt>
<trkpt lat="42.1971462" lon="1.6203799">
<ele>2149.92</ele>
<time>2017-10-27T11:39:06Z</time>
</trkpt>
<trkpt lat="42.1972368" lon="1.6203560">
<ele>2148.92</ele>
<time>2017-10-27T11:39:15Z</time>
</trkpt>
<trkpt lat="42.1973276" lon="1.6203288">
<ele>2152.92</ele>
<time>2017-10-27T11:39:20Z</time>
</trkpt>
<trkpt lat="42.1974318" lon="1.6203144">
<ele>2155.92</ele>
<time>2017-10-27T11:39:28Z</time>
</trkpt>
<trkpt lat="42.1975248" lon="1.6203333">
<ele>2154.92</ele>
<time>2017-10-27T11:39:37Z</time>
</trkpt>
<trkpt lat="42.1976215" lon="1.6203163">
<ele>2156.92</ele>
<time>2017-10-27T11:39:43Z</time>
</trkpt>
<trkpt lat="42.1977150" lon="1.6203249">
<ele>2157.92</ele>
<time>2017-10-27T11:39:52Z</time>
</trkpt>
<trkpt lat="42.1978051" lon="1.6203399">
<ele>2156.92</ele>
<time>2017-10-27T11:40:03Z</time>
</trkpt>
<trkpt lat="42.1979038" lon="1.6203504">
<ele>2157.92</ele>
<time>2017-10-27T11:40:10Z</time>
</trkpt>
<trkpt lat="42.1979914" lon="1.6203204">
<ele>2158.92</ele>
<time>2017-10-27T11:40:45Z</time>
</trkpt>
<trkpt lat="42.1980777" lon="1.6203743">
<ele>2155.92</ele>
<time>2017-10-27T11:41:18Z</time>
</trkpt>
<trkpt lat="42.1981712" lon="1.6204154">
<ele>2156.92</ele>
<time>2017-10-27T11:41:27Z</time>
</trkpt>
<trkpt lat="42.1982662" lon="1.6204661">
<ele>2158.92</ele>
<time>2017-10-27T11:41:35Z</time>
</trkpt>
<trkpt lat="42.1983550" lon="1.6204877">
<ele>2157.92</ele>
<time>2017-10-27T11:41:40Z</time>
</trkpt>
<trkpt lat="42.1984497" lon="1.6205308">
<ele>2157.92</ele>
<time>2017-10-27T11:41:47Z</time>
</trkpt>
<trkpt lat="42.1985500" lon="1.6205786">
<ele>2155.92</ele>
<time>2017-10-27T11:41:55Z</time>
</trkpt>
<trkpt lat="42.1986384" lon="1.6206044">
<ele>2150.92</ele>
<time>2017-10-27T11:42:02Z</time>
</trkpt>
<trkpt lat="42.1987319" lon="1.6206164">
<ele>2154.92</ele>
<time>2017-10-27T11:42:08Z</time>
</trkpt>
<trkpt lat="42.1988244" lon="1.6206435">
<ele>2154.92</ele>
<time>2017-10-27T11:42:15Z</time>
</trkpt>
<trkpt lat="42.1989215" lon="1.6206604">
<ele>2151.92</ele>
<time>2017-10-27T11:42:23Z</time>
</trkpt>
<trkpt lat="42.1990122" lon="1.6206411">
<ele>2150.92</ele>
<time>2017-10-27T11:42:30Z</time>
</trkpt>
<trkpt lat="42.1991026" lon="1.6206874">
<ele>2150.92</ele>
<time>2017-10-27T11:43:02Z</time>
</trkpt>
<trkpt lat="42.1992063" lon="1.6207154">
<ele>2153.92</ele>
<time>2017-10-27T11:43:10Z</time>
</trkpt>
<trkpt lat="42.1992989" lon="1.6207128">
<ele>2154.92</ele>
<time>2017-10-27T11:43:15Z</time>
</trkpt>
<trkpt lat="42.1993950" lon="1.6207342">
<ele>2151.92</ele>
<time>2017-10-27T11:43:23Z</time>
</trkpt>
<trkpt lat="42.1994800" lon="1.6207742">
<ele>2148.92</ele>
<time>2017-10-27T11:43:30Z</time>
</trkpt>
<trkpt lat="42.1995778" lon="1.6207890">
<ele>2150.92</ele>
<time>2017-10-27T11:43:35Z</time>
</trkpt>
<trkpt lat="42.1996693" lon="1.6208201">
<ele>2151.92</ele>
<time>2017-10-27T11:43:39Z</time>
</trkpt>
<trkpt lat="42.1997582" lon="1.6208671">
<ele>2152.92</ele>
<time>2017-10-27T11:43:46Z</time>
</trkpt>
<trkpt lat="42.1998474" lon="1.6209395">
<ele>2150.92</ele>
<time>2017-10-27T11:43:53Z</time>
</trkpt>
<trkpt lat="42.1999385" lon="1.6209886">
<ele>2151.92</ele>
<time>2017-10-27T11:44:01Z</time>
</trkpt>
<trkpt lat="42.2000226" lon="1.6210412">
<ele>2152.92</ele>
<time>2017-10-27T11:44:07Z</time>
</trkpt>
<trkpt lat="42.2001136" lon="1.6210985">
<ele>2151.92</ele>
<time>2017-10-27T11:44:14Z</time>
</trkpt>
<trkpt lat="42.2001813" lon="1.6211804">
<ele>2146.92</ele>
<time>2017-10-27T11:44:23Z</time>
</trkpt>
<trkpt lat="42.2002718" lon="1.6212005">
<ele>2147.92</ele>
<time>2017-10-27T11:44:30Z</time>
</trkpt>
<trkpt lat="42.2003601" lon="1.6212372">
<ele>2148.92</ele>
<time>2017-10-27T11:44:37Z</time>
</trkpt>
<trkpt lat="42.2004495" lon="1.6211925">
<ele>2150.92</ele>
<time>2017-10-27T11:44:43Z</time>
</trkpt>
<trkpt lat="42.2005188" lon="1.6210916">
<ele>2151.92</ele>
<time>2017-10-27T11:44:51Z</time>
</trkpt>
<trkpt lat="42.2006072" lon="1.6210600">
<ele>2151.92</ele>
<time>2017-10-27T11:44:58Z</time>
</trkpt>
<trkpt lat="42.2006965" lon="1.6210327">
<ele>2151.92</ele>
<time>2017-10-27T11:45:05Z</time>
</trkpt>
<trkpt lat="42.2007702" lon="1.6209525">
<ele>2150.92</ele>
<time>2017-10-27T11:45:12Z</time>
</trkpt>
<trkpt lat="42.2008734" lon="1.6209418">
<ele>2154.92</ele>
<time>2017-10-27T11:45:18Z</time>
</trkpt>
<trkpt lat="42.2009724" lon="1.6209306">
<ele>2155.92</ele>
<time>2017-10-27T11:45:26Z</time>
</trkpt>
<trkpt lat="42.2010632" lon="1.6209009">
<ele>2156.92</ele>
<time>2017-10-27T11:45:34Z</time>
</trkpt>
<trkpt lat="42.2011444" lon="1.6208262">
<ele>2156.92</ele>
<time>2017-10-27T11:45:42Z</time>
</trkpt>
<trkpt lat="42.2012432" lon="1.6208082">
<ele>2160.92</ele>
<time>2017-10-27T11:45:52Z</time>
</trkpt>
<trkpt lat="42.2013439" lon="1.6208136">
<ele>2159.92</ele>
<time>2017-10-27T11:46:00Z</time>
</trkpt>
<trkpt lat="42.2014240" lon="1.6207576">
<ele>2161.92</ele>
<time>2017-10-27T11:46:07Z</time>
</trkpt>
<trkpt lat="42.2015048" lon="1.6206874">
<ele>2162.92</ele>
<time>2017-10-27T11:46:15Z</time>
</trkpt>
<trkpt lat="42.2015469" lon="1.6205644">
<ele>2160.92</ele>
<time>2017-10-27T11:46:49Z</time>
</trkpt>
<trkpt lat="42.2015654" lon="1.6204338">
<ele>2162.92</ele>
<time>2017-10-27T11:47:04Z</time>
</trkpt>
<trkpt lat="42.2015451" lon="1.6202933">
<ele>2167.92</ele>
<time>2017-10-27T11:47:15Z</time>
</trkpt>
<trkpt lat="42.2015390" lon="1.6201704">
<ele>2168.92</ele>
<time>2017-10-27T11:47:26Z</time>
</trkpt>
<trkpt lat="42.2015775" lon="1.6200559">
<ele>2169.92</ele>
<time>2017-10-27T11:47:36Z</time>
</trkpt>
<trkpt lat="42.2015957" lon="1.6199350">
<ele>2171.92</ele>
<time>2017-10-27T11:47:49Z</time>
</trkpt>
<trkpt lat="42.2016355" lon="1.6198261">
<ele>2172.92</ele>
<time>2017-10-27T11:48:03Z</time>
</trkpt>
<trkpt lat="42.2016358" lon="1.6196997">
<ele>2172.92</ele>
<time>2017-10-27T11:48:12Z</time>
</trkpt>
<trkpt lat="42.2016794" lon="1.6195882">
<ele>2172.92</ele>
<time>2017-10-27T11:48:24Z</time>
</trkpt>
<trkpt lat="42.2017162" lon="1.6194627">
<ele>2174.92</ele>
<time>2017-10-27T11:48:34Z</time>
</trkpt>
<trkpt lat="42.2017390" lon="1.6193397">
<ele>2174.92</ele>
<time>2017-10-27T11:48:46Z</time>
</trkpt>
<trkpt lat="42.2017400" lon="1.6192158">
<ele>2176.92</ele>
<time>2017-10-27T11:48:59Z</time>
</trkpt>
<trkpt lat="42.2017581" lon="1.6190951">
<ele>2180.92</ele>
<time>2017-10-27T11:49:10Z</time>
</trkpt>
<trkpt lat="42.2017686" lon="1.6189728">
<ele>2183.92</ele>
<time>2017-10-27T11:49:18Z</time>
</trkpt>
<trkpt lat="42.2018058" lon="1.6188436">
<ele>2186.92</ele>
<time>2017-10-27T11:49:35Z</time>
</trkpt>
<trkpt lat="42.2018304" lon="1.6187027">
<ele>2187.92</ele>
<time>2017-10-27T11:49:46Z</time>
</trkpt>
<trkpt lat="42.2018201" lon="1.6185808">
<ele>2190.92</ele>
<time>2017-10-27T11:49:57Z</time>
</trkpt>
<trkpt lat="42.2018323" lon="1.6184496">
<ele>2192.92</ele>
<time>2017-10-27T11:50:05Z</time>
</trkpt>
<trkpt lat="42.2018638" lon="1.6183222">
<ele>2191.92</ele>
<time>2017-10-27T11:50:39Z</time>
</trkpt>
<trkpt lat="42.2018951" lon="1.6181994">
<ele>2196.92</ele>
<time>2017-10-27T11:50:49Z</time>
</trkpt>
<trkpt lat="42.2019197" lon="1.6180822">
<ele>2195.92</ele>
<time>2017-10-27T11:50:59Z</time>
</trkpt>
<trkpt lat="42.2019598" lon="1.6179668">
<ele>2199.92</ele>
<time>2017-10-27T11:51:09Z</time>
</trkpt>
<trkpt lat="42.2019741" lon="1.6178373">
<ele>2198.92</ele>
<time>2017-10-27T11:51:19Z</time>
</trkpt>
<trkpt lat="42.2019720" lon="1.6177127">
<ele>2201.92</ele>
<time>2017-10-27T11:51:31Z</time>
</trkpt>
<trkpt lat="42.2019513" lon="1.6175867">
<ele>2206.92</ele>
<time>2017-10-27T11:51:41Z</time>
</trkpt>
<trkpt lat="42.2019496" lon="1.6174627">
<ele>2208.92</ele>
<time>2017-10-27T11:51:54Z</time>
</trkpt>
<trkpt lat="42.2019274" lon="1.6173446">
<ele>2212.92</ele>
<time>2017-10-27T11:52:07Z</time>
</trkpt>
<trkpt lat="42.2019147" lon="1.6172234">
<ele>2213.92</ele>
<time>2017-10-27T11:52:22Z</time>
</trkpt>
<trkpt lat="42.2019236" lon="1.6170955">
<ele>2213.92</ele>
<time>2017-10-27T11:52:35Z</time>
</trkpt>
<trkpt lat="42.2018778" lon="1.6169772">
<ele>2215.92</ele>
<time>2017-10-27T11:54:03Z</time>
</trkpt>
<trkpt lat="42.2018455" lon="1.6168598">
<ele>2222.92</ele>
<time>2017-10-27T11:54:19Z</time>
</trkpt>
<trkpt lat="42.2018127" lon="1.6167347">
<ele>2228.92</ele>
<time>2017-10-27T11:54:38Z</time>
</trkpt>
<trkpt lat="42.2017759" lon="1.6166203">
<ele>2232.92</ele>
<time>2017-10-27T11:54:48Z</time>
</trkpt>
<trkpt lat="42.2017464" lon="1.6164971">
<ele>2230.92</ele>
<time>2017-10-27T11:55:00Z</time>
</trkpt>
<trkpt lat="42.2017337" lon="1.6163724">
<ele>2234.92</ele>
<time>2017-10-27T11:55:14Z</time>
</trkpt>
<trkpt lat="42.2016974" lon="1.6162506">
<ele>2235.92</ele>
<time>2017-10-27T11:55:25Z</time>
</trkpt>
<trkpt lat="42.2017110" lon="1.6161259">
<ele>2241.92</ele>
<time>2017-10-27T11:55:41Z</time>
</trkpt>
<trkpt lat="42.2016961" lon="1.6159969">
<ele>2242.92</ele>
<time>2017-10-27T11:56:00Z</time>
</trkpt>
<trkpt lat="42.2016973" lon="1.6158698">
<ele>2243.92</ele>
<time>2017-10-27T11:56:58Z</time>
</trkpt>
<trkpt lat="42.2016846" lon="1.6157442">
<ele>2247.92</ele>
<time>2017-10-27T11:57:16Z</time>
</trkpt>
<trkpt lat="42.2016318" lon="1.6156349">
<ele>2246.92</ele>
<time>2017-10-27T11:57:30Z</time>
</trkpt>
<trkpt lat="42.2016093" lon="1.6155091">
<ele>2247.92</ele>
<time>2017-10-27T11:57:41Z</time>
</trkpt>
<trkpt lat="42.2015802" lon="1.6153857">
<ele>2250.92</ele>
<time>2017-10-27T11:57:57Z</time>
</trkpt>
<trkpt lat="42.2015513" lon="1.6152627">
<ele>2252.92</ele>
<time>2017-10-27T11:58:07Z</time>
</trkpt>
<trkpt lat="42.2015026" lon="1.6151450">
<ele>2255.92</ele>
<time>2017-10-27T11:58:21Z</time>
</trkpt>
<trkpt lat="42.2014614" lon="1.6150350">
<ele>2260.92</ele>
<time>2017-10-27T11:58:35Z</time>
</trkpt>
<trkpt lat="42.2014184" lon="1.6149256">
<ele>2263.92</ele>
<time>2017-10-27T11:58:55Z</time>
</trkpt>
<trkpt lat="42.2013850" lon="1.6148120">
<ele>2263.92</ele>
<time>2017-10-27T11:59:12Z</time>
</trkpt>
<trkpt lat="42.2013277" lon="1.6147148">
<ele>2266.92</ele>
<time>2017-10-27T11:59:49Z</time>
</trkpt>
<trkpt lat="42.2012768" lon="1.6146137">
<ele>2269.92</ele>
<time>2017-10-27T11:59:59Z</time>
</trkpt>
<trkpt lat="42.2012236" lon="1.6145040">
<ele>2273.92</ele>
<time>2017-10-27T12:00:08Z</time>
</trkpt>
<trkpt lat="42.2011505" lon="1.6144176">
<ele>2274.92</ele>
<time>2017-10-27T12:00:22Z</time>
</trkpt>
<trkpt lat="42.2010987" lon="1.6143168">
<ele>2278.92</ele>
<time>2017-10-27T12:00:33Z</time>
</trkpt>
<trkpt lat="42.2010543" lon="1.6142066">
<ele>2280.92</ele>
<time>2017-10-27T12:00:44Z</time>
</trkpt>
<trkpt lat="42.2010250" lon="1.6140880">
<ele>2283.92</ele>
<time>2017-10-27T12:01:05Z</time>
</trkpt>
<trkpt lat="42.2010219" lon="1.6139637">
<ele>2284.92</ele>
<time>2017-10-27T12:01:16Z</time>
</trkpt>
<trkpt lat="42.2010045" lon="1.6138388">
<ele>2283.92</ele>
<time>2017-10-27T12:01:31Z</time>
</trkpt>
<trkpt lat="42.2009769" lon="1.6137070">
<ele>2283.92</ele>
<time>2017-10-27T12:02:28Z</time>
</trkpt>
<trkpt lat="42.2009501" lon="1.6135884">
<ele>2283.92</ele>
<time>2017-10-27T12:02:37Z</time>
</trkpt>
<trkpt lat="42.2009435" lon="1.6134631">
<ele>2281.92</ele>
<time>2017-10-27T12:02:45Z</time>
</trkpt>
<trkpt lat="42.2009078" lon="1.6133512">
<ele>2278.92</ele>
<time>2017-10-27T12:02:53Z</time>
</trkpt>
<trkpt lat="42.2008910" lon="1.6132266">
<ele>2274.92</ele>
<time>2017-10-27T12:03:01Z</time>
</trkpt>
<trkpt lat="42.2008998" lon="1.6131008">
<ele>2272.92</ele>
<time>2017-10-27T12:03:09Z</time>
</trkpt>
<trkpt lat="42.2008914" lon="1.6129762">
<ele>2272.92</ele>
<time>2017-10-27T12:03:21Z</time>
</trkpt>
<trkpt lat="42.2008486" lon="1.6128492">
<ele>2273.92</ele>
<time>2017-10-27T12:03:28Z</time>
</trkpt>
<trkpt lat="42.2008345" lon="1.6127191">
<ele>2267.92</ele>
<time>2017-10-27T12:03:41Z</time>
</trkpt>
<trkpt lat="42.2008762" lon="1.6126077">
<ele>2261.92</ele>
<time>2017-10-27T12:03:51Z</time>
</trkpt>
<trkpt lat="42.2008639" lon="1.6124814">
<ele>2263.92</ele>
<time>2017-10-27T12:03:58Z</time>
</trkpt>
<trkpt lat="42.2009159" lon="1.6123636">
<ele>2255.92</ele>
<time>2017-10-27T12:04:08Z</time>
</trkpt>
<trkpt lat="42.2008851" lon="1.6122191">
<ele>2254.92</ele>
<time>2017-10-27T12:04:32Z</time>
</trkpt>
<trkpt lat="42.2008488" lon="1.6120839">
<ele>2248.92</ele>
<time>2017-10-27T12:04:42Z</time>
</trkpt>
<trkpt lat="42.2008365" lon="1.6119614">
<ele>2247.92</ele>
<time>2017-10-27T12:04:54Z</time>
</trkpt>
<trkpt lat="42.2008745" lon="1.6118490">
<ele>2248.92</ele>
<time>2017-10-27T12:05:10Z</time>
</trkpt>
<trkpt lat="42.2009277" lon="1.6117498">
<ele>2249.92</ele>
<time>2017-10-27T12:06:06Z</time>
</trkpt>
<trkpt lat="42.2009867" lon="1.6116546">
<ele>2247.92</ele>
<time>2017-10-27T12:06:14Z</time>
</trkpt>
<trkpt lat="42.2010487" lon="1.6115665">
<ele>2244.92</ele>
<time>2017-10-27T12:06:22Z</time>
</trkpt>
<trkpt lat="42.2010865" lon="1.6114523">
<ele>2242.92</ele>
<time>2017-10-27T12:06:31Z</time>
</trkpt>
<trkpt lat="42.2010978" lon="1.6113112">
<ele>2239.92</ele>
<time>2017-10-27T12:06:45Z</time>
</trkpt>
<trkpt lat="42.2010452" lon="1.6112096">
<ele>2239.92</ele>
<time>2017-10-27T12:06:52Z</time>
</trkpt>
<trkpt lat="42.2010256" lon="1.6110854">
<ele>2237.92</ele>
<time>2017-10-27T12:07:08Z</time>
</trkpt>
<trkpt lat="42.2009759" lon="1.6109803">
<ele>2241.92</ele>
<time>2017-10-27T12:08:24Z</time>
</trkpt>
<trkpt lat="42.2010692" lon="1.6109705">
<ele>2238.92</ele>
<time>2017-10-27T12:31:02Z</time>
</trkpt>
<trkpt lat="42.2011318" lon="1.6108717">
<ele>2228.92</ele>
<time>2017-10-27T12:32:22Z</time>
</trkpt>
<trkpt lat="42.2011369" lon="1.6107487">
<ele>2226.92</ele>
<time>2017-10-27T12:32:34Z</time>
</trkpt>
<trkpt lat="42.2011398" lon="1.6106178">
<ele>2218.92</ele>
<time>2017-10-27T12:34:04Z</time>
</trkpt>
<trkpt lat="42.2011780" lon="1.6105054">
<ele>2211.92</ele>
<time>2017-10-27T12:34:40Z</time>
</trkpt>
<trkpt lat="42.2012549" lon="1.6104217">
<ele>2204.92</ele>
<time>2017-10-27T12:35:15Z</time>
</trkpt>
<trkpt lat="42.2012949" lon="1.6103117">
<ele>2200.92</ele>
<time>2017-10-27T12:35:48Z</time>
</trkpt>
<trkpt lat="42.2012520" lon="1.6102033">
<ele>2198.92</ele>
<time>2017-10-27T12:36:02Z</time>
</trkpt>
<trkpt lat="42.2011753" lon="1.6101336">
<ele>2188.92</ele>
<time>2017-10-27T12:36:41Z</time>
</trkpt>
<trkpt lat="42.2011148" lon="1.6100359">
<ele>2183.92</ele>
<time>2017-10-27T12:37:12Z</time>
</trkpt>
<trkpt lat="42.2011330" lon="1.6099142">
<ele>2170.92</ele>
<time>2017-10-27T12:37:58Z</time>
</trkpt>
<trkpt lat="42.2012215" lon="1.6098495">
<ele>2162.92</ele>
<time>2017-10-27T12:38:15Z</time>
</trkpt>
<trkpt lat="42.2012321" lon="1.6097275">
<ele>2159.92</ele>
<time>2017-10-27T12:38:44Z</time>
</trkpt>
<trkpt lat="42.2012434" lon="1.6095973">
<ele>2154.92</ele>
<time>2017-10-27T12:39:06Z</time>
</trkpt>
<trkpt lat="42.2012939" lon="1.6094931">
<ele>2151.92</ele>
<time>2017-10-27T12:39:26Z</time>
</trkpt>
<trkpt lat="42.2012501" lon="1.6093809">
<ele>2142.92</ele>
<time>2017-10-27T12:39:49Z</time>
</trkpt>
<trkpt lat="42.2011796" lon="1.6093052">
<ele>2137.92</ele>
<time>2017-10-27T12:40:08Z</time>
</trkpt>
<trkpt lat="42.2011094" lon="1.6092224">
<ele>2129.92</ele>
<time>2017-10-27T12:41:08Z</time>
</trkpt>
<trkpt lat="42.2010699" lon="1.6091125">
<ele>2118.92</ele>
<time>2017-10-27T12:42:23Z</time>
</trkpt>
<trkpt lat="42.2010931" lon="1.6089877">
<ele>2105.92</ele>
<time>2017-10-27T12:43:13Z</time>
</trkpt>
<trkpt lat="42.2010940" lon="1.6088653">
<ele>2100.92</ele>
<time>2017-10-27T12:43:31Z</time>
</trkpt>
<trkpt lat="42.2010452" lon="1.6087626">
<ele>2096.92</ele>
<time>2017-10-27T12:44:17Z</time>
</trkpt>
<trkpt lat="42.2010487" lon="1.6086290">
<ele>2096.92</ele>
<time>2017-10-27T12:44:36Z</time>
</trkpt>
<trkpt lat="42.2009614" lon="1.6085722">
<ele>2089.92</ele>
<time>2017-10-27T12:45:07Z</time>
</trkpt>
<trkpt lat="42.2008924" lon="1.6084911">
<ele>2076.92</ele>
<time>2017-10-27T12:45:47Z</time>
</trkpt>
<trkpt lat="42.2008864" lon="1.6083632">
<ele>2066.92</ele>
<time>2017-10-27T12:46:41Z</time>
</trkpt>
<trkpt lat="42.2009031" lon="1.6082423">
<ele>2058.92</ele>
<time>2017-10-27T12:47:33Z</time>
</trkpt>
<trkpt lat="42.2008534" lon="1.6081353">
<ele>2054.92</ele>
<time>2017-10-27T12:47:55Z</time>
</trkpt>
<trkpt lat="42.2009014" lon="1.6080313">
<ele>2050.92</ele>
<time>2017-10-27T12:48:18Z</time>
</trkpt>
<trkpt lat="42.2008098" lon="1.6080094">
<ele>2047.92</ele>
<time>2017-10-27T12:48:39Z</time>
</trkpt>
<trkpt lat="42.2007644" lon="1.6079006">
<ele>2037.92</ele>
<time>2017-10-27T12:49:06Z</time>
</trkpt>
<trkpt lat="42.2007213" lon="1.6077840">
<ele>2033.92</ele>
<time>2017-10-27T12:49:40Z</time>
</trkpt>
<trkpt lat="42.2007042" lon="1.6076591">
<ele>2024.92</ele>
<time>2017-10-27T12:49:56Z</time>
</trkpt>
<trkpt lat="42.2006260" lon="1.6075928">
<ele>2022.92</ele>
<time>2017-10-27T12:50:08Z</time>
</trkpt>
<trkpt lat="42.2006464" lon="1.6074728">
<ele>2016.92</ele>
<time>2017-10-27T12:50:31Z</time>
</trkpt>
<trkpt lat="42.2006330" lon="1.6073397">
<ele>2008.92</ele>
<time>2017-10-27T12:50:51Z</time>
</trkpt>
<trkpt lat="42.2005660" lon="1.6072552">
<ele>2004.92</ele>
<time>2017-10-27T12:51:07Z</time>
</trkpt>
<trkpt lat="42.2005494" lon="1.6071255">
<ele>1994.92</ele>
<time>2017-10-27T12:51:37Z</time>
</trkpt>
<trkpt lat="42.2004777" lon="1.6070442">
<ele>1993.92</ele>
<time>2017-10-27T12:51:59Z</time>
</trkpt>
<trkpt lat="42.2004100" lon="1.6069540">
<ele>1984.92</ele>
<time>2017-10-27T12:52:23Z</time>
</trkpt>
<trkpt lat="42.2003870" lon="1.6068320">
<ele>1978.92</ele>
<time>2017-10-27T12:52:37Z</time>
</trkpt>
<trkpt lat="42.2003406" lon="1.6067189">
<ele>1977.92</ele>
<time>2017-10-27T12:52:48Z</time>
</trkpt>
<trkpt lat="42.2002416" lon="1.6066997">
<ele>1975.92</ele>
<time>2017-10-27T12:52:59Z</time>
</trkpt>
<trkpt lat="42.2001955" lon="1.6065840">
<ele>1964.92</ele>
<time>2017-10-27T12:53:22Z</time>
</trkpt>
<trkpt lat="42.2001586" lon="1.6064642">
<ele>1961.92</ele>
<time>2017-10-27T12:53:34Z</time>
</trkpt>
<trkpt lat="42.2000836" lon="1.6063733">
<ele>1951.92</ele>
<time>2017-10-27T12:53:49Z</time>
</trkpt>
<trkpt lat="42.2000266" lon="1.6062787">
<ele>1944.92</ele>
<time>2017-10-27T12:54:04Z</time>
</trkpt>
<trkpt lat="42.1999940" lon="1.6061627">
<ele>1942.92</ele>
<time>2017-10-27T12:54:15Z</time>
</trkpt>
<trkpt lat="42.1999115" lon="1.6060960">
<ele>1936.92</ele>
<time>2017-10-27T12:54:31Z</time>
</trkpt>
<trkpt lat="42.1999800" lon="1.6060141">
<ele>1930.92</ele>
<time>2017-10-27T12:54:55Z</time>
</trkpt>
<trkpt lat="42.2000312" lon="1.6059033">
<ele>1931.92</ele>
<time>2017-10-27T12:55:14Z</time>
</trkpt>
<trkpt lat="42.2000754" lon="1.6057871">
<ele>1928.92</ele>
<time>2017-10-27T12:55:26Z</time>
</trkpt>
<trkpt lat="42.2001547" lon="1.6057122">
<ele>1923.92</ele>
<time>2017-10-27T12:55:37Z</time>
</trkpt>
<trkpt lat="42.2002412" lon="1.6056404">
<ele>1922.92</ele>
<time>2017-10-27T12:55:45Z</time>
</trkpt>
<trkpt lat="42.2002948" lon="1.6055266">
<ele>1923.92</ele>
<time>2017-10-27T12:55:52Z</time>
</trkpt>
<trkpt lat="42.2003262" lon="1.6054113">
<ele>1923.92</ele>
<time>2017-10-27T12:55:58Z</time>
</trkpt>
<trkpt lat="42.2003914" lon="1.6053090">
<ele>1921.92</ele>
<time>2017-10-27T12:56:07Z</time>
</trkpt>
<trkpt lat="42.2004500" lon="1.6052108">
<ele>1920.92</ele>
<time>2017-10-27T12:56:14Z</time>
</trkpt>
<trkpt lat="42.2005131" lon="1.6051239">
<ele>1925.92</ele>
<time>2017-10-27T12:56:21Z</time>
</trkpt>
<trkpt lat="42.2005766" lon="1.6050374">
<ele>1925.92</ele>
<time>2017-10-27T12:56:29Z</time>
</trkpt>
<trkpt lat="42.2005999" lon="1.6049083">
<ele>1922.92</ele>
<time>2017-10-27T12:56:37Z</time>
</trkpt>
<trkpt lat="42.2006704" lon="1.6048050">
<ele>1920.92</ele>
<time>2017-10-27T12:56:46Z</time>
</trkpt>
<trkpt lat="42.2006746" lon="1.6046742">
<ele>1923.92</ele>
<time>2017-10-27T12:56:52Z</time>
</trkpt>
<trkpt lat="42.2007357" lon="1.6045712">
<ele>1919.92</ele>
<time>2017-10-27T12:56:59Z</time>
</trkpt>
<trkpt lat="42.2007562" lon="1.6044412">
<ele>1915.92</ele>
<time>2017-10-27T12:57:07Z</time>
</trkpt>
<trkpt lat="42.2007977" lon="1.6043160">
<ele>1915.92</ele>
<time>2017-10-27T12:58:33Z</time>
</trkpt>
<trkpt lat="42.2007896" lon="1.6041940">
<ele>1913.92</ele>
<time>2017-10-27T12:59:07Z</time>
</trkpt>
<trkpt lat="42.2007837" lon="1.6040560">
<ele>1912.92</ele>
<time>2017-10-27T12:59:14Z</time>
</trkpt>
<trkpt lat="42.2007453" lon="1.6039325">
<ele>1913.92</ele>
<time>2017-10-27T12:59:21Z</time>
</trkpt>
<trkpt lat="42.2006892" lon="1.6038158">
<ele>1910.92</ele>
<time>2017-10-27T12:59:30Z</time>
</trkpt>
<trkpt lat="42.2006155" lon="1.6037255">
<ele>1910.92</ele>
<time>2017-10-27T12:59:37Z</time>
</trkpt>
<trkpt lat="42.2005496" lon="1.6036393">
<ele>1908.92</ele>
<time>2017-10-27T12:59:46Z</time>
</trkpt>
<trkpt lat="42.2004705" lon="1.6035588">
<ele>1906.92</ele>
<time>2017-10-27T12:59:54Z</time>
</trkpt>
<trkpt lat="42.2003899" lon="1.6034718">
<ele>1904.92</ele>
<time>2017-10-27T13:00:03Z</time>
</trkpt>
<trkpt lat="42.2003212" lon="1.6033681">
<ele>1904.92</ele>
<time>2017-10-27T13:00:12Z</time>
</trkpt>
<trkpt lat="42.2002458" lon="1.6032826">
<ele>1908.92</ele>
<time>2017-10-27T13:00:24Z</time>
</trkpt>
<trkpt lat="42.2001784" lon="1.6031807">
<ele>1902.92</ele>
<time>2017-10-27T13:00:32Z</time>
</trkpt>
<trkpt lat="42.2000837" lon="1.6031517">
<ele>1901.92</ele>
<time>2017-10-27T13:00:40Z</time>
</trkpt>
<trkpt lat="42.1999952" lon="1.6030826">
<ele>1905.92</ele>
<time>2017-10-27T13:02:03Z</time>
</trkpt>
<trkpt lat="42.1999110" lon="1.6030235">
<ele>1905.92</ele>
<time>2017-10-27T13:02:11Z</time>
</trkpt>
<trkpt lat="42.1998512" lon="1.6029124">
<ele>1909.92</ele>
<time>2017-10-27T13:02:18Z</time>
</trkpt>
<trkpt lat="42.1997935" lon="1.6028149">
<ele>1910.92</ele>
<time>2017-10-27T13:02:25Z</time>
</trkpt>
<trkpt lat="42.1997442" lon="1.6027000">
<ele>1910.92</ele>
<time>2017-10-27T13:02:41Z</time>
</trkpt>
<trkpt lat="42.1997002" lon="1.6025890">
<ele>1908.92</ele>
<time>2017-10-27T13:02:49Z</time>
</trkpt>
<trkpt lat="42.1997207" lon="1.6024638">
<ele>1905.92</ele>
<time>2017-10-27T13:02:58Z</time>
</trkpt>
<trkpt lat="42.1996943" lon="1.6023459">
<ele>1902.92</ele>
<time>2017-10-27T13:03:06Z</time>
</trkpt>
<trkpt lat="42.1997100" lon="1.6022206">
<ele>1904.92</ele>
<time>2017-10-27T13:03:14Z</time>
</trkpt>
<trkpt lat="42.1996848" lon="1.6021026">
<ele>1907.92</ele>
<time>2017-10-27T13:03:20Z</time>
</trkpt>
<trkpt lat="42.1996571" lon="1.6019660">
<ele>1904.92</ele>
<time>2017-10-27T13:03:29Z</time>
</trkpt>
<trkpt lat="42.1996647" lon="1.6018428">
<ele>1902.92</ele>
<time>2017-10-27T13:03:36Z</time>
</trkpt>
<trkpt lat="42.1996887" lon="1.6017227">
<ele>1897.92</ele>
<time>2017-10-27T13:03:47Z</time>
</trkpt>
<trkpt lat="42.1997428" lon="1.6016192">
<ele>1898.92</ele>
<time>2017-10-27T13:03:54Z</time>
</trkpt>
<trkpt lat="42.1997536" lon="1.6014874">
<ele>1901.92</ele>
<time>2017-10-27T13:03:59Z</time>
</trkpt>
<trkpt lat="42.1997737" lon="1.6013461">
<ele>1903.92</ele>
<time>2017-10-27T13:04:06Z</time>
</trkpt>
<trkpt lat="42.1998079" lon="1.6012192">
<ele>1901.92</ele>
<time>2017-10-27T13:04:13Z</time>
</trkpt>
<trkpt lat="42.1998646" lon="1.6011049">
<ele>1895.92</ele>
<time>2017-10-27T13:04:27Z</time>
</trkpt>
<trkpt lat="42.1999265" lon="1.6010144">
<ele>1896.92</ele>
<time>2017-10-27T13:04:34Z</time>
</trkpt>
<trkpt lat="42.1999666" lon="1.6008933">
<ele>1897.92</ele>
<time>2017-10-27T13:04:43Z</time>
</trkpt>
<trkpt lat="42.1999953" lon="1.6007699">
<ele>1896.92</ele>
<time>2017-10-27T13:04:53Z</time>
</trkpt>
<trkpt lat="42.2000141" lon="1.6006395">
<ele>1900.92</ele>
<time>2017-10-27T13:05:01Z</time>
</trkpt>
<trkpt lat="42.2000113" lon="1.6005084">
<ele>1895.92</ele>
<time>2017-10-27T13:05:12Z</time>
</trkpt>
<trkpt lat="42.2000161" lon="1.6003795">
<ele>1890.92</ele>
<time>2017-10-27T13:05:22Z</time>
</trkpt>
<trkpt lat="42.2000276" lon="1.6002492">
<ele>1889.92</ele>
<time>2017-10-27T13:05:29Z</time>
</trkpt>
<trkpt lat="42.2000401" lon="1.6001150">
<ele>1886.92</ele>
<time>2017-10-27T13:05:38Z</time>
</trkpt>
<trkpt lat="42.2000856" lon="1.6000016">
<ele>1884.92</ele>
<time>2017-10-27T13:05:46Z</time>
</trkpt>
<trkpt lat="42.2000844" lon="1.5998753">
<ele>1885.92</ele>
<time>2017-10-27T13:05:53Z</time>
</trkpt>
<trkpt lat="42.2001002" lon="1.5997498">
<ele>1881.92</ele>
<time>2017-10-27T13:06:02Z</time>
</trkpt>
<trkpt lat="42.2001242" lon="1.5996302">
<ele>1881.92</ele>
<time>2017-10-27T13:06:08Z</time>
</trkpt>
<trkpt lat="42.2001572" lon="1.5995109">
<ele>1875.92</ele>
<time>2017-10-27T13:06:52Z</time>
</trkpt>
<trkpt lat="42.2001692" lon="1.5993878">
<ele>1874.92</ele>
<time>2017-10-27T13:07:03Z</time>
</trkpt>
<trkpt lat="42.2001791" lon="1.5992651">
<ele>1873.92</ele>
<time>2017-10-27T13:07:13Z</time>
</trkpt>
<trkpt lat="42.2002153" lon="1.5991536">
<ele>1874.92</ele>
<time>2017-10-27T13:07:20Z</time>
</trkpt>
<trkpt lat="42.2002090" lon="1.5990242">
<ele>1870.92</ele>
<time>2017-10-27T13:07:28Z</time>
</trkpt>
<trkpt lat="42.2001975" lon="1.5988912">
<ele>1866.92</ele>
<time>2017-10-27T13:07:34Z</time>
</trkpt>
<trkpt lat="42.2001670" lon="1.5987611">
<ele>1863.92</ele>
<time>2017-10-27T13:07:44Z</time>
</trkpt>
<trkpt lat="42.2001476" lon="1.5986311">
<ele>1862.92</ele>
<time>2017-10-27T13:07:51Z</time>
</trkpt>
<trkpt lat="42.2001216" lon="1.5985010">
<ele>1863.92</ele>
<time>2017-10-27T13:07:59Z</time>
</trkpt>
<trkpt lat="42.2000788" lon="1.5983877">
<ele>1861.92</ele>
<time>2017-10-27T13:08:28Z</time>
</trkpt>
<trkpt lat="42.2000145" lon="1.5982707">
<ele>1859.92</ele>
<time>2017-10-27T13:09:21Z</time>
</trkpt>
<trkpt lat="42.1999592" lon="1.5981643">
<ele>1859.92</ele>
<time>2017-10-27T13:09:29Z</time>
</trkpt>
<trkpt lat="42.1999293" lon="1.5980293">
<ele>1855.92</ele>
<time>2017-10-27T13:09:50Z</time>
</trkpt>
<trkpt lat="42.1999044" lon="1.5979024">
<ele>1856.92</ele>
<time>2017-10-27T13:09:56Z</time>
</trkpt>
<trkpt lat="42.1998594" lon="1.5977879">
<ele>1857.92</ele>
<time>2017-10-27T13:10:05Z</time>
</trkpt>
<trkpt lat="42.1998166" lon="1.5976675">
<ele>1858.92</ele>
<time>2017-10-27T13:10:11Z</time>
</trkpt>
<trkpt lat="42.1997593" lon="1.5975632">
<ele>1857.92</ele>
<time>2017-10-27T13:10:18Z</time>
</trkpt>
<trkpt lat="42.1996968" lon="1.5974479">
<ele>1856.92</ele>
<time>2017-10-27T13:10:27Z</time>
</trkpt>
<trkpt lat="42.1996475" lon="1.5973446">
<ele>1854.92</ele>
<time>2017-10-27T13:10:35Z</time>
</trkpt>
<trkpt lat="42.1996461" lon="1.5972205">
<ele>1852.92</ele>
<time>2017-10-27T13:10:46Z</time>
</trkpt>
<trkpt lat="42.1996616" lon="1.5970842">
<ele>1851.92</ele>
<time>2017-10-27T13:10:53Z</time>
</trkpt>
<trkpt lat="42.1996759" lon="1.5969595">
<ele>1855.92</ele>
<time>2017-10-27T13:11:01Z</time>
</trkpt>
<trkpt lat="42.1995943" lon="1.5968805">
<ele>1852.92</ele>
<time>2017-10-27T13:11:08Z</time>
</trkpt>
<trkpt lat="42.1995166" lon="1.5968180">
<ele>1853.92</ele>
<time>2017-10-27T13:11:15Z</time>
</trkpt>
<trkpt lat="42.1994884" lon="1.5967014">
<ele>1853.92</ele>
<time>2017-10-27T13:11:22Z</time>
</trkpt>
<trkpt lat="42.1995107" lon="1.5965710">
<ele>1853.92</ele>
<time>2017-10-27T13:11:30Z</time>
</trkpt>
<trkpt lat="42.1995000" lon="1.5964492">
<ele>1852.92</ele>
<time>2017-10-27T13:11:40Z</time>
</trkpt>
<trkpt lat="42.1995026" lon="1.5963103">
<ele>1849.92</ele>
<time>2017-10-27T13:11:48Z</time>
</trkpt>
<trkpt lat="42.1994799" lon="1.5961789">
<ele>1842.92</ele>
<time>2017-10-27T13:11:55Z</time>
</trkpt>
<trkpt lat="42.1994407" lon="1.5960654">
<ele>1840.92</ele>
<time>2017-10-27T13:12:05Z</time>
</trkpt>
<trkpt lat="42.1994155" lon="1.5959460">
<ele>1837.92</ele>
<time>2017-10-27T13:12:11Z</time>
</trkpt>
<trkpt lat="42.1993366" lon="1.5958531">
<ele>1839.92</ele>
<time>2017-10-27T13:12:19Z</time>
</trkpt>
<trkpt lat="42.1992714" lon="1.5957648">
<ele>1835.92</ele>
<time>2017-10-27T13:12:25Z</time>
</trkpt>
<trkpt lat="42.1991717" lon="1.5957557">
<ele>1836.92</ele>
<time>2017-10-27T13:12:33Z</time>
</trkpt>
<trkpt lat="42.1990967" lon="1.5958303">
<ele>1836.92</ele>
<time>2017-10-27T13:12:40Z</time>
</trkpt>
<trkpt lat="42.1990011" lon="1.5958584">
<ele>1838.92</ele>
<time>2017-10-27T13:12:48Z</time>
</trkpt>
<trkpt lat="42.1989193" lon="1.5959260">
<ele>1839.92</ele>
<time>2017-10-27T13:13:24Z</time>
</trkpt>
<trkpt lat="42.1988258" lon="1.5959907">
<ele>1844.92</ele>
<time>2017-10-27T13:13:31Z</time>
</trkpt>
<trkpt lat="42.1987254" lon="1.5959884">
<ele>1834.92</ele>
<time>2017-10-27T13:13:42Z</time>
</trkpt>
<trkpt lat="42.1986442" lon="1.5959362">
<ele>1833.92</ele>
<time>2017-10-27T13:13:49Z</time>
</trkpt>
<trkpt lat="42.1985506" lon="1.5959906">
<ele>1831.92</ele>
<time>2017-10-27T13:13:56Z</time>
</trkpt>
<trkpt lat="42.1984648" lon="1.5959476">
<ele>1832.92</ele>
<time>2017-10-27T13:14:02Z</time>
</trkpt>
<trkpt lat="42.1983789" lon="1.5959864">
<ele>1833.92</ele>
<time>2017-10-27T13:14:10Z</time>
</trkpt>
<trkpt lat="42.1982781" lon="1.5959557">
<ele>1833.92</ele>
<time>2017-10-27T13:14:17Z</time>
</trkpt>
<trkpt lat="42.1981978" lon="1.5958917">
<ele>1830.92</ele>
<time>2017-10-27T13:14:25Z</time>
</trkpt>
<trkpt lat="42.1981131" lon="1.5958448">
<ele>1834.92</ele>
<time>2017-10-27T13:14:32Z</time>
</trkpt>
<trkpt lat="42.1980188" lon="1.5958055">
<ele>1833.92</ele>
<time>2017-10-27T13:14:41Z</time>
</trkpt>
<trkpt lat="42.1979218" lon="1.5957718">
<ele>1836.92</ele>
<time>2017-10-27T13:14:47Z</time>
</trkpt>
<trkpt lat="42.1978294" lon="1.5957573">
<ele>1837.92</ele>
<time>2017-10-27T13:14:54Z</time>
</trkpt>
<trkpt lat="42.1977332" lon="1.5957464">
<ele>1840.92</ele>
<time>2017-10-27T13:15:02Z</time>
</trkpt>
<trkpt lat="42.1976361" lon="1.5956930">
<ele>1843.92</ele>
<time>2017-10-27T13:15:11Z</time>
</trkpt>
<trkpt lat="42.1975471" lon="1.5956283">
<ele>1841.92</ele>
<time>2017-10-27T13:15:19Z</time>
</trkpt>
<trkpt lat="42.1974512" lon="1.5955816">
<ele>1842.92</ele>
<time>2017-10-27T13:15:26Z</time>
</trkpt>
<trkpt lat="42.1973668" lon="1.5955320">
<ele>1844.92</ele>
<time>2017-10-27T13:15:34Z</time>
</trkpt>
<trkpt lat="42.1972741" lon="1.5955272">
<ele>1843.92</ele>
<time>2017-10-27T13:15:41Z</time>
</trkpt>
<trkpt lat="42.1971794" lon="1.5954938">
<ele>1848.92</ele>
<time>2017-10-27T13:15:50Z</time>
</trkpt>
<trkpt lat="42.1970836" lon="1.5955012">
<ele>1846.92</ele>
<time>2017-10-27T13:15:59Z</time>
</trkpt>
<trkpt lat="42.1969867" lon="1.5954764">
<ele>1851.92</ele>
<time>2017-10-27T13:16:06Z</time>
</trkpt>
<trkpt lat="42.1968992" lon="1.5954261">
<ele>1851.92</ele>
<time>2017-10-27T13:16:13Z</time>
</trkpt>
<trkpt lat="42.1967999" lon="1.5953864">
<ele>1852.92</ele>
<time>2017-10-27T13:16:21Z</time>
</trkpt>
<trkpt lat="42.1967168" lon="1.5953350">
<ele>1846.92</ele>
<time>2017-10-27T13:16:31Z</time>
</trkpt>
<trkpt lat="42.1966212" lon="1.5952942">
<ele>1843.92</ele>
<time>2017-10-27T13:16:38Z</time>
</trkpt>
<trkpt lat="42.1965309" lon="1.5952841">
<ele>1842.92</ele>
<time>2017-10-27T13:16:42Z</time>
</trkpt>
<trkpt lat="42.1964386" lon="1.5953015">
<ele>1833.92</ele>
<time>2017-10-27T13:16:57Z</time>
</trkpt>
<trkpt lat="42.1963350" lon="1.5952948">
<ele>1832.92</ele>
<time>2017-10-27T13:17:03Z</time>
</trkpt>
<trkpt lat="42.1962322" lon="1.5952660">
<ele>1829.92</ele>
<time>2017-10-27T13:17:07Z</time>
</trkpt>
<trkpt lat="42.1961524" lon="1.5953768">
<ele>1824.92</ele>
<time>2017-10-27T13:17:18Z</time>
</trkpt>
<trkpt lat="42.1960638" lon="1.5953512">
<ele>1827.92</ele>
<time>2017-10-27T13:17:22Z</time>
</trkpt>
<trkpt lat="42.1959828" lon="1.5954123">
<ele>1828.92</ele>
<time>2017-10-27T13:17:31Z</time>
</trkpt>
<trkpt lat="42.1958864" lon="1.5953821">
<ele>1833.92</ele>
<time>2017-10-27T13:17:36Z</time>
</trkpt>
<trkpt lat="42.1957913" lon="1.5953662">
<ele>1830.92</ele>
<time>2017-10-27T13:17:39Z</time>
</trkpt>
<trkpt lat="42.1957115" lon="1.5954296">
<ele>1826.92</ele>
<time>2017-10-27T13:17:48Z</time>
</trkpt>
<trkpt lat="42.1956214" lon="1.5954261">
<ele>1819.92</ele>
<time>2017-10-27T13:18:02Z</time>
</trkpt>
<trkpt lat="42.1955270" lon="1.5953679">
<ele>1824.92</ele>
<time>2017-10-27T13:18:11Z</time>
</trkpt>
<trkpt lat="42.1955004" lon="1.5952416">
<ele>1823.92</ele>
<time>2017-10-27T13:18:18Z</time>
</trkpt>
<trkpt lat="42.1955205" lon="1.5951191">
<ele>1823.92</ele>
<time>2017-10-27T13:18:27Z</time>
</trkpt>
<trkpt lat="42.1955934" lon="1.5950200">
<ele>1821.92</ele>
<time>2017-10-27T13:18:37Z</time>
</trkpt>
<trkpt lat="42.1956500" lon="1.5949009">
<ele>1823.92</ele>
<time>2017-10-27T13:18:45Z</time>
</trkpt>
<trkpt lat="42.1957301" lon="1.5948068">
<ele>1822.92</ele>
<time>2017-10-27T13:18:53Z</time>
</trkpt>
<trkpt lat="42.1958210" lon="1.5947735">
<ele>1822.92</ele>
<time>2017-10-27T13:18:58Z</time>
</trkpt>
<trkpt lat="42.1959076" lon="1.5946982">
<ele>1825.92</ele>
<time>2017-10-27T13:19:07Z</time>
</trkpt>
<trkpt lat="42.1959983" lon="1.5946611">
<ele>1826.92</ele>
<time>2017-10-27T13:19:16Z</time>
</trkpt>
<trkpt lat="42.1960891" lon="1.5946568">
<ele>1824.92</ele>
<time>2017-10-27T13:19:24Z</time>
</trkpt>
<trkpt lat="42.1961763" lon="1.5946118">
<ele>1823.92</ele>
<time>2017-10-27T13:19:32Z</time>
</trkpt>
<trkpt lat="42.1962674" lon="1.5946140">
<ele>1821.92</ele>
<time>2017-10-27T13:19:39Z</time>
</trkpt>
<trkpt lat="42.1963672" lon="1.5946147">
<ele>1819.92</ele>
<time>2017-10-27T13:19:47Z</time>
</trkpt>
<trkpt lat="42.1964677" lon="1.5946324">
<ele>1815.92</ele>
<time>2017-10-27T13:19:55Z</time>
</trkpt>
<trkpt lat="42.1965627" lon="1.5946382">
<ele>1813.92</ele>
<time>2017-10-27T13:20:02Z</time>
</trkpt>
<trkpt lat="42.1966551" lon="1.5946139">
<ele>1813.92</ele>
<time>2017-10-27T13:20:08Z</time>
</trkpt>
<trkpt lat="42.1967520" lon="1.5945687">
<ele>1814.92</ele>
<time>2017-10-27T13:20:15Z</time>
</trkpt>
<trkpt lat="42.1968259" lon="1.5944941">
<ele>1814.92</ele>
<time>2017-10-27T13:20:22Z</time>
</trkpt>
<trkpt lat="42.1969084" lon="1.5944455">
<ele>1816.92</ele>
<time>2017-10-27T13:20:30Z</time>
</trkpt>
<trkpt lat="42.1969991" lon="1.5944071">
<ele>1814.92</ele>
<time>2017-10-27T13:20:37Z</time>
</trkpt>
<trkpt lat="42.1970842" lon="1.5943631">
<ele>1818.92</ele>
<time>2017-10-27T13:20:44Z</time>
</trkpt>
<trkpt lat="42.1971668" lon="1.5943106">
<ele>1817.92</ele>
<time>2017-10-27T13:20:51Z</time>
</trkpt>
<trkpt lat="42.1972314" lon="1.5942166">
<ele>1818.92</ele>
<time>2017-10-27T13:20:59Z</time>
</trkpt>
<trkpt lat="42.1973090" lon="1.5941233">
<ele>1813.92</ele>
<time>2017-10-27T13:21:07Z</time>
</trkpt>
<trkpt lat="42.1973878" lon="1.5940647">
<ele>1812.92</ele>
<time>2017-10-27T13:21:14Z</time>
</trkpt>
<trkpt lat="42.1974743" lon="1.5940302">
<ele>1813.92</ele>
<time>2017-10-27T13:21:17Z</time>
</trkpt>
<trkpt lat="42.1975565" lon="1.5939713">
<ele>1815.92</ele>
<time>2017-10-27T13:21:25Z</time>
</trkpt>
<trkpt lat="42.1976679" lon="1.5939668">
<ele>1814.92</ele>
<time>2017-10-27T13:21:33Z</time>
</trkpt>
<trkpt lat="42.1977585" lon="1.5940122">
<ele>1815.92</ele>
<time>2017-10-27T13:21:39Z</time>
</trkpt>
<trkpt lat="42.1978663" lon="1.5940249">
<ele>1815.92</ele>
<time>2017-10-27T13:21:49Z</time>
</trkpt>
<trkpt lat="42.1979599" lon="1.5939910">
<ele>1816.92</ele>
<time>2017-10-27T13:21:59Z</time>
</trkpt>
<trkpt lat="42.1980543" lon="1.5939837">
<ele>1813.92</ele>
<time>2017-10-27T13:22:03Z</time>
</trkpt>
<trkpt lat="42.1981562" lon="1.5940043">
<ele>1813.92</ele>
<time>2017-10-27T13:22:11Z</time>
</trkpt>
<trkpt lat="42.1982292" lon="1.5939279">
<ele>1811.92</ele>
<time>2017-10-27T13:22:20Z</time>
</trkpt>
<trkpt lat="42.1983314" lon="1.5939143">
<ele>1815.92</ele>
<time>2017-10-27T13:22:26Z</time>
</trkpt>
<trkpt lat="42.1984209" lon="1.5938559">
<ele>1813.92</ele>
<time>2017-10-27T13:22:33Z</time>
</trkpt>
<trkpt lat="42.1985206" lon="1.5938078">
<ele>1809.92</ele>
<time>2017-10-27T13:22:41Z</time>
</trkpt>
<trkpt lat="42.1986082" lon="1.5937182">
<ele>1801.92</ele>
<time>2017-10-27T13:22:51Z</time>
</trkpt>
<trkpt lat="42.1986985" lon="1.5936515">
<ele>1797.92</ele>
<time>2017-10-27T13:23:01Z</time>
</trkpt>
<trkpt lat="42.1988019" lon="1.5936163">
<ele>1798.92</ele>
<time>2017-10-27T13:23:05Z</time>
</trkpt>
<trkpt lat="42.1988626" lon="1.5935197">
<ele>1792.92</ele>
<time>2017-10-27T13:23:14Z</time>
</trkpt>
<trkpt lat="42.1989300" lon="1.5934298">
<ele>1795.92</ele>
<time>2017-10-27T13:23:18Z</time>
</trkpt>
<trkpt lat="42.1989488" lon="1.5933069">
<ele>1787.92</ele>
<time>2017-10-27T13:23:28Z</time>
</trkpt>
<trkpt lat="42.1989978" lon="1.5931775">
<ele>1787.92</ele>
<time>2017-10-27T13:23:33Z</time>
</trkpt>
<trkpt lat="42.1990624" lon="1.5930835">
<ele>1782.92</ele>
<time>2017-10-27T13:23:42Z</time>
</trkpt>
<trkpt lat="42.1991276" lon="1.5929959">
<ele>1783.92</ele>
<time>2017-10-27T13:23:46Z</time>
</trkpt>
<trkpt lat="42.1992130" lon="1.5929348">
<ele>1783.92</ele>
<time>2017-10-27T13:23:56Z</time>
</trkpt>
<trkpt lat="42.1993179" lon="1.5929341">
<ele>1783.92</ele>
<time>2017-10-27T13:24:08Z</time>
</trkpt>
<trkpt lat="42.1994096" lon="1.5929062">
<ele>1782.92</ele>
<time>2017-10-27T13:24:14Z</time>
</trkpt>
<trkpt lat="42.1995064" lon="1.5928347">
<ele>1783.92</ele>
<time>2017-10-27T13:24:20Z</time>
</trkpt>
<trkpt lat="42.1995415" lon="1.5927180">
<ele>1781.92</ele>
<time>2017-10-27T13:24:29Z</time>
</trkpt>
<trkpt lat="42.1996277" lon="1.5926723">
<ele>1781.92</ele>
<time>2017-10-27T13:24:32Z</time>
</trkpt>
<trkpt lat="42.1996571" lon="1.5925422">
<ele>1781.92</ele>
<time>2017-10-27T13:24:42Z</time>
</trkpt>
<trkpt lat="42.1996907" lon="1.5924139">
<ele>1782.92</ele>
<time>2017-10-27T13:24:49Z</time>
</trkpt>
<trkpt lat="42.1996986" lon="1.5922882">
<ele>1778.92</ele>
<time>2017-10-27T13:24:54Z</time>
</trkpt>
<trkpt lat="42.1996611" lon="1.5921505">
<ele>1776.92</ele>
<time>2017-10-27T13:25:03Z</time>
</trkpt>
<trkpt lat="42.1996240" lon="1.5920335">
<ele>1773.92</ele>
<time>2017-10-27T13:25:12Z</time>
</trkpt>
<trkpt lat="42.1995954" lon="1.5919062">
<ele>1771.92</ele>
<time>2017-10-27T13:25:17Z</time>
</trkpt>
<trkpt lat="42.1995516" lon="1.5917842">
<ele>1767.92</ele>
<time>2017-10-27T13:25:24Z</time>
</trkpt>
<trkpt lat="42.1995841" lon="1.5916667">
<ele>1767.92</ele>
<time>2017-10-27T13:25:33Z</time>
</trkpt>
<trkpt lat="42.1996508" lon="1.5915838">
<ele>1764.92</ele>
<time>2017-10-27T13:25:40Z</time>
</trkpt>
<trkpt lat="42.1997098" lon="1.5914849">
<ele>1766.92</ele>
<time>2017-10-27T13:25:49Z</time>
</trkpt>
<trkpt lat="42.1997844" lon="1.5913876">
<ele>1765.92</ele>
<time>2017-10-27T13:25:55Z</time>
</trkpt>
<trkpt lat="42.1998817" lon="1.5913407">
<ele>1765.92</ele>
<time>2017-10-27T13:26:03Z</time>
</trkpt>
<trkpt lat="42.1999466" lon="1.5912532">
<ele>1759.92</ele>
<time>2017-10-27T13:26:10Z</time>
</trkpt>
<trkpt lat="42.2000204" lon="1.5911541">
<ele>1758.92</ele>
<time>2017-10-27T13:26:18Z</time>
</trkpt>
<trkpt lat="42.2000314" lon="1.5910310">
<ele>1760.92</ele>
<time>2017-10-27T13:26:25Z</time>
</trkpt>
<trkpt lat="42.1999762" lon="1.5909308">
<ele>1761.92</ele>
<time>2017-10-27T13:26:31Z</time>
</trkpt>
<trkpt lat="42.1999200" lon="1.5908067">
<ele>1764.92</ele>
<time>2017-10-27T13:26:38Z</time>
</trkpt>
<trkpt lat="42.1999092" lon="1.5906714">
<ele>1764.92</ele>
<time>2017-10-27T13:26:44Z</time>
</trkpt>
<trkpt lat="42.1998701" lon="1.5905621">
<ele>1763.92</ele>
<time>2017-10-27T13:26:51Z</time>
</trkpt>
<trkpt lat="42.1998623" lon="1.5904295">
<ele>1762.92</ele>
<time>2017-10-27T13:27:00Z</time>
</trkpt>
<trkpt lat="42.1998639" lon="1.5903012">
<ele>1763.92</ele>
<time>2017-10-27T13:27:06Z</time>
</trkpt>
<trkpt lat="42.1998981" lon="1.5901670">
<ele>1762.92</ele>
<time>2017-10-27T13:27:14Z</time>
</trkpt>
<trkpt lat="42.1999393" lon="1.5900584">
<ele>1759.92</ele>
<time>2017-10-27T13:27:21Z</time>
</trkpt>
<trkpt lat="42.1999839" lon="1.5899529">
<ele>1760.92</ele>
<time>2017-10-27T13:27:27Z</time>
</trkpt>
<trkpt lat="42.2000295" lon="1.5898451">
<ele>1757.92</ele>
<time>2017-10-27T13:27:35Z</time>
</trkpt>
<trkpt lat="42.2000534" lon="1.5897266">
<ele>1757.92</ele>
<time>2017-10-27T13:27:41Z</time>
</trkpt>
<trkpt lat="42.2000954" lon="1.5896100">
<ele>1758.92</ele>
<time>2017-10-27T13:27:49Z</time>
</trkpt>
<trkpt lat="42.2001234" lon="1.5894793">
<ele>1761.92</ele>
<time>2017-10-27T13:27:56Z</time>
</trkpt>
<trkpt lat="42.2001183" lon="1.5893430">
<ele>1761.92</ele>
<time>2017-10-27T13:28:03Z</time>
</trkpt>
<trkpt lat="42.2000979" lon="1.5892189">
<ele>1760.92</ele>
<time>2017-10-27T13:28:12Z</time>
</trkpt>
<trkpt lat="42.2001169" lon="1.5890850">
<ele>1758.92</ele>
<time>2017-10-27T13:28:18Z</time>
</trkpt>
<trkpt lat="42.2001061" lon="1.5889464">
<ele>1760.92</ele>
<time>2017-10-27T13:28:25Z</time>
</trkpt>
<trkpt lat="42.2001260" lon="1.5888144">
<ele>1761.92</ele>
<time>2017-10-27T13:28:34Z</time>
</trkpt>
<trkpt lat="42.2001756" lon="1.5887126">
<ele>1758.92</ele>
<time>2017-10-27T13:28:41Z</time>
</trkpt>
<trkpt lat="42.2002297" lon="1.5885909">
<ele>1758.92</ele>
<time>2017-10-27T13:28:47Z</time>
</trkpt>
<trkpt lat="42.2003130" lon="1.5885135">
<ele>1759.92</ele>
<time>2017-10-27T13:28:55Z</time>
</trkpt>
<trkpt lat="42.2003940" lon="1.5884423">
<ele>1756.92</ele>
<time>2017-10-27T13:29:03Z</time>
</trkpt>
<trkpt lat="42.2004847" lon="1.5883792">
<ele>1757.92</ele>
<time>2017-10-27T13:29:10Z</time>
</trkpt>
<trkpt lat="42.2005850" lon="1.5883468">
<ele>1759.92</ele>
<time>2017-10-27T13:29:17Z</time>
</trkpt>
<trkpt lat="42.2006310" lon="1.5882317">
<ele>1759.92</ele>
<time>2017-10-27T13:29:23Z</time>
</trkpt>
<trkpt lat="42.2006779" lon="1.5881280">
<ele>1760.92</ele>
<time>2017-10-27T13:29:30Z</time>
</trkpt>
<trkpt lat="42.2006719" lon="1.5879924">
<ele>1756.92</ele>
<time>2017-10-27T13:29:38Z</time>
</trkpt>
<trkpt lat="42.2006448" lon="1.5878755">
<ele>1752.92</ele>
<time>2017-10-27T13:29:46Z</time>
</trkpt>
<trkpt lat="42.2006412" lon="1.5877407">
<ele>1755.92</ele>
<time>2017-10-27T13:29:53Z</time>
</trkpt>
<trkpt lat="42.2006317" lon="1.5876053">
<ele>1751.92</ele>
<time>2017-10-27T13:30:02Z</time>
</trkpt>
<trkpt lat="42.2005926" lon="1.5874944">
<ele>1747.92</ele>
<time>2017-10-27T13:30:07Z</time>
</trkpt>
<trkpt lat="42.2005434" lon="1.5873802">
<ele>1745.92</ele>
<time>2017-10-27T13:30:16Z</time>
</trkpt>
<trkpt lat="42.2005019" lon="1.5872439">
<ele>1746.92</ele>
<time>2017-10-27T13:30:22Z</time>
</trkpt>
<trkpt lat="42.2004495" lon="1.5871338">
<ele>1747.92</ele>
<time>2017-10-27T13:30:29Z</time>
</trkpt>
<trkpt lat="42.2004229" lon="1.5869964">
<ele>1746.92</ele>
<time>2017-10-27T13:30:39Z</time>
</trkpt>
<trkpt lat="42.2004263" lon="1.5868674">
<ele>1746.92</ele>
<time>2017-10-27T13:30:45Z</time>
</trkpt>
<trkpt lat="42.2004070" lon="1.5867468">
<ele>1747.92</ele>
<time>2017-10-27T13:30:52Z</time>
</trkpt>
<trkpt lat="42.2003973" lon="1.5866185">
<ele>1746.92</ele>
<time>2017-10-27T13:30:58Z</time>
</trkpt>
<trkpt lat="42.2003842" lon="1.5864742">
<ele>1740.92</ele>
<time>2017-10-27T13:31:13Z</time>
</trkpt>
<trkpt lat="42.2003859" lon="1.5863499">
<ele>1736.92</ele>
<time>2017-10-27T13:31:19Z</time>
</trkpt>
<trkpt lat="42.2003657" lon="1.5862239">
<ele>1739.92</ele>
<time>2017-10-27T13:31:25Z</time>
</trkpt>
<trkpt lat="42.2003780" lon="1.5860849">
<ele>1738.92</ele>
<time>2017-10-27T13:31:31Z</time>
</trkpt>
<trkpt lat="42.2003844" lon="1.5859441">
<ele>1737.92</ele>
<time>2017-10-27T13:31:38Z</time>
</trkpt>
<trkpt lat="42.2003775" lon="1.5858171">
<ele>1738.92</ele>
<time>2017-10-27T13:31:45Z</time>
</trkpt>
<trkpt lat="42.2003473" lon="1.5856834">
<ele>1735.92</ele>
<time>2017-10-27T13:31:52Z</time>
</trkpt>
<trkpt lat="42.2003129" lon="1.5855700">
<ele>1732.92</ele>
<time>2017-10-27T13:31:59Z</time>
</trkpt>
<trkpt lat="42.2002769" lon="1.5854545">
<ele>1729.92</ele>
<time>2017-10-27T13:32:06Z</time>
</trkpt>
<trkpt lat="42.2002415" lon="1.5853267">
<ele>1728.92</ele>
<time>2017-10-27T13:32:13Z</time>
</trkpt>
<trkpt lat="42.2002008" lon="1.5852015">
<ele>1720.92</ele>
<time>2017-10-27T13:32:20Z</time>
</trkpt>
<trkpt lat="42.2001389" lon="1.5851028">
<ele>1718.92</ele>
<time>2017-10-27T13:32:30Z</time>
</trkpt>
<trkpt lat="42.2000813" lon="1.5850087">
<ele>1714.92</ele>
<time>2017-10-27T13:33:51Z</time>
</trkpt>
<trkpt lat="42.2000773" lon="1.5848680">
<ele>1709.92</ele>
<time>2017-10-27T13:34:11Z</time>
</trkpt>
<trkpt lat="42.2001255" lon="1.5847511">
<ele>1712.92</ele>
<time>2017-10-27T13:34:18Z</time>
</trkpt>
<trkpt lat="42.2001899" lon="1.5846486">
<ele>1709.92</ele>
<time>2017-10-27T13:34:26Z</time>
</trkpt>
<trkpt lat="42.2002869" lon="1.5845998">
<ele>1707.92</ele>
<time>2017-10-27T13:34:33Z</time>
</trkpt>
<trkpt lat="42.2003362" lon="1.5844958">
<ele>1706.92</ele>
<time>2017-10-27T13:34:41Z</time>
</trkpt>
<trkpt lat="42.2003829" lon="1.5843838">
<ele>1707.92</ele>
<time>2017-10-27T13:34:49Z</time>
</trkpt>
<trkpt lat="42.2004232" lon="1.5842666">
<ele>1707.92</ele>
<time>2017-10-27T13:34:57Z</time>
</trkpt>
<trkpt lat="42.2004918" lon="1.5841860">
<ele>1710.92</ele>
<time>2017-10-27T13:35:03Z</time>
</trkpt>
<trkpt lat="42.2005686" lon="1.5841036">
<ele>1711.92</ele>
<time>2017-10-27T13:35:10Z</time>
</trkpt>
<trkpt lat="42.2006590" lon="1.5840302">
<ele>1709.92</ele>
<time>2017-10-27T13:35:18Z</time>
</trkpt>
<trkpt lat="42.2007475" lon="1.5839746">
<ele>1707.92</ele>
<time>2017-10-27T13:35:26Z</time>
</trkpt>
<trkpt lat="42.2006866" lon="1.5838652">
<ele>1708.92</ele>
<time>2017-10-27T13:36:14Z</time>
</trkpt>
<trkpt lat="42.2006040" lon="1.5837674">
<ele>1707.92</ele>
<time>2017-10-27T13:36:20Z</time>
</trkpt>
<trkpt lat="42.2005082" lon="1.5837291">
<ele>1707.92</ele>
<time>2017-10-27T13:36:26Z</time>
</trkpt>
<trkpt lat="42.2004158" lon="1.5837397">
<ele>1704.92</ele>
<time>2017-10-27T13:36:33Z</time>
</trkpt>
<trkpt lat="42.2003016" lon="1.5837548">
<ele>1700.92</ele>
<time>2017-10-27T13:36:38Z</time>
</trkpt>
<trkpt lat="42.2002225" lon="1.5838357">
<ele>1704.92</ele>
<time>2017-10-27T13:36:45Z</time>
</trkpt>
<trkpt lat="42.2001263" lon="1.5838512">
<ele>1702.92</ele>
<time>2017-10-27T13:36:56Z</time>
</trkpt>
<trkpt lat="42.2000377" lon="1.5837993">
<ele>1702.92</ele>
<time>2017-10-27T13:37:00Z</time>
</trkpt>
<trkpt lat="42.2000109" lon="1.5836824">
<ele>1702.92</ele>
<time>2017-10-27T13:37:09Z</time>
</trkpt>
<trkpt lat="42.1999604" lon="1.5835655">
<ele>1702.92</ele>
<time>2017-10-27T13:37:18Z</time>
</trkpt>
<trkpt lat="42.1999301" lon="1.5834341">
<ele>1700.92</ele>
<time>2017-10-27T13:37:22Z</time>
</trkpt>
<trkpt lat="42.1998842" lon="1.5833112">
<ele>1702.92</ele>
<time>2017-10-27T13:37:31Z</time>
</trkpt>
<trkpt lat="42.1998572" lon="1.5831815">
<ele>1702.92</ele>
<time>2017-10-27T13:37:40Z</time>
</trkpt>
<trkpt lat="42.1998042" lon="1.5830745">
<ele>1699.92</ele>
<time>2017-10-27T13:37:48Z</time>
</trkpt>
<trkpt lat="42.1997842" lon="1.5829344">
<ele>1700.92</ele>
<time>2017-10-27T13:37:59Z</time>
</trkpt>
<trkpt lat="42.1997136" lon="1.5828341">
<ele>1700.92</ele>
<time>2017-10-27T13:38:07Z</time>
</trkpt>
<trkpt lat="42.1996463" lon="1.5827068">
<ele>1702.92</ele>
<time>2017-10-27T13:38:11Z</time>
</trkpt>
<trkpt lat="42.1996295" lon="1.5825828">
<ele>1702.92</ele>
<time>2017-10-27T13:38:15Z</time>
</trkpt>
<trkpt lat="42.1995352" lon="1.5825353">
<ele>1695.92</ele>
<time>2017-10-27T13:38:23Z</time>
</trkpt>
<trkpt lat="42.1994517" lon="1.5824891">
<ele>1692.92</ele>
<time>2017-10-27T13:38:32Z</time>
</trkpt>
<trkpt lat="42.1993746" lon="1.5824069">
<ele>1694.92</ele>
<time>2017-10-27T13:38:45Z</time>
</trkpt>
<trkpt lat="42.1993592" lon="1.5822820">
<ele>1689.92</ele>
<time>2017-10-27T13:44:35Z</time>
</trkpt>
<trkpt lat="42.1992928" lon="1.5824010">
<ele>1690.92</ele>
<time>2017-10-27T13:49:16Z</time>
</trkpt>
<trkpt lat="42.1992085" lon="1.5824542">
<ele>1684.92</ele>
<time>2017-10-27T13:49:22Z</time>
</trkpt>
<trkpt lat="42.1991410" lon="1.5825501">
<ele>1682.92</ele>
<time>2017-10-27T13:49:31Z</time>
</trkpt>
<trkpt lat="42.1990723" lon="1.5826309">
<ele>1678.92</ele>
<time>2017-10-27T13:49:48Z</time>
</trkpt>
<trkpt lat="42.1989806" lon="1.5826525">
<ele>1673.92</ele>
<time>2017-10-27T13:49:58Z</time>
</trkpt>
<trkpt lat="42.1988904" lon="1.5826775">
<ele>1666.92</ele>
<time>2017-10-27T13:50:05Z</time>
</trkpt>
<trkpt lat="42.1987973" lon="1.5826766">
<ele>1664.92</ele>
<time>2017-10-27T13:50:14Z</time>
</trkpt>
<trkpt lat="42.1987071" lon="1.5827292">
<ele>1663.92</ele>
<time>2017-10-27T13:50:21Z</time>
</trkpt>
<trkpt lat="42.1986122" lon="1.5827529">
<ele>1660.92</ele>
<time>2017-10-27T13:50:30Z</time>
</trkpt>
<trkpt lat="42.1985204" lon="1.5828008">
<ele>1658.92</ele>
<time>2017-10-27T13:50:39Z</time>
</trkpt>
<trkpt lat="42.1984344" lon="1.5828619">
<ele>1659.92</ele>
<time>2017-10-27T13:50:46Z</time>
</trkpt>
<trkpt lat="42.1983603" lon="1.5829360">
<ele>1648.92</ele>
<time>2017-10-27T13:50:58Z</time>
</trkpt>
<trkpt lat="42.1982708" lon="1.5829822">
<ele>1647.92</ele>
<time>2017-10-27T13:51:05Z</time>
</trkpt>
<trkpt lat="42.1981759" lon="1.5830244">
<ele>1646.92</ele>
<time>2017-10-27T13:51:15Z</time>
</trkpt>
<trkpt lat="42.1980965" lon="1.5830878">
<ele>1644.92</ele>
<time>2017-10-27T13:51:27Z</time>
</trkpt>
<trkpt lat="42.1980105" lon="1.5831466">
<ele>1641.92</ele>
<time>2017-10-27T13:51:34Z</time>
</trkpt>
<trkpt lat="42.1979184" lon="1.5831622">
<ele>1637.92</ele>
<time>2017-10-27T13:51:43Z</time>
</trkpt>
<trkpt lat="42.1978217" lon="1.5831613">
<ele>1635.92</ele>
<time>2017-10-27T13:51:53Z</time>
</trkpt>
<trkpt lat="42.1977294" lon="1.5831626">
<ele>1636.92</ele>
<time>2017-10-27T13:52:12Z</time>
</trkpt>
<trkpt lat="42.1976398" lon="1.5832089">
<ele>1631.92</ele>
<time>2017-10-27T13:52:23Z</time>
</trkpt>
<trkpt lat="42.1975558" lon="1.5831468">
<ele>1628.92</ele>
<time>2017-10-27T13:52:33Z</time>
</trkpt>
<trkpt lat="42.1974581" lon="1.5831560">
<ele>1624.92</ele>
<time>2017-10-27T13:52:43Z</time>
</trkpt>
<trkpt lat="42.1973654" lon="1.5831323">
<ele>1619.92</ele>
<time>2017-10-27T13:52:55Z</time>
</trkpt>
<trkpt lat="42.1972788" lon="1.5830870">
<ele>1618.92</ele>
<time>2017-10-27T13:53:04Z</time>
</trkpt>
<trkpt lat="42.1972021" lon="1.5830202">
<ele>1616.92</ele>
<time>2017-10-27T13:53:15Z</time>
</trkpt>
<trkpt lat="42.1971115" lon="1.5829788">
<ele>1613.92</ele>
<time>2017-10-27T13:53:26Z</time>
</trkpt>
<trkpt lat="42.1970171" lon="1.5829425">
<ele>1610.92</ele>
<time>2017-10-27T13:53:36Z</time>
</trkpt>
<trkpt lat="42.1969248" lon="1.5829752">
<ele>1608.92</ele>
<time>2017-10-27T13:53:44Z</time>
</trkpt>
<trkpt lat="42.1968231" lon="1.5829637">
<ele>1604.92</ele>
<time>2017-10-27T13:53:55Z</time>
</trkpt>
<trkpt lat="42.1967274" lon="1.5829243">
<ele>1601.92</ele>
<time>2017-10-27T13:54:03Z</time>
</trkpt>
<trkpt lat="42.1966406" lon="1.5828863">
<ele>1601.92</ele>
<time>2017-10-27T13:54:09Z</time>
</trkpt>
<trkpt lat="42.1965585" lon="1.5828199">
<ele>1598.92</ele>
<time>2017-10-27T13:54:17Z</time>
</trkpt>
<trkpt lat="42.1964536" lon="1.5828088">
<ele>1595.92</ele>
<time>2017-10-27T13:54:25Z</time>
</trkpt>
<trkpt lat="42.1963598" lon="1.5828571">
<ele>1592.92</ele>
<time>2017-10-27T13:54:35Z</time>
</trkpt>
<trkpt lat="42.1962682" lon="1.5828436">
<ele>1595.92</ele>
<time>2017-10-27T13:54:43Z</time>
</trkpt>
<trkpt lat="42.1961776" lon="1.5828470">
<ele>1587.92</ele>
<time>2017-10-27T13:54:52Z</time>
</trkpt>
<trkpt lat="42.1960841" lon="1.5828163">
<ele>1582.92</ele>
<time>2017-10-27T13:55:02Z</time>
</trkpt>
<trkpt lat="42.1960358" lon="1.5826909">
<ele>1582.92</ele>
<time>2017-10-27T13:55:10Z</time>
</trkpt>
<trkpt lat="42.1959438" lon="1.5826633">
<ele>1579.92</ele>
<time>2017-10-27T13:55:17Z</time>
</trkpt>
<trkpt lat="42.1958540" lon="1.5826291">
<ele>1578.92</ele>
<time>2017-10-27T13:55:24Z</time>
</trkpt>
<trkpt lat="42.1957699" lon="1.5825787">
<ele>1578.92</ele>
<time>2017-10-27T13:55:32Z</time>
</trkpt>
<trkpt lat="42.1956788" lon="1.5825634">
<ele>1574.92</ele>
<time>2017-10-27T13:55:41Z</time>
</trkpt>
<trkpt lat="42.1955806" lon="1.5825738">
<ele>1570.92</ele>
<time>2017-10-27T13:55:53Z</time>
</trkpt>
<trkpt lat="42.1954836" lon="1.5825266">
<ele>1568.92</ele>
<time>2017-10-27T13:56:01Z</time>
</trkpt>
<trkpt lat="42.1953921" lon="1.5824673">
<ele>1571.92</ele>
<time>2017-10-27T13:56:09Z</time>
</trkpt>
<trkpt lat="42.1952944" lon="1.5824502">
<ele>1566.92</ele>
<time>2017-10-27T13:56:17Z</time>
</trkpt>
<trkpt lat="42.1952047" lon="1.5824606">
<ele>1563.92</ele>
<time>2017-10-27T13:56:24Z</time>
</trkpt>
<trkpt lat="42.1951147" lon="1.5824996">
<ele>1560.92</ele>
<time>2017-10-27T13:56:32Z</time>
</trkpt>
<trkpt lat="42.1950230" lon="1.5824956">
<ele>1558.92</ele>
<time>2017-10-27T13:56:44Z</time>
</trkpt>
<trkpt lat="42.1949333" lon="1.5824727">
<ele>1552.92</ele>
<time>2017-10-27T13:57:00Z</time>
</trkpt>
<trkpt lat="42.1948683" lon="1.5825647">
<ele>1547.92</ele>
<time>2017-10-27T13:57:11Z</time>
</trkpt>
<trkpt lat="42.1947863" lon="1.5825128">
<ele>1544.92</ele>
<time>2017-10-27T13:57:26Z</time>
</trkpt>
<trkpt lat="42.1947327" lon="1.5824098">
<ele>1538.92</ele>
<time>2017-10-27T13:57:36Z</time>
</trkpt>
<trkpt lat="42.1946820" lon="1.5823094">
<ele>1536.92</ele>
<time>2017-10-27T13:57:55Z</time>
</trkpt>
<trkpt lat="42.1946767" lon="1.5821696">
<ele>1533.92</ele>
<time>2017-10-27T13:58:04Z</time>
</trkpt>
<trkpt lat="42.1946464" lon="1.5820426">
<ele>1530.92</ele>
<time>2017-10-27T13:58:15Z</time>
</trkpt>
<trkpt lat="42.1947441" lon="1.5820427">
<ele>1524.92</ele>
<time>2017-10-27T13:59:06Z</time>
</trkpt>
<trkpt lat="42.1948205" lon="1.5819623">
<ele>1519.92</ele>
<time>2017-10-27T13:59:18Z</time>
</trkpt>
<trkpt lat="42.1949132" lon="1.5818987">
<ele>1515.92</ele>
<time>2017-10-27T13:59:30Z</time>
</trkpt>
<trkpt lat="42.1949604" lon="1.5817901">
<ele>1515.92</ele>
<time>2017-10-27T13:59:43Z</time>
</trkpt>
<trkpt lat="42.1948728" lon="1.5817361">
<ele>1514.92</ele>
<time>2017-10-27T13:59:53Z</time>
</trkpt>
<trkpt lat="42.1947879" lon="1.5816804">
<ele>1512.92</ele>
<time>2017-10-27T14:00:00Z</time>
</trkpt>
<trkpt lat="42.1946922" lon="1.5816397">
<ele>1509.92</ele>
<time>2017-10-27T14:00:09Z</time>
</trkpt>
<trkpt lat="42.1946044" lon="1.5816066">
<ele>1506.92</ele>
<time>2017-10-27T14:00:18Z</time>
</trkpt>
<trkpt lat="42.1945143" lon="1.5816010">
<ele>1505.92</ele>
<time>2017-10-27T14:00:24Z</time>
</trkpt>
<trkpt lat="42.1944279" lon="1.5815478">
<ele>1503.92</ele>
<time>2017-10-27T14:00:33Z</time>
</trkpt>
<trkpt lat="42.1943442" lon="1.5814680">
<ele>1501.92</ele>
<time>2017-10-27T14:00:44Z</time>
</trkpt>
<trkpt lat="42.1942524" lon="1.5814924">
<ele>1496.92</ele>
<time>2017-10-27T14:00:53Z</time>
</trkpt>
<trkpt lat="42.1941638" lon="1.5815320">
<ele>1494.92</ele>
<time>2017-10-27T14:01:00Z</time>
</trkpt>
<trkpt lat="42.1940634" lon="1.5815611">
<ele>1493.92</ele>
<time>2017-10-27T14:01:08Z</time>
</trkpt>
<trkpt lat="42.1939759" lon="1.5816411">
<ele>1496.92</ele>
<time>2017-10-27T14:01:16Z</time>
</trkpt>
<trkpt lat="42.1938827" lon="1.5816770">
<ele>1495.92</ele>
<time>2017-10-27T14:01:29Z</time>
</trkpt>
<trkpt lat="42.1937855" lon="1.5816827">
<ele>1488.92</ele>
<time>2017-10-27T14:01:42Z</time>
</trkpt>
<trkpt lat="42.1936922" lon="1.5816362">
<ele>1489.92</ele>
<time>2017-10-27T14:01:52Z</time>
</trkpt>
<trkpt lat="42.1936220" lon="1.5815485">
<ele>1489.92</ele>
<time>2017-10-27T14:01:59Z</time>
</trkpt>
<trkpt lat="42.1935916" lon="1.5816814">
<ele>1484.92</ele>
<time>2017-10-27T14:02:35Z</time>
</trkpt>
<trkpt lat="42.1935840" lon="1.5818026">
<ele>1480.92</ele>
<time>2017-10-27T14:02:46Z</time>
</trkpt>
<trkpt lat="42.1936338" lon="1.5819045">
<ele>1479.92</ele>
<time>2017-10-27T14:02:54Z</time>
</trkpt>
<trkpt lat="42.1935646" lon="1.5820005">
<ele>1475.92</ele>
<time>2017-10-27T14:03:07Z</time>
</trkpt>
<trkpt lat="42.1934783" lon="1.5820506">
<ele>1471.92</ele>
<time>2017-10-27T14:03:18Z</time>
</trkpt>
<trkpt lat="42.1934031" lon="1.5821243">
<ele>1469.92</ele>
<time>2017-10-27T14:03:27Z</time>
</trkpt>
<trkpt lat="42.1933616" lon="1.5822364">
<ele>1461.92</ele>
<time>2017-10-27T14:03:38Z</time>
</trkpt>
<trkpt lat="42.1933051" lon="1.5823365">
<ele>1458.92</ele>
<time>2017-10-27T14:04:03Z</time>
</trkpt>
<trkpt lat="42.1932285" lon="1.5824088">
<ele>1456.92</ele>
<time>2017-10-27T14:04:15Z</time>
</trkpt>
<trkpt lat="42.1932596" lon="1.5825290">
<ele>1453.92</ele>
<time>2017-10-27T14:04:28Z</time>
</trkpt>
<trkpt lat="42.1933335" lon="1.5826285">
<ele>1450.92</ele>
<time>2017-10-27T14:04:36Z</time>
</trkpt>
<trkpt lat="42.1934283" lon="1.5827024">
<ele>1448.92</ele>
<time>2017-10-27T14:04:45Z</time>
</trkpt>
<trkpt lat="42.1934996" lon="1.5827815">
<ele>1445.92</ele>
<time>2017-10-27T14:04:52Z</time>
</trkpt>
<trkpt lat="42.1935664" lon="1.5828918">
<ele>1448.92</ele>
<time>2017-10-27T14:05:03Z</time>
</trkpt>
<trkpt lat="42.1935457" lon="1.5830147">
<ele>1444.92</ele>
<time>2017-10-27T14:05:21Z</time>
</trkpt>
<trkpt lat="42.1935037" lon="1.5831400">
<ele>1441.92</ele>
<time>2017-10-27T14:05:27Z</time>
</trkpt>
<trkpt lat="42.1934408" lon="1.5832563">
<ele>1438.92</ele>
<time>2017-10-27T14:05:33Z</time>
</trkpt>
<trkpt lat="42.1933857" lon="1.5833751">
<ele>1437.92</ele>
<time>2017-10-27T14:05:41Z</time>
</trkpt>
<trkpt lat="42.1933657" lon="1.5835029">
<ele>1427.92</ele>
<time>2017-10-27T14:05:51Z</time>
</trkpt>
<trkpt lat="42.1933418" lon="1.5836310">
<ele>1424.92</ele>
<time>2017-10-27T14:05:58Z</time>
</trkpt>
<trkpt lat="42.1933264" lon="1.5837533">
<ele>1422.92</ele>
<time>2017-10-27T14:06:09Z</time>
</trkpt>
<trkpt lat="42.1933005" lon="1.5838775">
<ele>1418.92</ele>
<time>2017-10-27T14:06:17Z</time>
</trkpt>
<trkpt lat="42.1932879" lon="1.5840112">
<ele>1415.92</ele>
<time>2017-10-27T14:06:23Z</time>
</trkpt>
<trkpt lat="42.1932712" lon="1.5841448">
<ele>1417.92</ele>
<time>2017-10-27T14:06:31Z</time>
</trkpt>
<trkpt lat="42.1931975" lon="1.5842240">
<ele>1414.92</ele>
<time>2017-10-27T14:06:42Z</time>
</trkpt>
<trkpt lat="42.1931202" lon="1.5843086">
<ele>1412.92</ele>
<time>2017-10-27T14:06:47Z</time>
</trkpt>
<trkpt lat="42.1931009" lon="1.5844286">
<ele>1409.92</ele>
<time>2017-10-27T14:06:54Z</time>
</trkpt>
<trkpt lat="42.1930874" lon="1.5845535">
<ele>1407.92</ele>
<time>2017-10-27T14:07:02Z</time>
</trkpt>
<trkpt lat="42.1931015" lon="1.5846858">
<ele>1404.92</ele>
<time>2017-10-27T14:07:10Z</time>
</trkpt>
<trkpt lat="42.1930538" lon="1.5847971">
<ele>1405.92</ele>
<time>2017-10-27T14:07:16Z</time>
</trkpt>
<trkpt lat="42.1930122" lon="1.5849159">
<ele>1407.92</ele>
<time>2017-10-27T14:07:22Z</time>
</trkpt>
<trkpt lat="42.1929389" lon="1.5850303">
<ele>1400.92</ele>
<time>2017-10-27T14:07:37Z</time>
</trkpt>
<trkpt lat="42.1928540" lon="1.5851032">
<ele>1398.92</ele>
<time>2017-10-27T14:07:46Z</time>
</trkpt>
<trkpt lat="42.1927745" lon="1.5851950">
<ele>1400.92</ele>
<time>2017-10-27T14:07:55Z</time>
</trkpt>
<trkpt lat="42.1926838" lon="1.5852674">
<ele>1400.92</ele>
<time>2017-10-27T14:08:00Z</time>
</trkpt>
<trkpt lat="42.1925999" lon="1.5853198">
<ele>1394.92</ele>
<time>2017-10-27T14:08:08Z</time>
</trkpt>
<trkpt lat="42.1925281" lon="1.5854099">
<ele>1396.92</ele>
<time>2017-10-27T14:08:16Z</time>
</trkpt>
<trkpt lat="42.1924435" lon="1.5854881">
<ele>1398.92</ele>
<time>2017-10-27T14:08:24Z</time>
</trkpt>
<trkpt lat="42.1923548" lon="1.5855751">
<ele>1395.92</ele>
<time>2017-10-27T14:08:33Z</time>
</trkpt>
<trkpt lat="42.1922849" lon="1.5856788">
<ele>1393.92</ele>
<time>2017-10-27T14:08:41Z</time>
</trkpt>
<trkpt lat="42.1922628" lon="1.5858041">
<ele>1388.92</ele>
<time>2017-10-27T14:10:02Z</time>
</trkpt>
<trkpt lat="42.1922424" lon="1.5859275">
<ele>1386.92</ele>
<time>2017-10-27T14:10:16Z</time>
</trkpt>
<trkpt lat="42.1922098" lon="1.5860532">
<ele>1384.92</ele>
<time>2017-10-27T14:10:48Z</time>
</trkpt>
<trkpt lat="42.1922122" lon="1.5861893">
<ele>1382.92</ele>
<time>2017-10-27T14:10:57Z</time>
</trkpt>
<trkpt lat="42.1922670" lon="1.5863094">
<ele>1376.92</ele>
<time>2017-10-27T14:11:07Z</time>
</trkpt>
<trkpt lat="42.1922361" lon="1.5864250">
<ele>1377.92</ele>
<time>2017-10-27T14:11:13Z</time>
</trkpt>
<trkpt lat="42.1922432" lon="1.5865546">
<ele>1376.92</ele>
<time>2017-10-27T14:11:21Z</time>
</trkpt>
<trkpt lat="42.1921869" lon="1.5866675">
<ele>1377.92</ele>
<time>2017-10-27T14:11:26Z</time>
</trkpt>
<trkpt lat="42.1922082" lon="1.5867966">
<ele>1374.92</ele>
<time>2017-10-27T14:11:37Z</time>
</trkpt>
<trkpt lat="42.1921349" lon="1.5868960">
<ele>1378.92</ele>
<time>2017-10-27T14:11:44Z</time>
</trkpt>
<trkpt lat="42.1920781" lon="1.5870037">
<ele>1377.92</ele>
<time>2017-10-27T14:11:52Z</time>
</trkpt>
<trkpt lat="42.1920358" lon="1.5871139">
<ele>1376.92</ele>
<time>2017-10-27T14:11:59Z</time>
</trkpt>
<trkpt lat="42.1919546" lon="1.5871807">
<ele>1376.92</ele>
<time>2017-10-27T14:12:05Z</time>
</trkpt>
<trkpt lat="42.1918950" lon="1.5872773">
<ele>1377.92</ele>
<time>2017-10-27T14:12:12Z</time>
</trkpt>
<trkpt lat="42.1918951" lon="1.5874097">
<ele>1372.92</ele>
<time>2017-10-27T14:12:24Z</time>
</trkpt>
<trkpt lat="42.1918023" lon="1.5874772">
<ele>1373.92</ele>
<time>2017-10-27T14:12:30Z</time>
</trkpt>
<trkpt lat="42.1917147" lon="1.5875171">
<ele>1373.92</ele>
<time>2017-10-27T14:12:36Z</time>
</trkpt>
<trkpt lat="42.1916524" lon="1.5876089">
<ele>1376.92</ele>
<time>2017-10-27T14:12:45Z</time>
</trkpt>
<trkpt lat="42.1915614" lon="1.5876475">
<ele>1377.92</ele>
<time>2017-10-27T14:12:53Z</time>
</trkpt>
<trkpt lat="42.1914753" lon="1.5876007">
<ele>1375.92</ele>
<time>2017-10-27T14:13:03Z</time>
</trkpt>
<trkpt lat="42.1913919" lon="1.5875340">
<ele>1377.92</ele>
<time>2017-10-27T14:13:10Z</time>
</trkpt>
<trkpt lat="42.1913174" lon="1.5874614">
<ele>1379.92</ele>
<time>2017-10-27T14:13:16Z</time>
</trkpt>
<trkpt lat="42.1912213" lon="1.5874268">
<ele>1375.92</ele>
<time>2017-10-27T14:13:22Z</time>
</trkpt>
<trkpt lat="42.1912203" lon="1.5873044">
<ele>1375.92</ele>
<time>2017-10-27T14:13:28Z</time>
</trkpt>
<trkpt lat="42.1911733" lon="1.5871873">
<ele>1377.92</ele>
<time>2017-10-27T14:13:37Z</time>
</trkpt>
<trkpt lat="42.1911337" lon="1.5870748">
<ele>1375.92</ele>
<time>2017-10-27T14:13:46Z</time>
</trkpt>
<trkpt lat="42.1910402" lon="1.5870462">
<ele>1374.92</ele>
<time>2017-10-27T14:13:52Z</time>
</trkpt>
<trkpt lat="42.1909426" lon="1.5870029">
<ele>1372.92</ele>
<time>2017-10-27T14:14:00Z</time>
</trkpt>
<trkpt lat="42.1908531" lon="1.5869296">
<ele>1373.92</ele>
<time>2017-10-27T14:14:07Z</time>
</trkpt>
<trkpt lat="42.1907847" lon="1.5868185">
<ele>1374.92</ele>
<time>2017-10-27T14:14:17Z</time>
</trkpt>
<trkpt lat="42.1906933" lon="1.5867888">
<ele>1372.92</ele>
<time>2017-10-27T14:14:25Z</time>
</trkpt>
<trkpt lat="42.1906050" lon="1.5867188">
<ele>1367.92</ele>
<time>2017-10-27T14:14:34Z</time>
</trkpt>
<trkpt lat="42.1905116" lon="1.5867507">
<ele>1364.92</ele>
<time>2017-10-27T14:14:38Z</time>
</trkpt>
<trkpt lat="42.1905408" lon="1.5866331">
<ele>1363.92</ele>
<time>2017-10-27T14:14:42Z</time>
</trkpt>
<trkpt lat="42.1904479" lon="1.5866388">
<ele>1361.92</ele>
<time>2017-10-27T14:14:46Z</time>
</trkpt>
<trkpt lat="42.1903809" lon="1.5865356">
<ele>1360.92</ele>
<time>2017-10-27T14:14:53Z</time>
</trkpt>
<trkpt lat="42.1903078" lon="1.5864564">
<ele>1360.92</ele>
<time>2017-10-27T14:14:59Z</time>
</trkpt>
<trkpt lat="42.1902152" lon="1.5863895">
<ele>1360.92</ele>
<time>2017-10-27T14:15:05Z</time>
</trkpt>
<trkpt lat="42.1901257" lon="1.5863303">
<ele>1359.92</ele>
<time>2017-10-27T14:15:13Z</time>
</trkpt>
<trkpt lat="42.1900342" lon="1.5863606">
<ele>1357.92</ele>
<time>2017-10-27T14:15:19Z</time>
</trkpt>
<trkpt lat="42.1899451" lon="1.5864170">
<ele>1355.92</ele>
<time>2017-10-27T14:15:28Z</time>
</trkpt>
<trkpt lat="42.1898503" lon="1.5864476">
<ele>1350.92</ele>
<time>2017-10-27T14:15:36Z</time>
</trkpt>
<trkpt lat="42.1897460" lon="1.5864308">
<ele>1349.92</ele>
<time>2017-10-27T14:15:53Z</time>
</trkpt>
<trkpt lat="42.1896444" lon="1.5864148">
<ele>1350.92</ele>
<time>2017-10-27T14:15:59Z</time>
</trkpt>
<trkpt lat="42.1895438" lon="1.5864296">
<ele>1348.92</ele>
<time>2017-10-27T14:16:10Z</time>
</trkpt>
<trkpt lat="42.1894506" lon="1.5864443">
<ele>1349.92</ele>
<time>2017-10-27T14:16:17Z</time>
</trkpt>
<trkpt lat="42.1893524" lon="1.5864430">
<ele>1343.92</ele>
<time>2017-10-27T14:16:26Z</time>
</trkpt>
<trkpt lat="42.1892618" lon="1.5864708">
<ele>1341.92</ele>
<time>2017-10-27T14:16:33Z</time>
</trkpt>
<trkpt lat="42.1891724" lon="1.5864942">
<ele>1342.92</ele>
<time>2017-10-27T14:16:38Z</time>
</trkpt>
<trkpt lat="42.1890641" lon="1.5864997">
<ele>1338.92</ele>
<time>2017-10-27T14:16:50Z</time>
</trkpt>
<trkpt lat="42.1889679" lon="1.5865139">
<ele>1340.92</ele>
<time>2017-10-27T14:16:56Z</time>
</trkpt>
<trkpt lat="42.1888709" lon="1.5865255">
<ele>1340.92</ele>
<time>2017-10-27T14:17:02Z</time>
</trkpt>
<trkpt lat="42.1887721" lon="1.5864999">
<ele>1343.92</ele>
<time>2017-10-27T14:17:09Z</time>
</trkpt>
<trkpt lat="42.1886752" lon="1.5864809">
<ele>1343.92</ele>
<time>2017-10-27T14:17:17Z</time>
</trkpt>
<trkpt lat="42.1885663" lon="1.5864878">
<ele>1343.92</ele>
<time>2017-10-27T14:17:29Z</time>
</trkpt>
<trkpt lat="42.1884961" lon="1.5865638">
<ele>1346.92</ele>
<time>2017-10-27T14:17:34Z</time>
</trkpt>
<trkpt lat="42.1884158" lon="1.5866241">
<ele>1348.92</ele>
<time>2017-10-27T14:17:40Z</time>
</trkpt>
<trkpt lat="42.1883466" lon="1.5867126">
<ele>1348.92</ele>
<time>2017-10-27T14:17:47Z</time>
</trkpt>
<trkpt lat="42.1882571" lon="1.5867593">
<ele>1354.92</ele>
<time>2017-10-27T14:17:52Z</time>
</trkpt>
<trkpt lat="42.1881644" lon="1.5868112">
<ele>1348.92</ele>
<time>2017-10-27T14:17:59Z</time>
</trkpt>
<trkpt lat="42.1880822" lon="1.5868727">
<ele>1349.92</ele>
<time>2017-10-27T14:18:08Z</time>
</trkpt>
<trkpt lat="42.1879862" lon="1.5868698">
<ele>1343.92</ele>
<time>2017-10-27T14:26:04Z</time>
</trkpt>
<trkpt lat="42.1879316" lon="1.5869870">
<ele>1336.92</ele>
<time>2017-10-27T14:26:18Z</time>
</trkpt>
<trkpt lat="42.1878644" lon="1.5870890">
<ele>1338.92</ele>
<time>2017-10-27T14:26:27Z</time>
</trkpt>
<trkpt lat="42.1878438" lon="1.5872152">
<ele>1332.92</ele>
<time>2017-10-27T14:26:41Z</time>
</trkpt>
<trkpt lat="42.1877553" lon="1.5872638">
<ele>1329.92</ele>
<time>2017-10-27T14:27:02Z</time>
</trkpt>
<trkpt lat="42.1876627" lon="1.5872557">
<ele>1330.92</ele>
<time>2017-10-27T14:27:10Z</time>
</trkpt>
<trkpt lat="42.1875569" lon="1.5872692">
<ele>1327.92</ele>
<time>2017-10-27T14:27:21Z</time>
</trkpt>
<trkpt lat="42.1874624" lon="1.5872217">
<ele>1326.92</ele>
<time>2017-10-27T14:27:42Z</time>
</trkpt>
<trkpt lat="42.1874180" lon="1.5873389">
<ele>1323.92</ele>
<time>2017-10-27T14:27:51Z</time>
</trkpt>
<trkpt lat="42.1873576" lon="1.5874327">
<ele>1321.92</ele>
<time>2017-10-27T14:28:04Z</time>
</trkpt>
<trkpt lat="42.1872814" lon="1.5875012">
<ele>1319.92</ele>
<time>2017-10-27T14:28:12Z</time>
</trkpt>
<trkpt lat="42.1872240" lon="1.5876117">
<ele>1315.92</ele>
<time>2017-10-27T14:28:23Z</time>
</trkpt>
<trkpt lat="42.1871482" lon="1.5876916">
<ele>1315.92</ele>
<time>2017-10-27T14:28:37Z</time>
</trkpt>
<trkpt lat="42.1871094" lon="1.5878049">
<ele>1306.92</ele>
<time>2017-10-27T14:29:02Z</time>
</trkpt>
<trkpt lat="42.1871349" lon="1.5879250">
<ele>1304.92</ele>
<time>2017-10-27T14:29:10Z</time>
</trkpt>
<trkpt lat="42.1870511" lon="1.5880059">
<ele>1302.92</ele>
<time>2017-10-27T14:29:39Z</time>
</trkpt>
<trkpt lat="42.1869584" lon="1.5880391">
<ele>1300.92</ele>
<time>2017-10-27T14:29:48Z</time>
</trkpt>
<trkpt lat="42.1868590" lon="1.5880051">
<ele>1298.92</ele>
<time>2017-10-27T14:29:56Z</time>
</trkpt>
<trkpt lat="42.1867900" lon="1.5879221">
<ele>1297.92</ele>
<time>2017-10-27T14:30:05Z</time>
</trkpt>
<trkpt lat="42.1867530" lon="1.5880336">
<ele>1292.92</ele>
<time>2017-10-27T14:30:29Z</time>
</trkpt>
<trkpt lat="42.1866892" lon="1.5881310">
<ele>1287.92</ele>
<time>2017-10-27T14:35:27Z</time>
</trkpt>
<trkpt lat="42.1865974" lon="1.5881395">
<ele>1286.92</ele>
<time>2017-10-27T14:35:46Z</time>
</trkpt>
<trkpt lat="42.1865648" lon="1.5882652">
<ele>1281.92</ele>
<time>2017-10-27T14:36:02Z</time>
</trkpt>
<trkpt lat="42.1865705" lon="1.5884063">
<ele>1279.92</ele>
<time>2017-10-27T14:36:13Z</time>
</trkpt>
<trkpt lat="42.1865951" lon="1.5885386">
<ele>1276.92</ele>
<time>2017-10-27T14:36:21Z</time>
</trkpt>
<trkpt lat="42.1865491" lon="1.5886494">
<ele>1275.92</ele>
<time>2017-10-27T14:36:28Z</time>
</trkpt>
<trkpt lat="42.1864613" lon="1.5887030">
<ele>1277.92</ele>
<time>2017-10-27T14:36:34Z</time>
</trkpt>
<trkpt lat="42.1863793" lon="1.5887725">
<ele>1272.92</ele>
<time>2017-10-27T14:36:44Z</time>
</trkpt>
<trkpt lat="42.1863055" lon="1.5887006">
<ele>1271.92</ele>
<time>2017-10-27T14:36:54Z</time>
</trkpt>
<trkpt lat="42.1862391" lon="1.5886122">
<ele>1265.92</ele>
<time>2017-10-27T14:37:13Z</time>
</trkpt>
<trkpt lat="42.1861963" lon="1.5887199">
<ele>1258.92</ele>
<time>2017-10-27T14:37:29Z</time>
</trkpt>
<trkpt lat="42.1861479" lon="1.5888439">
<ele>1251.92</ele>
<time>2017-10-27T14:37:38Z</time>
</trkpt>
<trkpt lat="42.1860562" lon="1.5888430">
<ele>1253.92</ele>
<time>2017-10-27T14:37:59Z</time>
</trkpt>
<trkpt lat="42.1860521" lon="1.5887173">
<ele>1252.92</ele>
<time>2017-10-27T14:38:52Z</time>
</trkpt>
<trkpt lat="42.1860554" lon="1.5888535">
<ele>1246.92</ele>
<time>2017-10-27T14:39:18Z</time>
</trkpt>
<trkpt lat="42.1859519" lon="1.5888698">
<ele>1249.92</ele>
<time>2017-10-27T14:40:30Z</time>
</trkpt>
<trkpt lat="42.1858783" lon="1.5889537">
<ele>1247.92</ele>
<time>2017-10-27T14:41:57Z</time>
</trkpt>
<trkpt lat="42.1858083" lon="1.5890726">
<ele>1243.92</ele>
<time>2017-10-27T14:42:09Z</time>
</trkpt>
<trkpt lat="42.1857223" lon="1.5891603">
<ele>1236.92</ele>
<time>2017-10-27T14:42:20Z</time>
</trkpt>
<trkpt lat="42.1856299" lon="1.5891831">
<ele>1238.92</ele>
<time>2017-10-27T14:42:26Z</time>
</trkpt>
<trkpt lat="42.1855322" lon="1.5892005">
<ele>1236.92</ele>
<time>2017-10-27T14:42:34Z</time>
</trkpt>
<trkpt lat="42.1854467" lon="1.5892448">
<ele>1232.92</ele>
<time>2017-10-27T14:42:47Z</time>
</trkpt>
<trkpt lat="42.1853816" lon="1.5893313">
<ele>1233.92</ele>
<time>2017-10-27T14:42:54Z</time>
</trkpt>
<trkpt lat="42.1853402" lon="1.5894619">
<ele>1233.92</ele>
<time>2017-10-27T14:43:01Z</time>
</trkpt>
<trkpt lat="42.1852602" lon="1.5895392">
<ele>1234.92</ele>
<time>2017-10-27T14:43:11Z</time>
</trkpt>
<trkpt lat="42.1851712" lon="1.5895072">
<ele>1232.92</ele>
<time>2017-10-27T14:43:18Z</time>
</trkpt>
<trkpt lat="42.1850752" lon="1.5894897">
<ele>1233.92</ele>
<time>2017-10-27T14:43:25Z</time>
</trkpt>
<trkpt lat="42.1849845" lon="1.5895297">
<ele>1227.92</ele>
<time>2017-10-27T14:43:34Z</time>
</trkpt>
<trkpt lat="42.1848944" lon="1.5895692">
<ele>1227.92</ele>
<time>2017-10-27T14:43:41Z</time>
</trkpt>
<trkpt lat="42.1848183" lon="1.5896433">
<ele>1227.92</ele>
<time>2017-10-27T14:43:47Z</time>
</trkpt>
<trkpt lat="42.1847508" lon="1.5897271">
<ele>1225.92</ele>
<time>2017-10-27T14:43:55Z</time>
</trkpt>
<trkpt lat="42.1846748" lon="1.5897940">
<ele>1224.92</ele>
<time>2017-10-27T14:44:02Z</time>
</trkpt>
<trkpt lat="42.1845875" lon="1.5898289">
<ele>1222.92</ele>
<time>2017-10-27T14:44:10Z</time>
</trkpt>
<trkpt lat="42.1844850" lon="1.5898248">
<ele>1220.92</ele>
<time>2017-10-27T14:44:17Z</time>
</trkpt>
<trkpt lat="42.1843862" lon="1.5898619">
<ele>1218.92</ele>
<time>2017-10-27T14:44:26Z</time>
</trkpt>
<trkpt lat="42.1842990" lon="1.5898969">
<ele>1216.92</ele>
<time>2017-10-27T14:44:33Z</time>
</trkpt>
<trkpt lat="42.1842163" lon="1.5899519">
<ele>1212.92</ele>
<time>2017-10-27T14:44:42Z</time>
</trkpt>
<trkpt lat="42.1841241" lon="1.5899918">
<ele>1212.92</ele>
<time>2017-10-27T14:44:51Z</time>
</trkpt>
<trkpt lat="42.1840954" lon="1.5901166">
<ele>1211.92</ele>
<time>2017-10-27T14:45:23Z</time>
</trkpt>
<trkpt lat="42.1840246" lon="1.5902210">
<ele>1209.92</ele>
<time>2017-10-27T14:45:37Z</time>
</trkpt>
<trkpt lat="42.1839780" lon="1.5903279">
<ele>1205.92</ele>
<time>2017-10-27T14:45:48Z</time>
</trkpt>
<trkpt lat="42.1839168" lon="1.5904459">
<ele>1205.92</ele>
<time>2017-10-27T14:46:00Z</time>
</trkpt>
<trkpt lat="42.1838312" lon="1.5904911">
<ele>1201.92</ele>
<time>2017-10-27T14:46:18Z</time>
</trkpt>
<trkpt lat="42.1837262" lon="1.5905063">
<ele>1200.92</ele>
<time>2017-10-27T14:46:31Z</time>
</trkpt>
<trkpt lat="42.1836838" lon="1.5903904">
<ele>1197.92</ele>
<time>2017-10-27T14:47:43Z</time>
</trkpt>
<trkpt lat="42.1836678" lon="1.5902702">
<ele>1195.92</ele>
<time>2017-10-27T14:47:53Z</time>
</trkpt>
<trkpt lat="42.1836643" lon="1.5901117">
<ele>1194.92</ele>
<time>2017-10-27T14:47:59Z</time>
</trkpt>
<trkpt lat="42.1835740" lon="1.5900868">
<ele>1191.92</ele>
<time>2017-10-27T14:48:10Z</time>
</trkpt>
<trkpt lat="42.1835051" lon="1.5901675">
<ele>1184.92</ele>
<time>2017-10-27T14:48:22Z</time>
</trkpt>
<trkpt lat="42.1834280" lon="1.5902430">
<ele>1182.92</ele>
<time>2017-10-27T14:48:31Z</time>
</trkpt>
<trkpt lat="42.1833389" lon="1.5902953">
<ele>1191.92</ele>
<time>2017-10-27T14:48:49Z</time>
</trkpt>
<trkpt lat="42.1832574" lon="1.5902320">
<ele>1183.92</ele>
<time>2017-10-27T14:49:04Z</time>
</trkpt>
<trkpt lat="42.1831665" lon="1.5902984">
<ele>1179.92</ele>
<time>2017-10-27T14:49:25Z</time>
</trkpt>
<trkpt lat="42.1830975" lon="1.5903917">
<ele>1177.92</ele>
<time>2017-10-27T14:49:35Z</time>
</trkpt>
<trkpt lat="42.1830211" lon="1.5904743">
<ele>1169.92</ele>
<time>2017-10-27T14:49:47Z</time>
</trkpt>
<trkpt lat="42.1829223" lon="1.5904603">
<ele>1163.92</ele>
<time>2017-10-27T14:49:56Z</time>
</trkpt>
<trkpt lat="42.1828394" lon="1.5905256">
<ele>1162.92</ele>
<time>2017-10-27T14:50:02Z</time>
</trkpt>
<trkpt lat="42.1827505" lon="1.5905514">
<ele>1164.92</ele>
<time>2017-10-27T14:50:08Z</time>
</trkpt>
<trkpt lat="42.1826745" lon="1.5906218">
<ele>1156.92</ele>
<time>2017-10-27T14:50:17Z</time>
</trkpt>
<trkpt lat="42.1825789" lon="1.5906302">
<ele>1150.92</ele>
<time>2017-10-27T14:50:29Z</time>
</trkpt>
<trkpt lat="42.1824985" lon="1.5905612">
<ele>1154.92</ele>
<time>2017-10-27T14:50:34Z</time>
</trkpt>
<trkpt lat="42.1824192" lon="1.5904996">
<ele>1157.92</ele>
<time>2017-10-27T14:50:45Z</time>
</trkpt>
<trkpt lat="42.1823526" lon="1.5905912">
<ele>1154.92</ele>
<time>2017-10-27T14:50:52Z</time>
</trkpt>
<trkpt lat="42.1822692" lon="1.5906499">
<ele>1148.92</ele>
<time>2017-10-27T14:51:02Z</time>
</trkpt>
<trkpt lat="42.1821795" lon="1.5907098">
<ele>1147.92</ele>
<time>2017-10-27T14:51:09Z</time>
</trkpt>
<trkpt lat="42.1820792" lon="1.5907744">
<ele>1147.92</ele>
<time>2017-10-27T14:51:17Z</time>
</trkpt>
<trkpt lat="42.1819935" lon="1.5907202">
<ele>1147.92</ele>
<time>2017-10-27T14:51:26Z</time>
</trkpt>
<trkpt lat="42.1818927" lon="1.5907310">
<ele>1145.92</ele>
<time>2017-10-27T14:51:34Z</time>
</trkpt>
<trkpt lat="42.1818229" lon="1.5906359">
<ele>1146.92</ele>
<time>2017-10-27T14:51:49Z</time>
</trkpt>
<trkpt lat="42.1817333" lon="1.5906095">
<ele>1144.92</ele>
<time>2017-10-27T14:51:54Z</time>
</trkpt>
<trkpt lat="42.1816558" lon="1.5905253">
<ele>1143.92</ele>
<time>2017-10-27T14:52:03Z</time>
</trkpt>
<trkpt lat="42.1815878" lon="1.5904393">
<ele>1136.92</ele>
<time>2017-10-27T14:52:55Z</time>
</trkpt>
<trkpt lat="42.1815888" lon="1.5903060">
<ele>1137.92</ele>
<time>2017-10-27T14:53:11Z</time>
</trkpt>
<trkpt lat="42.1814894" lon="1.5902635">
<ele>1136.92</ele>
<time>2017-10-27T14:53:19Z</time>
</trkpt>
<trkpt lat="42.1814001" lon="1.5901837">
<ele>1135.92</ele>
<time>2017-10-27T14:53:27Z</time>
</trkpt>
<trkpt lat="42.1813089" lon="1.5901656">
<ele>1131.92</ele>
<time>2017-10-27T14:53:35Z</time>
</trkpt>
<trkpt lat="42.1812233" lon="1.5901034">
<ele>1134.92</ele>
<time>2017-10-27T14:53:43Z</time>
</trkpt>
<trkpt lat="42.1811298" lon="1.5900751">
<ele>1129.92</ele>
<time>2017-10-27T14:53:51Z</time>
</trkpt>
<trkpt lat="42.1810384" lon="1.5900602">
<ele>1129.92</ele>
<time>2017-10-27T14:54:04Z</time>
</trkpt>
<trkpt lat="42.1809540" lon="1.5899834">
<ele>1126.92</ele>
<time>2017-10-27T14:55:48Z</time>
</trkpt>
<trkpt lat="42.1808536" lon="1.5899647">
<ele>1127.92</ele>
<time>2017-10-27T14:55:53Z</time>
</trkpt>
<trkpt lat="42.1807599" lon="1.5899616">
<ele>1125.92</ele>
<time>2017-10-27T14:56:02Z</time>
</trkpt>
<trkpt lat="42.1806871" lon="1.5898747">
<ele>1125.92</ele>
<time>2017-10-27T14:56:05Z</time>
</trkpt>
<trkpt lat="42.1806011" lon="1.5898189">
<ele>1125.92</ele>
<time>2017-10-27T14:56:12Z</time>
</trkpt>
<trkpt lat="42.1805087" lon="1.5898254">
<ele>1126.92</ele>
<time>2017-10-27T14:56:19Z</time>
</trkpt>
<trkpt lat="42.1804037" lon="1.5898130">
<ele>1125.92</ele>
<time>2017-10-27T14:56:32Z</time>
</trkpt>
<trkpt lat="42.1803125" lon="1.5898146">
<ele>1123.92</ele>
<time>2017-10-27T14:56:46Z</time>
</trkpt>
<trkpt lat="42.1802380" lon="1.5898972">
<ele>1121.92</ele>
<time>2017-10-27T14:56:56Z</time>
</trkpt>
<trkpt lat="42.1801807" lon="1.5899974">
<ele>1118.92</ele>
<time>2017-10-27T14:57:03Z</time>
</trkpt>
<trkpt lat="42.1801030" lon="1.5900713">
<ele>1115.92</ele>
<time>2017-10-27T15:00:58Z</time>
</trkpt>
<trkpt lat="42.1800516" lon="1.5901859">
<ele>1111.92</ele>
<time>2017-10-27T15:01:09Z</time>
</trkpt>
<trkpt lat="42.1800400" lon="1.5903148">
<ele>1107.92</ele>
<time>2017-10-27T15:01:19Z</time>
</trkpt>
<trkpt lat="42.1800145" lon="1.5904324">
<ele>1104.92</ele>
<time>2017-10-27T15:01:29Z</time>
</trkpt>
<trkpt lat="42.1800384" lon="1.5905524">
<ele>1104.92</ele>
<time>2017-10-27T15:01:37Z</time>
</trkpt>
<trkpt lat="42.1800559" lon="1.5906864">
<ele>1097.92</ele>
<time>2017-10-27T15:01:48Z</time>
</trkpt>
<trkpt lat="42.1800976" lon="1.5907965">
<ele>1095.92</ele>
<time>2017-10-27T15:01:55Z</time>
</trkpt>
<trkpt lat="42.1801415" lon="1.5909040">
<ele>1094.92</ele>
<time>2017-10-27T15:02:01Z</time>
</trkpt>
<trkpt lat="42.1801879" lon="1.5910151">
<ele>1091.92</ele>
<time>2017-10-27T15:02:09Z</time>
</trkpt>
<trkpt lat="42.1801796" lon="1.5911471">
<ele>1092.92</ele>
<time>2017-10-27T15:02:18Z</time>
</trkpt>
<trkpt lat="42.1802074" lon="1.5912701">
<ele>1087.92</ele>
<time>2017-10-27T15:02:29Z</time>
</trkpt>
<trkpt lat="42.1802559" lon="1.5913728">
<ele>1088.92</ele>
<time>2017-10-27T15:02:41Z</time>
</trkpt>
<trkpt lat="42.1803042" lon="1.5914872">
<ele>1086.92</ele>
<time>2017-10-27T15:02:48Z</time>
</trkpt>
<trkpt lat="42.1802074" lon="1.5914397">
<ele>1083.92</ele>
<time>2017-10-27T15:02:57Z</time>
</trkpt>
<trkpt lat="42.1801178" lon="1.5914715">
<ele>1086.92</ele>
<time>2017-10-27T15:03:06Z</time>
</trkpt>
<trkpt lat="42.1801508" lon="1.5915845">
<ele>1084.92</ele>
<time>2017-10-27T15:03:16Z</time>
</trkpt>
<trkpt lat="42.1800682" lon="1.5916598">
<ele>1081.92</ele>
<time>2017-10-27T15:03:38Z</time>
</trkpt>
<trkpt lat="42.1800916" lon="1.5917828">
<ele>1077.92</ele>
<time>2017-10-27T15:03:47Z</time>
</trkpt>
<trkpt lat="42.1801205" lon="1.5919046">
<ele>1076.92</ele>
<time>2017-10-27T15:03:57Z</time>
</trkpt>
<trkpt lat="42.1801439" lon="1.5920301">
<ele>1074.92</ele>
<time>2017-10-27T15:04:05Z</time>
</trkpt>
<trkpt lat="42.1801422" lon="1.5921595">
<ele>1071.92</ele>
<time>2017-10-27T15:04:15Z</time>
</trkpt>
<trkpt lat="42.1801296" lon="1.5922911">
<ele>1067.92</ele>
<time>2017-10-27T15:04:26Z</time>
</trkpt>
<trkpt lat="42.1800538" lon="1.5922158">
<ele>1065.92</ele>
<time>2017-10-27T15:04:36Z</time>
</trkpt>
<trkpt lat="42.1799757" lon="1.5921427">
<ele>1064.92</ele>
<time>2017-10-27T15:04:43Z</time>
</trkpt>
<trkpt lat="42.1798829" lon="1.5921277">
<ele>1064.92</ele>
<time>2017-10-27T15:04:52Z</time>
</trkpt>
<trkpt lat="42.1798362" lon="1.5920229">
<ele>1062.92</ele>
<time>2017-10-27T15:05:01Z</time>
</trkpt>
<trkpt lat="42.1797729" lon="1.5919336">
<ele>1058.92</ele>
<time>2017-10-27T15:05:11Z</time>
</trkpt>
<trkpt lat="42.1797324" lon="1.5918052">
<ele>1054.92</ele>
<time>2017-10-27T15:06:44Z</time>
</trkpt>
<trkpt lat="42.1796397" lon="1.5918605">
<ele>1050.92</ele>
<time>2017-10-27T15:06:49Z</time>
</trkpt>
<trkpt lat="42.1795720" lon="1.5917774">
<ele>1049.92</ele>
<time>2017-10-27T15:06:53Z</time>
</trkpt>
<trkpt lat="42.1794657" lon="1.5917715">
<ele>1052.92</ele>
<time>2017-10-27T15:07:00Z</time>
</trkpt>
<trkpt lat="42.1793690" lon="1.5917233">
<ele>1042.92</ele>
<time>2017-10-27T15:07:11Z</time>
</trkpt>
<trkpt lat="42.1793060" lon="1.5915797">
<ele>1041.92</ele>
<time>2017-10-27T15:07:19Z</time>
</trkpt>
<trkpt lat="42.1793006" lon="1.5917082">
<ele>1039.92</ele>
<time>2017-10-27T15:07:28Z</time>
</trkpt>
<trkpt lat="42.1792348" lon="1.5917982">
<ele>1037.92</ele>
<time>2017-10-27T15:07:47Z</time>
</trkpt>
<trkpt lat="42.1792532" lon="1.5919236">
<ele>1040.92</ele>
<time>2017-10-27T15:07:56Z</time>
</trkpt>
<trkpt lat="42.1791640" lon="1.5918979">
<ele>1036.92</ele>
<time>2017-10-27T15:08:13Z</time>
</trkpt>
<trkpt lat="42.1791000" lon="1.5917964">
<ele>1032.92</ele>
<time>2017-10-27T15:08:27Z</time>
</trkpt>
<trkpt lat="42.1790366" lon="1.5916788">
<ele>1035.92</ele>
<time>2017-10-27T15:08:41Z</time>
</trkpt>
<trkpt lat="42.1789597" lon="1.5915635">
<ele>1037.92</ele>
<time>2017-10-27T15:10:00Z</time>
</trkpt>
<trkpt lat="42.1788678" lon="1.5914736">
<ele>1035.92</ele>
<time>2017-10-27T15:10:03Z</time>
</trkpt>
<trkpt lat="42.1788663" lon="1.5916033">
<ele>1033.92</ele>
<time>2017-10-27T15:10:06Z</time>
</trkpt>
<trkpt lat="42.1787860" lon="1.5915396">
<ele>1032.92</ele>
<time>2017-10-27T15:10:10Z</time>
</trkpt>
<trkpt lat="42.1786962" lon="1.5915288">
<ele>1029.92</ele>
<time>2017-10-27T15:10:29Z</time>
</trkpt>
<trkpt lat="42.1786074" lon="1.5915673">
<ele>1026.92</ele>
<time>2017-10-27T15:10:46Z</time>
</trkpt>
<trkpt lat="42.1785169" lon="1.5915348">
<ele>1023.92</ele>
<time>2017-10-27T15:10:54Z</time>
</trkpt>
<trkpt lat="42.1784168" lon="1.5914873">
<ele>1024.92</ele>
<time>2017-10-27T15:11:00Z</time>
</trkpt>
<trkpt lat="42.1783201" lon="1.5914683">
<ele>1026.92</ele>
<time>2017-10-27T15:11:07Z</time>
</trkpt>
<trkpt lat="42.1782270" lon="1.5914310">
<ele>1025.92</ele>
<time>2017-10-27T15:11:15Z</time>
</trkpt>
<trkpt lat="42.1781402" lon="1.5913720">
<ele>1023.92</ele>
<time>2017-10-27T15:11:29Z</time>
</trkpt>
<trkpt lat="42.1781760" lon="1.5912446">
<ele>1019.92</ele>
<time>2017-10-27T15:11:40Z</time>
</trkpt>
<trkpt lat="42.1782416" lon="1.5911360">
<ele>1017.92</ele>
<time>2017-10-27T15:11:47Z</time>
</trkpt>
<trkpt lat="42.1783132" lon="1.5910478">
<ele>1018.92</ele>
<time>2017-10-27T15:11:53Z</time>
</trkpt>
<trkpt lat="42.1783770" lon="1.5909554">
<ele>1016.92</ele>
<time>2017-10-27T15:12:04Z</time>
</trkpt>
<trkpt lat="42.1782978" lon="1.5908664">
<ele>1025.92</ele>
<time>2017-10-27T15:12:46Z</time>
</trkpt>
<trkpt lat="42.1782978" lon="1.5910024">
<ele>1020.92</ele>
<time>2017-10-27T15:13:26Z</time>
</trkpt>
<trkpt lat="42.1782397" lon="1.5911255">
<ele>1019.92</ele>
<time>2017-10-27T15:13:39Z</time>
</trkpt>
<trkpt lat="42.1782105" lon="1.5912459">
<ele>1024.92</ele>
<time>2017-10-27T15:13:44Z</time>
</trkpt>
<trkpt lat="42.1781293" lon="1.5913063">
<ele>1021.92</ele>
<time>2017-10-27T15:13:50Z</time>
</trkpt>
<trkpt lat="42.1780355" lon="1.5913206">
<ele>1019.92</ele>
<time>2017-10-27T15:13:58Z</time>
</trkpt>
<trkpt lat="42.1779414" lon="1.5913652">
<ele>1016.92</ele>
<time>2017-10-27T15:14:06Z</time>
</trkpt>
<trkpt lat="42.1778449" lon="1.5913124">
<ele>1019.92</ele>
<time>2017-10-27T15:14:13Z</time>
</trkpt>
<trkpt lat="42.1777554" lon="1.5912356">
<ele>1015.92</ele>
<time>2017-10-27T15:14:21Z</time>
</trkpt>
<trkpt lat="42.1776634" lon="1.5912027">
<ele>1015.92</ele>
<time>2017-10-27T15:14:30Z</time>
</trkpt>
<trkpt lat="42.1775832" lon="1.5911458">
<ele>1012.92</ele>
<time>2017-10-27T15:14:38Z</time>
</trkpt>
<trkpt lat="42.1774956" lon="1.5911142">
<ele>1010.92</ele>
<time>2017-10-27T15:14:47Z</time>
</trkpt>
<trkpt lat="42.1773985" lon="1.5910776">
<ele>1008.92</ele>
<time>2017-10-27T15:14:54Z</time>
</trkpt>
<trkpt lat="42.1773170" lon="1.5910170">
<ele>1008.92</ele>
<time>2017-10-27T15:15:02Z</time>
</trkpt>
<trkpt lat="42.1772178" lon="1.5909894">
<ele>1010.92</ele>
<time>2017-10-27T15:15:08Z</time>
</trkpt>
<trkpt lat="42.1771166" lon="1.5909650">
<ele>1011.92</ele>
<time>2017-10-27T15:15:14Z</time>
</trkpt>
<trkpt lat="42.1770200" lon="1.5909195">
<ele>1008.92</ele>
<time>2017-10-27T15:15:22Z</time>
</trkpt>
<trkpt lat="42.1769122" lon="1.5908788">
<ele>1006.92</ele>
<time>2017-10-27T15:15:30Z</time>
</trkpt>
<trkpt lat="42.1768616" lon="1.5909967">
<ele>1002.92</ele>
<time>2017-10-27T15:15:36Z</time>
</trkpt>
<trkpt lat="42.1767719" lon="1.5909811">
<ele>1005.92</ele>
<time>2017-10-27T15:15:43Z</time>
</trkpt>
<trkpt lat="42.1766997" lon="1.5909036">
<ele>1008.92</ele>
<time>2017-10-27T15:15:50Z</time>
</trkpt>
<trkpt lat="42.1766013" lon="1.5908845">
<ele>1008.92</ele>
<time>2017-10-27T15:15:57Z</time>
</trkpt>
<trkpt lat="42.1765032" lon="1.5908113">
<ele>1010.92</ele>
<time>2017-10-27T15:16:03Z</time>
</trkpt>
<trkpt lat="42.1764068" lon="1.5908115">
<ele>1010.92</ele>
<time>2017-10-27T15:16:09Z</time>
</trkpt>
<trkpt lat="42.1763262" lon="1.5908829">
<ele>1008.92</ele>
<time>2017-10-27T15:16:19Z</time>
</trkpt>
<trkpt lat="42.1762269" lon="1.5908414">
<ele>1011.92</ele>
<time>2017-10-27T15:16:25Z</time>
</trkpt>
<trkpt lat="42.1761357" lon="1.5908864">
<ele>1009.92</ele>
<time>2017-10-27T15:16:34Z</time>
</trkpt>
</trkseg>
</trk>
</gpx>
